Provisional Data: Catatonk Creek near Spencer, NY


Please select a monitoring station.
Please select start date.
Please select start date.

Toggle Unit: C/F Toggle Unit: C/F
Sample Time Temperature (C) Temperature (F) Specific Conductivity (mS/cm) pH   Turbidity (NTU+) DO (mg/L)
12/23/2022 12:00:00 AM 3.04 37.472 0.385 7.57 4.67 11.86
12/23/2022 12:15:00 AM 3.06 37.508 0.385 7.57 4.93 11.87
12/23/2022 12:30:00 AM 3.07 37.526 0.383 7.57 4.85 11.84
12/23/2022 12:45:00 AM 3.11 37.598 0.38 7.57 4.78 11.85
12/23/2022 1:00:00 AM 3.12 37.616 0.376 7.57 4.56 11.83
12/23/2022 1:15:00 AM 3.13 37.634 0.368 7.57 4.9 11.83
12/23/2022 1:30:00 AM 3.14 37.652 0.361 7.57 4.53 11.83
12/23/2022 1:45:00 AM 3.16 37.688 0.356 7.57 4.72 11.81
12/23/2022 2:00:00 AM 3.18 37.724 0.354 7.56 4.69 11.8
12/23/2022 2:15:00 AM 3.19 37.742 0.357 7.56 5.36 11.79
12/23/2022 2:30:00 AM 3.19 37.742 0.362 7.56 6.36 11.79
12/23/2022 2:45:00 AM 3.19 37.742 0.365 7.55 6.88 11.79
12/23/2022 3:00:00 AM 3.19 37.742 0.362 7.55 7.55 11.78
12/23/2022 3:15:00 AM 3.17 37.706 0.358 7.55 7.41 11.79
12/23/2022 3:30:00 AM 3.15 37.67 0.35 7.54 7.26 11.8
12/23/2022 3:45:00 AM 3.13 37.634 0.342 7.54 6.84 11.81
12/23/2022 4:00:00 AM 3.09 37.562 0.334 7.54 6.98 11.82
12/23/2022 4:15:00 AM 3.06 37.508 0.328 7.53 7.22 11.84
12/23/2022 4:30:00 AM 2.99 37.382 0.322 7.53 6.99 11.83
12/23/2022 4:45:00 AM 2.92 37.256 0.318 7.52 9.88 11.85
12/23/2022 5:00:00 AM 2.81 37.058 0.312 7.51 9.77 11.9
12/23/2022 5:15:00 AM 2.68 36.824 0.298 7.52 13.58 12.05
12/23/2022 5:30:00 AM 2.55 36.59 0.283 7.53 17.49 12.22
12/23/2022 5:45:00 AM 2.42 36.356 0.268 7.54 16.22 12.37
12/23/2022 6:00:00 AM 2.29 36.122 0.256 7.54 29.27 12.5
12/23/2022 6:15:00 AM 2.14 35.852 0.242 7.54 24.87 12.58
12/23/2022 6:30:00 AM 1.99 35.582 0.226 7.52 22.72 12.61
12/23/2022 6:45:00 AM 1.76 35.168 0.204 7.5 49.66 12.76
12/23/2022 7:00:00 AM 1.55 34.79 0.199 7.46 53.68 12.87
12/23/2022 7:15:00 AM 1.24 34.232 0.181 7.44 69.19 13.04
12/23/2022 7:30:00 AM 0.96 33.728 0.156 7.4 78.65 13.15
12/23/2022 7:45:00 AM 0.79 33.422 0.145 7.36 83.08 13.23
12/23/2022 8:00:00 AM 0.65 33.17 0.139 7.34 93.45 13.29
12/23/2022 8:15:00 AM 0.57 33.026 0.137 7.32 359.51 13.34
12/23/2022 8:30:00 AM 0.51 32.918 0.134 7.3 91.58 13.37
12/23/2022 8:45:00 AM 0.48 32.864 0.132 7.29 74.61 13.38
12/23/2022 9:00:00 AM 0.46 32.828 0.129 7.28 112.36 13.38
12/23/2022 9:15:00 AM 0.45 32.81 0.126 7.27 74.56 13.4
12/23/2022 9:30:00 AM 0.44 32.792 0.122 7.25 111.14 13.4
12/23/2022 9:45:00 AM 0.42 32.756 0.099 7.24 78.66 13.41
12/23/2022 10:00:00 AM 0.42 32.756 0.117 7.23 72.4 13.43
12/23/2022 10:15:00 AM 0.41 32.738 0.118 7.21 90.1 13.43
12/23/2022 10:30:00 AM 0.41 32.738 0.118 7.2 66.33 13.44
12/23/2022 10:45:00 AM 0.41 32.738 0.117 7.18 70.04 13.44
12/23/2022 11:00:00 AM 0.43 32.774 0.115 7.17 132.03 13.45
12/23/2022 11:15:00 AM 0.42 32.756 0.112 7.16 68.46 13.45
12/23/2022 11:30:00 AM 0.42 32.756 0.108 7.15 57.73 13.45
12/23/2022 11:45:00 AM 0.41 32.738 0.105 7.15 68.41 13.45
12/23/2022 12:00:00 PM 0.38 32.684 0.104 7.14 55.47 13.45
12/23/2022 12:15:00 PM 0.37 32.666 0.102 7.13 57.02 13.45
12/23/2022 12:30:00 PM 0.36 32.648 0.101 7.13 52.26 13.45
12/23/2022 12:45:00 PM 0.35 32.63 0.1 7.13 49.75 13.44
12/23/2022 1:00:00 PM 0.37 32.666 0.099 7.12 49.77 13.44
12/23/2022 1:15:00 PM 0.37 32.666 0.098 7.11 43.51 13.44
12/23/2022 1:30:00 PM 0.35 32.63 0.099 7.12 47.09 13.44
12/23/2022 1:45:00 PM 0.33 32.594 0.1 7.11 45.98 13.44
12/23/2022 2:00:00 PM 0.32 32.576 0.099 7.11 37.5 13.45
12/23/2022 2:15:00 PM 0.32 32.576 0.095 7.11 60.52 13.44
12/23/2022 2:30:00 PM 0.29 32.522 0.094 7.1 34.33 13.45
12/23/2022 2:45:00 PM 0.25 32.45 0.091 7.08 36.95 13.46
12/23/2022 3:00:00 PM 0.22 32.396 0.091 7.1 48.42 13.47
12/23/2022 3:15:00 PM 0.19 32.342 0.091 7.09 36.68 13.47
12/23/2022 3:30:00 PM 0.16 32.288 0.09 7.08 58.67 13.48
12/23/2022 3:45:00 PM 0.12 32.216 0.09 7.08 87.23 13.5
12/23/2022 4:00:00 PM 0.1 32.18 0.089 7.09 45.71 13.5
12/23/2022 4:15:00 PM 0.08 32.144 0.088 7.09 38.71 13.5
12/23/2022 4:30:00 PM 0.05 32.09 0.089 7.08 49.24 13.52
12/23/2022 4:45:00 PM 0.04 32.072 0.088 7.08 58.09 13.53
12/23/2022 5:00:00 PM 0.04 32.072 0.088 7.08 42.14 13.55
12/23/2022 5:15:00 PM 0.04 32.072 0.089 7.07 39.87 13.56
12/23/2022 5:30:00 PM 0.04 32.072 0.088 7.07 50.21 13.57
12/23/2022 5:45:00 PM 0.04 32.072 0.089 7.07 31.88 13.58
12/23/2022 6:00:00 PM 0.05 32.09 0.091 7.07 32.65 13.58
12/23/2022 6:15:00 PM 0.05 32.09 0.09 7.07 38.15 13.57
12/23/2022 6:30:00 PM 0.04 32.072 0.091 7.07 35.83 13.58
12/23/2022 6:45:00 PM 0.04 32.072 0.092 7.07 34.5 13.59
12/23/2022 7:00:00 PM 0.05 32.09 0.093 7.07 30.94 13.59
12/23/2022 7:15:00 PM 0.06 32.108 0.094 7.07 28.12 13.56
12/23/2022 7:30:00 PM 0.06 32.108 0.096 7.08 25.79 13.57
12/23/2022 7:45:00 PM 0.07 32.126 0.098 7.08 25.33 13.57
12/23/2022 8:00:00 PM 0.06 32.108 0.098 7.08 32.51 13.58
12/23/2022 8:15:00 PM 0.09 32.162 0.101 7.08 24.32 13.55
12/23/2022 8:30:00 PM 0.09 32.162 0.102 7.09 22.76 13.56
12/23/2022 8:45:00 PM 0.07 32.126 0.102 7.09 24.41 13.58
12/23/2022 9:00:00 PM 0.09 32.162 0.104 7.09 17.25 13.56
12/23/2022 9:15:00 PM 0.13 32.234 0.106 7.1 21.96 13.51
12/23/2022 9:30:00 PM 0.12 32.216 0.107 7.11 22.41 13.54
12/23/2022 9:45:00 PM 0.1 32.18 0.107 7.11 18.58 13.52
12/23/2022 10:00:00 PM 0.14 32.252 0.109 7.12 24.47 13.5
12/23/2022 10:15:00 PM 0.12 32.216 0.111 7.11 19.45 13.5
12/23/2022 10:30:00 PM 0.09 32.162 0.113 7.13 22.13 13.51
12/23/2022 10:45:00 PM 0.1 32.18 0.112 7.13 20.3 13.51
12/23/2022 11:00:00 PM 0.12 32.216 0.115 7.13 19.46 13.49
12/23/2022 11:15:00 PM 0.09 32.162 0.114 7.13 15.29 13.48
12/23/2022 11:30:00 PM 0.13 32.234 0.117 7.14 18.06 13.47
12/23/2022 11:45:00 PM 0.15 32.27 0.121 7.14 20.43 13.39
12/24/2022 12:00:00 AM 0.15 32.27 0.122 7.15 16.2 13.43
12/24/2022 12:15:00 AM 0.12 32.216 0.122 7.16 17.61 13.46
12/24/2022 12:30:00 AM 0.13 32.234 0.123 7.16 16.55 13.46
12/24/2022 12:45:00 AM 0.15 32.27 0.126 7.16 16.36 13.4
12/24/2022 1:00:00 AM 0.12 32.216 0.126 7.17 17.53 13.42
12/24/2022 1:15:00 AM 0.12 32.216 0.129 7.17 24.45 13.41
12/24/2022 1:30:00 AM 0.13 32.234 0.129 7.18 17.44 13.39
12/24/2022 1:45:00 AM 0.12 32.216 0.132 7.18 16.31 13.39
12/24/2022 2:00:00 AM 0.16 32.288 0.134 7.18 13.4 13.36
12/24/2022 2:15:00 AM 0.13 32.234 0.135 7.19 15.56 13.34
12/24/2022 2:30:00 AM 0.11 32.198 0.135 7.19 13.91 13.35
12/24/2022 2:45:00 AM 0.11 32.198 0.135 7.2 14.59 13.37
12/24/2022 3:00:00 AM 0.12 32.216 0.138 7.2 15.26 13.34
12/24/2022 3:15:00 AM 0.13 32.234 0.139 7.19 14.3 13.32
12/24/2022 3:30:00 AM 0.14 32.252 0.142 7.21 13.95 13.31
12/24/2022 3:45:00 AM 0.13 32.234 0.141 7.21 13.63 13.3
12/24/2022 4:00:00 AM 0.12 32.216 0.142 7.21 14.17 13.29
12/24/2022 4:15:00 AM 0.14 32.252 0.146 7.21 12.75 13.29
12/24/2022 4:30:00 AM 0.15 32.27 0.146 7.22 13.38 13.27
12/24/2022 4:45:00 AM 0.2 32.36 0.149 7.22 13.16 13.18
12/24/2022 5:00:00 AM 0.2 32.36 0.148 7.22 18.23 13.18
12/24/2022 5:15:00 AM 0.18 32.324 0.147 7.23 11.61 13.18
12/24/2022 5:30:00 AM 0.22 32.396 0.152 7.22 13.65 13.15
12/24/2022 5:45:00 AM 0.28 32.504 0.161 7.23 13.3 13.09
12/24/2022 6:00:00 AM 0.33 32.594 0.161 7.22 19.23 13.02
12/24/2022 6:15:00 AM 0.39 32.702 0.158 7.23 10.96 12.98
12/24/2022 6:30:00 AM 0.43 32.774 0.166 7.22 10.54 12.88
12/24/2022 6:45:00 AM 0.44 32.792 0.166 7.23 10.49 12.84
12/24/2022 7:00:00 AM 0.51 32.918 0.17 7.21 10.5 12.62
12/24/2022 7:15:00 AM 0.44 32.792 0.164 7.23 11.83 12.77
12/24/2022 7:30:00 AM 0.44 32.792 0.168 7.23 9.94 12.72
12/24/2022 7:45:00 AM 0.37 32.666 0.171 7.23 10.39 12.89
12/24/2022 8:00:00 AM 0.33 32.594 0.169 7.24 10.37 12.8
12/24/2022 8:15:00 AM 0.27 32.486 0.165 7.24 10.86 13.02
12/24/2022 8:30:00 AM 0.28 32.504 0.164 7.23 10.23 12.95
12/24/2022 8:45:00 AM 0.26 32.468 0.164 7.24 9.84 12.97
12/24/2022 9:00:00 AM 0.31 32.558 0.169 7.23 9.45 12.91
12/24/2022 9:15:00 AM 0.35 32.63 0.17 7.24 9.85 12.94
12/24/2022 9:30:00 AM 0.34 32.612 0.17 7.24 11.76 12.91
12/24/2022 9:45:00 AM 0.32 32.576 0.169 7.25 10.26 13.01
12/24/2022 10:00:00 AM 0.3 32.54 0.169 7.25 9.29 12.97
12/24/2022 10:15:00 AM 0.41 32.738 0.175 7.25 11.5 12.86
12/24/2022 10:30:00 AM 0.34 32.612 0.172 7.26 10.51 12.92
12/24/2022 10:45:00 AM 0.32 32.576 0.171 7.25 10.03 12.89
12/24/2022 11:00:00 AM 0.29 32.522 0.168 7.26 9.21 13
12/24/2022 11:15:00 AM 0.42 32.756 0.175 7.25 9.4 12.85
12/24/2022 11:30:00 AM 0.46 32.828 0.181 7.26 9.56 12.9
12/24/2022 11:45:00 AM 0.33 32.594 0.176 7.27 11.57 13.03
12/24/2022 12:00:00 PM 0.33 32.594 0.171 7.27 8.91 13
12/24/2022 12:15:00 PM 0.34 32.612 0.172 7.27 10.85 13
12/24/2022 12:30:00 PM 0.4 32.72 0.174 7.27 10.03 12.97
12/24/2022 12:45:00 PM 0.37 32.666 0.176 7.27 9.94 13.05
12/24/2022 1:00:00 PM 0.35 32.63 0.173 7.27 10.66 13.06
12/24/2022 1:15:00 PM 0.36 32.648 0.171 7.28 9.84 13.06
12/24/2022 1:30:00 PM 0.32 32.576 0.169 7.28 9.97 13.09
12/24/2022 1:45:00 PM 0.29 32.522 0.171 7.28 9.88 13.09
12/24/2022 2:00:00 PM 0.35 32.63 0.171 7.28 9.15 13.12
12/24/2022 2:15:00 PM 0.42 32.756 0.174 7.28 9.63 13.08
12/24/2022 2:30:00 PM 0.34 32.612 0.172 7.28 9.52 13.07
12/24/2022 2:45:00 PM 0.32 32.576 0.172 7.29 9.42 13.08
12/24/2022 3:00:00 PM 0.4 32.72 0.177 7.28 13.76 12.99
12/24/2022 3:15:00 PM 0.31 32.558 0.172 7.29 8.97 13.15
12/24/2022 3:30:00 PM 0.34 32.612 0.172 7.28 10.26 13.09
12/24/2022 3:45:00 PM 0.26 32.468 0.169 7.29 9.24 13.11
12/24/2022 4:00:00 PM 0.31 32.558 0.172 7.28 9.51 13.11
12/24/2022 4:15:00 PM 0.26 32.468 0.171 7.28 8.61 13.14
12/24/2022 4:30:00 PM 0.26 32.468 0.172 7.28 9.43 13.12
12/24/2022 4:45:00 PM 0.25 32.45 0.173 7.28 9.31 13.13
12/24/2022 5:00:00 PM 0.25 32.45 0.171 7.28 9.53 13.12
12/24/2022 5:15:00 PM 0.24 32.432 0.173 7.27 9.18 13.12
12/24/2022 5:30:00 PM 0.25 32.45 0.174 7.27 9.37 13.12
12/24/2022 5:45:00 PM 0.22 32.396 0.177 7.27 9.27 13.11
12/24/2022 6:00:00 PM 0.3 32.54 0.174 7.27 8.18 13.09
12/24/2022 6:15:00 PM 0.24 32.432 0.172 7.27 8.62 13.09
12/24/2022 6:30:00 PM 0.26 32.468 0.172 7.27 7.97 13.09
12/24/2022 6:45:00 PM 0.25 32.45 0.175 7.27 9.78 13.1
12/24/2022 7:00:00 PM 0.26 32.468 0.174 7.27 8.24 13.07
12/24/2022 7:15:00 PM 0.29 32.522 0.176 7.26 8.16 13.05
12/24/2022 7:30:00 PM 0.25 32.45 0.175 7.26 7.82 13.07
12/24/2022 7:45:00 PM 0.29 32.522 0.177 7.26 8.18 13.04
12/24/2022 8:00:00 PM 0.27 32.486 0.175 7.26 7.64 13.06
12/24/2022 8:15:00 PM 0.28 32.504 0.176 7.26 8.5 13.04
12/24/2022 8:30:00 PM 0.26 32.468 0.176 7.26 7.84 13.05
12/24/2022 8:45:00 PM 0.29 32.522 0.178 7.26 8.15 13.06
12/24/2022 9:00:00 PM 0.28 32.504 0.176 7.26 8.11 13.06
12/24/2022 9:15:00 PM 0.33 32.594 0.178 7.26 7.77 13.06
12/24/2022 9:30:00 PM 0.28 32.504 0.177 7.26 7.77 13.08
12/24/2022 9:45:00 PM 0.31 32.558 0.179 7.25 8.04 13.04
12/24/2022 10:00:00 PM 0.3 32.54 0.179 7.26 7.7 13.05
12/24/2022 10:15:00 PM 0.3 32.54 0.179 7.26 7.55 13.04
12/24/2022 10:30:00 PM 0.27 32.486 0.179 7.26 7.62 13.06
12/24/2022 10:45:00 PM 0.33 32.594 0.18 7.26 7.39 13.01
12/24/2022 11:00:00 PM 0.3 32.54 0.18 7.25 7.58 13.03
12/24/2022 11:15:00 PM 0.26 32.468 0.182 7.26 7.38 13.03
12/24/2022 11:30:00 PM 0.3 32.54 0.182 7.26 7.32 13.03
12/24/2022 11:45:00 PM 0.28 32.504 0.181 7.26 7.22 13.04
12/25/2022 12:00:00 AM 0.29 32.522 0.184 7.26 7.11 13.03
12/25/2022 12:15:00 AM 0.3 32.54 0.183 7.26 7.31 13.02
12/25/2022 12:30:00 AM 0.28 32.504 0.184 7.26 7.34 13
12/25/2022 12:45:00 AM 0.26 32.468 0.185 7.26 7.26 13.01
12/25/2022 1:00:00 AM 0.29 32.522 0.186 7.26 7.35 13
12/25/2022 1:15:00 AM 0.29 32.522 0.185 7.26 7.4 12.99
12/25/2022 1:30:00 AM 0.33 32.594 0.187 7.26 7.57 12.98
12/25/2022 1:45:00 AM 0.29 32.522 0.187 7.26 7.26 13
12/25/2022 2:00:00 AM 0.36 32.648 0.189 7.26 7.12 12.97
12/25/2022 2:15:00 AM 0.34 32.612 0.188 7.26 7.34 12.97
12/25/2022 2:30:00 AM 0.33 32.594 0.188 7.26 7.28 12.98
12/25/2022 2:45:00 AM 0.31 32.558 0.19 7.26 7.19 12.96
12/25/2022 3:00:00 AM 0.35 32.63 0.192 7.25 7.23 12.94
12/25/2022 3:15:00 AM 0.32 32.576 0.194 7.26 7.19 12.96
12/25/2022 3:30:00 AM 0.31 32.558 0.193 7.27 7.27 12.96
12/25/2022 3:45:00 AM 0.32 32.576 0.195 7.27 7.1 12.95
12/25/2022 4:00:00 AM 0.33 32.594 0.194 7.27 7 12.95
12/25/2022 4:15:00 AM 0.33 32.594 0.194 7.27 6.68 12.95
12/25/2022 4:30:00 AM 0.33 32.594 0.195 7.27 7.19 12.94
12/25/2022 4:45:00 AM 0.33 32.594 0.197 7.27 7.08 12.94
12/25/2022 5:00:00 AM 0.34 32.612 0.196 7.27 7.37 12.93
12/25/2022 5:15:00 AM 0.34 32.612 0.197 7.27 6.87 12.94
12/25/2022 5:30:00 AM 0.35 32.63 0.197 7.27 7.09 12.93
12/25/2022 5:45:00 AM 0.34 32.612 0.198 7.28 6.88 12.92
12/25/2022 6:00:00 AM 0.34 32.612 0.199 7.28 7.1 12.92
12/25/2022 6:15:00 AM 0.33 32.594 0.199 7.28 6.77 12.93
12/25/2022 6:30:00 AM 0.33 32.594 0.199 7.28 7.31 12.93
12/25/2022 6:45:00 AM 0.37 32.666 0.2 7.28 6.77 12.92
12/25/2022 7:00:00 AM 0.34 32.612 0.201 7.28 6.81 12.94
12/25/2022 7:15:00 AM 0.31 32.558 0.201 7.28 6.62 12.93
12/25/2022 7:30:00 AM 0.38 32.684 0.202 7.28 6.96 12.92
12/25/2022 7:45:00 AM 0.35 32.63 0.202 7.29 6.78 12.91
12/25/2022 8:00:00 AM 0.35 32.63 0.203 7.29 6.73 12.92
12/25/2022 8:15:00 AM 0.36 32.648 0.204 7.29 6.9 12.92
12/25/2022 8:30:00 AM 0.36 32.648 0.203 7.29 6.58 12.94
12/25/2022 8:45:00 AM 0.4 32.72 0.204 7.29 6.58 12.94
12/25/2022 9:00:00 AM 0.41 32.738 0.205 7.29 6.54 12.96
12/25/2022 9:15:00 AM 0.43 32.774 0.206 7.3 6.64 12.96
12/25/2022 9:30:00 AM 0.41 32.738 0.206 7.3 7.61 12.98
12/25/2022 9:45:00 AM 0.43 32.774 0.206 7.3 6.6 12.99
12/25/2022 10:00:00 AM 0.45 32.81 0.207 7.3 6.48 13.01
12/25/2022 10:15:00 AM 0.48 32.864 0.208 7.31 7.12 13.03
12/25/2022 10:30:00 AM 0.47 32.846 0.207 7.31 6.61 13.05
12/25/2022 10:45:00 AM 0.48 32.864 0.207 7.31 6.53 13.07
12/25/2022 11:00:00 AM 0.5 32.9 0.207 7.31 6.35 13.08
12/25/2022 11:15:00 AM 0.52 32.936 0.208 7.32 6.39 13.09
12/25/2022 11:30:00 AM 0.47 32.846 0.207 7.32 6.58 13.13
12/25/2022 11:45:00 AM 0.5 32.9 0.207 7.33 6.54 13.15
12/25/2022 12:00:00 PM 0.49 32.882 0.205 7.33 6.68 13.17
12/25/2022 12:15:00 PM 0.5 32.9 0.205 7.34 6.82 13.2
12/25/2022 12:30:00 PM 0.45 32.81 0.203 7.34 6.77 13.22
12/25/2022 12:45:00 PM 0.4 32.72 0.202 7.34 6.84 13.26
12/25/2022 1:00:00 PM 0.38 32.684 0.2 7.34 7.29 13.28
12/25/2022 1:15:00 PM 0.37 32.666 0.2 7.35 8.08 13.28
12/25/2022 1:30:00 PM 0.27 32.486 0.199 7.35 8.56 13.28
12/25/2022 1:45:00 PM 0.31 32.558 0.199 7.35 9.22 13.27
12/25/2022 2:00:00 PM 0.34 32.612 0.201 7.34 8.31 13.26
12/25/2022 2:15:00 PM 0.37 32.666 0.203 7.34 8.2 13.27
12/25/2022 2:30:00 PM 0.43 32.774 0.204 7.34 7.47 13.25
12/25/2022 2:45:00 PM 0.36 32.648 0.204 7.35 8.04 13.25
12/25/2022 3:00:00 PM 0.33 32.594 0.205 7.35 8.62 13.25
12/25/2022 3:15:00 PM 0.38 32.684 0.205 7.35 8.22 13.24
12/25/2022 3:30:00 PM 0.39 32.702 0.205 7.35 8.06 13.23
12/25/2022 3:45:00 PM 0.38 32.684 0.204 7.35 7.99 13.23
12/25/2022 4:00:00 PM 0.37 32.666 0.205 7.35 7.63 13.23
12/25/2022 4:15:00 PM 0.39 32.702 0.206 7.35 8.02 13.24
12/25/2022 4:30:00 PM 0.4 32.72 0.206 7.34 7.53 13.24
12/25/2022 4:45:00 PM 0.39 32.702 0.206 7.34 7.63 13.19
12/25/2022 5:00:00 PM 0.41 32.738 0.207 7.34 7.04 13.18
12/25/2022 5:15:00 PM 0.39 32.702 0.207 7.34 7.11 13.15
12/25/2022 5:30:00 PM 0.4 32.72 0.206 7.34 7.09 13.12
12/25/2022 5:45:00 PM 0.45 32.81 0.207 7.34 6.82 13.1
12/25/2022 6:00:00 PM 0.43 32.774 0.208 7.33 7.36 13.08
12/25/2022 6:15:00 PM 0.44 32.792 0.209 7.33 6.82 13.08
12/25/2022 6:30:00 PM 0.45 32.81 0.209 7.33 6.71 13.06
12/25/2022 6:45:00 PM 0.48 32.864 0.211 7.33 6.76 13.04
12/25/2022 7:00:00 PM 0.4 32.72 0.21 7.33 6.79 13.05
12/25/2022 7:15:00 PM 0.46 32.828 0.211 7.33 6.85 13.03
12/25/2022 7:30:00 PM 0.47 32.846 0.212 7.33 6.86 13.01
12/25/2022 7:45:00 PM 0.45 32.81 0.212 7.33 6.67 13.03
12/25/2022 8:00:00 PM 0.42 32.756 0.213 7.33 6.51 13.02
12/25/2022 8:15:00 PM 0.46 32.828 0.214 7.32 6.73 13
12/25/2022 8:30:00 PM 0.49 32.882 0.215 7.32 6.71 12.99
12/25/2022 8:45:00 PM 0.49 32.882 0.215 7.32 6.51 12.99
12/25/2022 9:00:00 PM 0.49 32.882 0.216 7.32 6.45 12.98
12/25/2022 9:15:00 PM 0.46 32.828 0.216 7.32 6.36 12.97
12/25/2022 9:30:00 PM 0.45 32.81 0.217 7.32 6.48 12.97
12/25/2022 9:45:00 PM 0.46 32.828 0.218 7.32 6.5 12.97
12/25/2022 10:00:00 PM 0.45 32.81 0.217 7.32 6.81 12.95
12/25/2022 10:15:00 PM 0.46 32.828 0.219 7.32 6.65 12.95
12/25/2022 10:30:00 PM 0.47 32.846 0.22 7.31 6.48 12.95
12/25/2022 10:45:00 PM 0.46 32.828 0.221 7.32 6.23 12.95
12/25/2022 11:00:00 PM 0.47 32.846 0.222 7.32 5.72 12.93
12/25/2022 11:15:00 PM 0.48 32.864 0.221 7.32 6.16 12.91
12/25/2022 11:30:00 PM 0.42 32.756 0.221 7.32 5.58 12.97
12/25/2022 11:45:00 PM 0.44 32.792 0.222 7.32 5.72 12.95
12/26/2022 12:00:00 AM 0.44 32.792 0.223 7.32 5.56 12.96
12/26/2022 12:15:00 AM 0.46 32.828 0.224 7.32 5.87 12.9
12/26/2022 12:30:00 AM 0.46 32.828 0.224 7.32 5.64 12.9
12/26/2022 12:45:00 AM 0.47 32.846 0.225 7.32 5.36 12.92
12/26/2022 1:00:00 AM 0.49 32.882 0.227 7.32 5.64 12.9
12/26/2022 1:15:00 AM 0.48 32.864 0.226 7.32 5.95 12.87
12/26/2022 1:30:00 AM 0.49 32.882 0.227 7.33 5.61 12.88
12/26/2022 1:45:00 AM 0.48 32.864 0.228 7.32 5.71 12.87
12/26/2022 2:00:00 AM 0.46 32.828 0.228 7.33 5.76 12.88
12/26/2022 2:15:00 AM 0.48 32.864 0.231 7.33 7.98 12.89
12/26/2022 2:30:00 AM 0.51 32.918 0.231 7.33 5.67 12.85
12/26/2022 2:45:00 AM 0.47 32.846 0.231 7.33 6.03 12.88
12/26/2022 3:00:00 AM 0.49 32.882 0.233 7.33 5.51 12.89
12/26/2022 3:15:00 AM 0.5 32.9 0.231 7.33 5.97 12.86
12/26/2022 3:30:00 AM 0.49 32.882 0.233 7.33 5.66 12.86
12/26/2022 3:45:00 AM 0.43 32.774 0.233 7.33 5.92 12.92
12/26/2022 4:00:00 AM 0.46 32.828 0.235 7.33 6.03 12.91
12/26/2022 4:15:00 AM 0.46 32.828 0.236 7.34 5.79 12.92
12/26/2022 4:30:00 AM 0.43 32.774 0.235 7.34 5.79 12.91
12/26/2022 4:45:00 AM 0.46 32.828 0.237 7.34 6.12 12.92
12/26/2022 5:00:00 AM 0.47 32.846 0.237 7.34 5.61 12.93
12/26/2022 5:15:00 AM 0.46 32.828 0.238 7.34 5.98 12.92
12/26/2022 5:30:00 AM 0.47 32.846 0.239 7.34 5.66 12.91
12/26/2022 5:45:00 AM 0.47 32.846 0.239 7.34 5.63 12.91
12/26/2022 6:00:00 AM 0.46 32.828 0.24 7.34 5.61 12.89
12/26/2022 6:15:00 AM 0.44 32.792 0.239 7.34 5.92 12.92
12/26/2022 6:30:00 AM 0.46 32.828 0.24 7.34 5.65 12.9
12/26/2022 6:45:00 AM 0.47 32.846 0.242 7.34 5.66 12.91
12/26/2022 7:00:00 AM 0.48 32.864 0.243 7.34 5.43 12.88
12/26/2022 7:15:00 AM 0.47 32.846 0.242 7.34 5.48 12.89
12/26/2022 7:30:00 AM 0.46 32.828 0.243 7.35 5.5 12.9
12/26/2022 7:45:00 AM 0.49 32.882 0.245 7.34 5.63 12.89
12/26/2022 8:00:00 AM 0.45 32.81 0.244 7.35 5.54 12.92
12/26/2022 8:15:00 AM 0.45 32.81 0.244 7.35 5.59 12.93
12/26/2022 8:30:00 AM 0.51 32.918 0.247 7.35 5.43 12.92
12/26/2022 8:45:00 AM 0.49 32.882 0.246 7.35 5.94 12.95
12/26/2022 9:00:00 AM 0.55 32.99 0.248 7.36 5.24 12.95
12/26/2022 9:15:00 AM 0.56 33.008 0.247 7.36 5.61 13
12/26/2022 9:30:00 AM 0.6 33.08 0.248 7.36 5.15 13
12/26/2022 9:45:00 AM 0.65 33.17 0.251 7.37 5.16 12.99
12/26/2022 10:00:00 AM 0.66 33.188 0.249 7.37 5.2 13.04
12/26/2022 10:15:00 AM 0.7 33.26 0.249 7.37 5.87 13.07
12/26/2022 10:30:00 AM 0.74 33.332 0.249 7.38 5.29 13.08
12/26/2022 10:45:00 AM 0.78 33.404 0.25 7.38 5.25 13.09
12/26/2022 11:00:00 AM 0.84 33.512 0.25 7.38 5.19 13.11
12/26/2022 11:15:00 AM 0.89 33.602 0.251 7.39 5.05 13.09
12/26/2022 11:30:00 AM 0.87 33.566 0.25 7.39 5.13 13.13
12/26/2022 11:45:00 AM 0.88 33.584 0.249 7.4 5.29 13.15
12/26/2022 12:00:00 PM 0.96 33.728 0.248 7.4 5.18 13.19
12/26/2022 12:15:00 PM 0.98 33.764 0.249 7.4 5.3 13.18
12/26/2022 12:30:00 PM 0.98 33.764 0.249 7.41 4.95 13.18
12/26/2022 12:45:00 PM 1.01 33.818 0.249 7.41 5.29 13.2
12/26/2022 1:00:00 PM 1.03 33.854 0.249 7.41 5.14 13.22
12/26/2022 1:15:00 PM 1.04 33.872 0.249 7.41 5.09 13.22
12/26/2022 1:30:00 PM 1.03 33.854 0.248 7.42 5 13.24
12/26/2022 1:45:00 PM 1.03 33.854 0.251 7.38 5.15 13.27
12/26/2022 2:00:00 PM 1.03 33.854 0.247 7.42 5.24 13.28
12/26/2022 2:15:00 PM 1.02 33.836 0.247 7.42 5.24 13.29
12/26/2022 2:30:00 PM 0.96 33.728 0.244 7.43 5.45 13.31
12/26/2022 2:45:00 PM 0.96 33.728 0.245 7.43 5.25 13.3
12/26/2022 3:00:00 PM 0.93 33.674 0.244 7.43 5.22 13.3
12/26/2022 3:15:00 PM 0.9 33.62 0.243 7.43 5.48 13.3
12/26/2022 3:30:00 PM 0.91 33.638 0.244 7.43 5.49 13.29
12/26/2022 3:45:00 PM 0.88 33.584 0.245 7.42 5.51 13.27
12/26/2022 4:00:00 PM 0.88 33.584 0.245 7.42 5.5 13.25
12/26/2022 4:15:00 PM 0.86 33.548 0.246 7.42 5.43 13.22
12/26/2022 4:30:00 PM 0.83 33.494 0.247 7.42 5.27 13.22
12/26/2022 4:45:00 PM 0.82 33.476 0.247 7.42 5.46 13.18
12/26/2022 5:00:00 PM 0.8 33.44 0.247 7.41 5.13 13.14
12/26/2022 5:15:00 PM 0.77 33.386 0.248 7.41 5.32 13.12
12/26/2022 5:30:00 PM 0.79 33.422 0.249 7.41 5.58 13.09
12/26/2022 5:45:00 PM 0.79 33.422 0.25 7.41 5.3 13.09
12/26/2022 6:00:00 PM 0.77 33.386 0.249 7.41 5.43 13.05
12/26/2022 6:15:00 PM 0.77 33.386 0.251 7.4 5.58 13.03
12/26/2022 6:30:00 PM 0.75 33.35 0.251 7.4 5.3 13
12/26/2022 6:45:00 PM 0.78 33.404 0.251 7.4 5.43 12.99
12/26/2022 7:00:00 PM 0.77 33.386 0.252 7.4 5.58 12.97
12/26/2022 7:15:00 PM 0.78 33.404 0.253 7.4 5.35 12.94
12/26/2022 7:30:00 PM 0.78 33.404 0.253 7.39 5.51 12.93
12/26/2022 7:45:00 PM 0.78 33.404 0.254 7.39 5.51 12.92
12/26/2022 8:00:00 PM 0.79 33.422 0.256 7.39 5.4 12.93
12/26/2022 8:15:00 PM 0.8 33.44 0.255 7.39 5.32 12.89
12/26/2022 8:30:00 PM 0.75 33.35 0.255 7.39 5.64 12.9
12/26/2022 8:45:00 PM 0.8 33.44 0.256 7.39 5.4 12.89
12/26/2022 9:00:00 PM 0.79 33.422 0.257 7.39 5.27 12.88
12/26/2022 9:15:00 PM 0.77 33.386 0.256 7.39 5.18 12.87
12/26/2022 9:30:00 PM 0.79 33.422 0.255 7.39 5.17 12.86
12/26/2022 9:45:00 PM 0.81 33.458 0.257 7.39 5.2 12.86
12/26/2022 10:00:00 PM 0.79 33.422 0.256 7.39 5.32 12.87
12/26/2022 10:15:00 PM 0.83 33.494 0.257 7.38 5.02 12.84
12/26/2022 10:30:00 PM 0.81 33.458 0.257 7.38 5.19 12.86
12/26/2022 10:45:00 PM 0.81 33.458 0.256 7.38 5.27 12.83
12/26/2022 11:00:00 PM 0.84 33.512 0.257 7.38 4.89 12.82
12/26/2022 11:15:00 PM 0.83 33.494 0.258 7.38 5.19 12.85
12/26/2022 11:30:00 PM 0.86 33.548 0.259 7.38 5.1 12.8
12/26/2022 11:45:00 PM 0.86 33.548 0.258 7.38 4.78 12.82
12/27/2022 12:00:00 AM 0.83 33.494 0.257 7.38 4.71 12.83
12/27/2022 12:15:00 AM 0.85 33.53 0.257 7.38 4.97 12.82
12/27/2022 12:30:00 AM 0.85 33.53 0.257 7.38 4.87 12.8
12/27/2022 12:45:00 AM 0.85 33.53 0.258 7.38 4.69 12.82
12/27/2022 1:00:00 AM 0.84 33.512 0.258 7.38 4.68 12.81
12/27/2022 1:15:00 AM 0.87 33.566 0.259 7.38 4.64 12.79
12/27/2022 1:30:00 AM 0.85 33.53 0.258 7.38 4.8 12.81
12/27/2022 1:45:00 AM 0.85 33.53 0.258 7.38 4.86 12.78
12/27/2022 2:00:00 AM 0.85 33.53 0.26 7.38 4.59 12.8
12/27/2022 2:15:00 AM 0.89 33.602 0.259 7.38 4.93 12.77
12/27/2022 2:30:00 AM 0.88 33.584 0.259 7.38 4.86 12.77
12/27/2022 2:45:00 AM 0.88 33.584 0.26 7.38 4.63 12.78
12/27/2022 3:00:00 AM 0.88 33.584 0.259 7.38 4.75 12.79
12/27/2022 3:15:00 AM 0.88 33.584 0.261 7.38 4.71 12.78
12/27/2022 3:30:00 AM 0.88 33.584 0.26 7.38 4.69 12.76
12/27/2022 3:45:00 AM 0.87 33.566 0.26 7.38 4.5 12.78
12/27/2022 4:00:00 AM 0.88 33.584 0.261 7.38 4.67 12.78
12/27/2022 4:15:00 AM 0.9 33.62 0.262 7.38 4.84 12.76
12/27/2022 4:30:00 AM 0.92 33.656 0.263 7.38 4.84 12.76
12/27/2022 4:45:00 AM 0.89 33.602 0.262 7.38 4.95 12.75
12/27/2022 5:00:00 AM 0.9 33.62 0.262 7.38 4.82 12.77
12/27/2022 5:15:00 AM 0.87 33.566 0.261 7.38 4.56 12.76
12/27/2022 5:30:00 AM 0.89 33.602 0.263 7.38 4.82 12.77
12/27/2022 5:45:00 AM 0.9 33.62 0.262 7.38 4.59 12.74
12/27/2022 6:00:00 AM 0.9 33.62 0.263 7.38 4.88 12.73
12/27/2022 6:15:00 AM 0.93 33.674 0.264 7.38 4.76 12.73
12/27/2022 6:30:00 AM 0.92 33.656 0.264 7.38 4.82 12.73
12/27/2022 6:45:00 AM 0.91 33.638 0.263 7.38 4.79 12.74
12/27/2022 7:00:00 AM 0.94 33.692 0.263 7.38 4.62 12.71
12/27/2022 7:15:00 AM 0.92 33.656 0.264 7.38 4.73 12.73
12/27/2022 7:30:00 AM 0.92 33.656 0.264 7.38 4.7 12.74
12/27/2022 7:45:00 AM 0.92 33.656 0.264 7.38 4.46 12.73
12/27/2022 8:00:00 AM 0.93 33.674 0.264 7.38 4.63 12.74
12/27/2022 8:15:00 AM 0.95 33.71 0.265 7.38 4.58 12.73
12/27/2022 8:30:00 AM 0.99 33.782 0.266 7.38 4.75 12.73
12/27/2022 8:45:00 AM 0.95 33.71 0.265 7.39 4.99 12.76
12/27/2022 9:00:00 AM 0.99 33.782 0.266 7.39 4.98 12.77
12/27/2022 9:15:00 AM 0.99 33.782 0.266 7.39 4.83 12.79
12/27/2022 9:30:00 AM 1.03 33.854 0.266 7.39 5.25 12.77
12/27/2022 9:45:00 AM 1.04 33.872 0.266 7.39 4.98 12.81
12/27/2022 10:00:00 AM 1.04 33.872 0.266 7.39 5.26 12.84
12/27/2022 10:15:00 AM 1.17 34.106 0.266 7.4 5.35 12.8
12/27/2022 10:30:00 AM 1.08 33.944 0.265 7.4 5.65 12.88
12/27/2022 10:45:00 AM 1.12 34.016 0.265 7.4 5.52 12.88
12/27/2022 11:00:00 AM 1.14 34.052 0.266 7.41 5.03 12.92
12/27/2022 11:15:00 AM 1.17 34.106 0.266 7.41 5.37 12.94
12/27/2022 11:30:00 AM 1.19 34.142 0.266 7.41 5.05 12.95
12/27/2022 11:45:00 AM 1.2 34.16 0.267 7.42 5.02 12.98
12/27/2022 12:00:00 PM 1.23 34.214 0.267 7.42 5.32 12.99
12/27/2022 12:15:00 PM 1.23 34.214 0.266 7.42 5.29 13
12/27/2022 12:30:00 PM 1.24 34.232 0.266 7.42 4.99 13.01
12/27/2022 12:45:00 PM 1.27 34.286 0.266 7.42 5.22 13.03
12/27/2022 1:00:00 PM 1.28 34.304 0.267 7.43 5.42 13.05
12/27/2022 1:15:00 PM 1.29 34.322 0.266 7.43 5.23 13.07
12/27/2022 1:30:00 PM 1.29 34.322 0.266 7.43 5.01 13.07
12/27/2022 1:45:00 PM 1.31 34.358 0.266 7.44 5.38 13.07
12/27/2022 2:00:00 PM 1.31 34.358 0.265 7.44 5.24 13.07
12/27/2022 2:15:00 PM 1.31 34.358 0.265 7.44 5.5 13.07
12/27/2022 2:30:00 PM 1.3 34.34 0.266 7.44 5.36 13.08
12/27/2022 2:45:00 PM 1.3 34.34 0.266 7.44 5.53 13.08
12/27/2022 3:00:00 PM 1.33 34.394 0.266 7.44 5.33 13.07
12/27/2022 3:15:00 PM 1.28 34.304 0.266 7.44 5.69 13.07
12/27/2022 3:30:00 PM 1.28 34.304 0.266 7.44 5.18 13.07
12/27/2022 3:45:00 PM 1.24 34.232 0.266 7.44 5.77 13.06
12/27/2022 4:00:00 PM 1.27 34.286 0.265 7.44 5.37 13.05
12/27/2022 4:15:00 PM 1.27 34.286 0.266 7.44 5.41 13.03
12/27/2022 4:30:00 PM 1.22 34.196 0.265 7.44 5.75 13.01
12/27/2022 4:45:00 PM 1.21 34.178 0.266 7.44 5.81 13
12/27/2022 5:00:00 PM 1.16 34.088 0.264 7.43 5.69 12.98
12/27/2022 5:15:00 PM 1.15 34.07 0.264 7.43 5.98 12.96
12/27/2022 5:30:00 PM 1.17 34.106 0.266 7.43 6.14 12.95
12/27/2022 5:45:00 PM 1.1 33.98 0.264 7.43 5.98 12.93
12/27/2022 6:00:00 PM 1.1 33.98 0.254 7.43 5.39 12.9
12/27/2022 6:15:00 PM 1.11 33.998 0.264 7.42 5.23 12.88
12/27/2022 6:30:00 PM 1.08 33.944 0.266 7.42 5.28 12.88
12/27/2022 6:45:00 PM 1.05 33.89 0.265 7.42 5.17 12.85
12/27/2022 7:00:00 PM 1.05 33.89 0.267 7.4 5.29 12.85
12/27/2022 7:15:00 PM 1.05 33.89 0.266 7.42 5.39 12.83
12/27/2022 7:30:00 PM 1.07 33.926 0.266 7.41 5.41 12.82
12/27/2022 7:45:00 PM 1 33.8 0.265 7.41 5.67 12.8
12/27/2022 8:00:00 PM 1.01 33.818 0.267 7.41 5.59 12.79
12/27/2022 8:15:00 PM 1.02 33.836 0.268 7.41 5.91 12.8
12/27/2022 8:30:00 PM 1.05 33.89 0.267 7.41 5.47 12.76
12/27/2022 8:45:00 PM 1.03 33.854 0.267 7.41 5.52 12.77
12/27/2022 9:00:00 PM 1.03 33.854 0.268 7.4 5.73 12.74
12/27/2022 9:15:00 PM 1.04 33.872 0.268 7.4 5.77 12.75
12/27/2022 9:30:00 PM 1.06 33.908 0.268 7.4 5.85 12.74
12/27/2022 9:45:00 PM 1.08 33.944 0.269 7.4 5.4 12.75
12/27/2022 10:00:00 PM 1.07 33.926 0.269 7.4 5.67 12.71
12/27/2022 10:15:00 PM 1.08 33.944 0.269 7.4 5.51 12.71
12/27/2022 10:30:00 PM 1.12 34.016 0.27 7.4 5.28 12.7
12/27/2022 10:45:00 PM 1.11 33.998 0.269 7.4 5.4 12.7
12/27/2022 11:00:00 PM 1.11 33.998 0.269 7.4 5.25 12.7
12/27/2022 11:15:00 PM 1.14 34.052 0.27 7.4 5.33 12.71
12/27/2022 11:30:00 PM 1.15 34.07 0.271 7.4 5.28 12.69
12/27/2022 11:45:00 PM 1.15 34.07 0.271 7.4 5.28 12.68
12/28/2022 12:00:00 AM 1.14 34.052 0.271 7.4 4.89 12.7
12/28/2022 12:15:00 AM 1.14 34.052 0.271 7.4 4.92 12.69
12/28/2022 12:30:00 AM 1.16 34.088 0.273 7.4 4.92 12.68
12/28/2022 12:45:00 AM 1.17 34.106 0.272 7.4 5.07 12.68
12/28/2022 1:00:00 AM 1.18 34.124 0.272 7.4 4.92 12.68
12/28/2022 1:15:00 AM 1.19 34.142 0.273 7.4 4.9 12.68
12/28/2022 1:30:00 AM 1.21 34.178 0.273 7.4 4.74 12.65
12/28/2022 1:45:00 AM 1.22 34.196 0.273 7.4 4.72 12.67
12/28/2022 2:00:00 AM 1.2 34.16 0.273 7.4 4.8 12.68
12/28/2022 2:15:00 AM 1.24 34.232 0.275 7.4 4.56 12.64
12/28/2022 2:30:00 AM 1.19 34.142 0.274 7.4 4.94 12.68
12/28/2022 2:45:00 AM 1.24 34.232 0.275 7.4 5.02 12.65
12/28/2022 3:00:00 AM 1.22 34.196 0.274 7.4 5.12 12.64
12/28/2022 3:15:00 AM 1.21 34.178 0.276 7.4 4.95 12.64
12/28/2022 3:30:00 AM 1.18 34.124 0.275 7.4 5.06 12.64
12/28/2022 3:45:00 AM 1.21 34.178 0.275 7.4 4.71 12.62
12/28/2022 4:00:00 AM 1.2 34.16 0.275 7.4 4.75 12.65
12/28/2022 4:15:00 AM 1.22 34.196 0.276 7.4 5.1 12.65
12/28/2022 4:30:00 AM 1.2 34.16 0.276 7.4 5.06 12.62
12/28/2022 4:45:00 AM 1.23 34.214 0.277 7.4 4.92 12.62
12/28/2022 5:00:00 AM 1.22 34.196 0.278 7.4 4.87 12.63
12/28/2022 5:15:00 AM 1.24 34.232 0.278 7.4 4.7 12.59
12/28/2022 5:30:00 AM 1.2 34.16 0.277 7.4 4.62 12.61
12/28/2022 5:45:00 AM 1.2 34.16 0.279 7.41 4.57 12.62
12/28/2022 6:00:00 AM 1.22 34.196 0.279 7.4 4.43 12.6
12/28/2022 6:15:00 AM 1.18 34.124 0.279 7.4 4.64 12.62
12/28/2022 6:30:00 AM 1.2 34.16 0.281 7.4 4.56 12.62
12/28/2022 6:45:00 AM 1.2 34.16 0.28 7.41 4.51 12.6
12/28/2022 7:00:00 AM 1.17 34.106 0.279 7.41 4.53 12.62
12/28/2022 7:15:00 AM 1.19 34.142 0.279 7.41 4.71 12.59
12/28/2022 7:30:00 AM 1.21 34.178 0.28 7.41 4.58 12.6
12/28/2022 7:45:00 AM 1.19 34.142 0.28 7.41 4.73 12.62
12/28/2022 8:00:00 AM 1.23 34.214 0.279 7.41 5.24 12.63
12/28/2022 8:15:00 AM 1.24 34.232 0.28 7.41 5.45 12.63
12/28/2022 8:30:00 AM 1.25 34.25 0.28 7.41 5.32 12.65
12/28/2022 8:45:00 AM 1.28 34.304 0.282 7.42 5.28 12.67
12/28/2022 9:00:00 AM 1.33 34.394 0.28 7.42 5.28 12.69
12/28/2022 9:15:00 AM 1.38 34.484 0.281 7.42 5.14 12.73
12/28/2022 9:30:00 AM 1.38 34.484 0.281 7.43 5.05 12.76
12/28/2022 9:45:00 AM 1.46 34.628 0.279 7.43 5.38 12.77
12/28/2022 10:00:00 AM 1.53 34.754 0.28 7.43 5.81 12.79
12/28/2022 10:15:00 AM 1.57 34.826 0.28 7.43 5.95 12.8
12/28/2022 10:30:00 AM 1.64 34.952 0.28 7.44 6.13 12.82
12/28/2022 10:45:00 AM 1.69 35.042 0.281 7.44 5.52 12.85
12/28/2022 11:00:00 AM 1.76 35.168 0.28 7.45 5.36 12.87
12/28/2022 11:15:00 AM 1.81 35.258 0.28 7.45 5.03 12.89
12/28/2022 11:30:00 AM 1.86 35.348 0.28 7.45 5.61 12.9
12/28/2022 11:45:00 AM 1.93 35.474 0.281 7.46 5.31 12.89
12/28/2022 12:00:00 PM 1.92 35.456 0.28 7.46 5.46 12.92
12/28/2022 12:15:00 PM 1.99 35.582 0.28 7.46 5.56 12.95
12/28/2022 12:30:00 PM 2.02 35.636 0.28 7.47 5.63 12.94
12/28/2022 12:45:00 PM 2.07 35.726 0.28 7.47 5.07 12.95
12/28/2022 1:00:00 PM 2.08 35.744 0.28 7.47 5.38 12.96
12/28/2022 1:15:00 PM 2.09 35.762 0.279 7.47 4.96 12.96
12/28/2022 1:30:00 PM 2.13 35.834 0.279 7.48 4.93 12.98
12/28/2022 1:45:00 PM 2.15 35.87 0.279 7.48 4.89 12.99
12/28/2022 2:00:00 PM 2.19 35.942 0.28 7.48 5.03 12.97
12/28/2022 2:15:00 PM 2.19 35.942 0.28 7.48 5.41 12.96
12/28/2022 2:30:00 PM 2.22 35.996 0.281 7.49 5.44 12.97
12/28/2022 2:45:00 PM 2.23 36.014 0.28 7.49 5.63 12.95
12/28/2022 3:00:00 PM 2.25 36.05 0.28 7.49 5.59 12.95
12/28/2022 3:15:00 PM 2.32 36.176 0.279 7.49 5.8 12.89
12/28/2022 3:30:00 PM 2.21 35.978 0.278 7.49 6.29 12.91
12/28/2022 3:45:00 PM 2.22 35.996 0.279 7.49 6.24 12.9
12/28/2022 4:00:00 PM 2.21 35.978 0.28 7.49 5.93 12.88
12/28/2022 4:15:00 PM 2.13 35.834 0.278 7.49 6.3 12.87
12/28/2022 4:30:00 PM 2.13 35.834 0.279 7.48 5.64 12.81
12/28/2022 4:45:00 PM 2.1 35.78 0.279 7.48 5.9 12.78
12/28/2022 5:00:00 PM 2.07 35.726 0.279 7.48 6.29 12.74
12/28/2022 5:15:00 PM 2.05 35.69 0.279 7.47 6.34 12.72
12/28/2022 5:30:00 PM 2 35.6 0.279 7.47 6.07 12.7
12/28/2022 5:45:00 PM 1.97 35.546 0.278 7.47 5.98 12.65
12/28/2022 6:00:00 PM 1.96 35.528 0.279 7.47 5.67 12.64
12/28/2022 6:15:00 PM 1.95 35.51 0.279 7.46 5.27 12.61
12/28/2022 6:30:00 PM 1.95 35.51 0.28 7.46 5.2 12.57
12/28/2022 6:45:00 PM 1.87 35.366 0.278 7.46 5.26 12.59
12/28/2022 7:00:00 PM 1.91 35.438 0.28 7.45 5.09 12.56
12/28/2022 7:15:00 PM 1.87 35.366 0.279 7.45 5.36 12.56
12/28/2022 7:30:00 PM 1.87 35.366 0.278 7.45 5.05 12.54
12/28/2022 7:45:00 PM 1.84 35.312 0.279 7.45 5.04 12.53
12/28/2022 8:00:00 PM 1.82 35.276 0.279 7.44 5.22 12.52
12/28/2022 8:15:00 PM 1.81 35.258 0.28 7.44 4.92 12.52
12/28/2022 8:30:00 PM 1.82 35.276 0.279 7.44 5.06 12.49
12/28/2022 8:45:00 PM 1.8 35.24 0.281 7.44 5.28 12.48
12/28/2022 9:00:00 PM 1.76 35.168 0.281 7.44 5.37 12.46
12/28/2022 9:15:00 PM 1.78 35.204 0.28 7.43 5.5 12.47
12/28/2022 9:30:00 PM 1.73 35.114 0.28 7.43 5.11 12.5
12/28/2022 9:45:00 PM 1.7 35.06 0.263 7.43 5.63 12.45
12/28/2022 10:00:00 PM 1.69 35.042 0.281 7.43 5.58 12.5
12/28/2022 10:15:00 PM 1.69 35.042 0.282 7.43 5.08 12.5
12/28/2022 10:30:00 PM 1.63 34.934 0.282 7.43 5.31 12.5
12/28/2022 10:45:00 PM 1.65 34.97 0.283 7.42 4.8 12.49
12/28/2022 11:00:00 PM 1.6 34.88 0.282 7.42 4.66 12.52
12/28/2022 11:15:00 PM 1.57 34.826 0.282 7.42 4.6 12.52
12/28/2022 11:30:00 PM 1.56 34.808 0.283 7.42 4.96 12.53
12/28/2022 11:45:00 PM 1.53 34.754 0.283 7.42 5.09 12.53
12/29/2022 12:00:00 AM 1.5 34.7 0.283 7.42 4.67 12.55
12/29/2022 12:15:00 AM 1.49 34.682 0.283 7.42 4.78 12.53
12/29/2022 12:30:00 AM 1.48 34.664 0.284 7.42 4.47 12.56
12/29/2022 12:45:00 AM 1.47 34.646 0.284 7.42 4.41 12.51
12/29/2022 1:00:00 AM 1.43 34.574 0.284 7.42 4.65 12.55
12/29/2022 1:15:00 AM 1.41 34.538 0.285 7.42 4.53 12.56
12/29/2022 1:30:00 AM 1.42 34.556 0.286 7.42 4.36 12.57
12/29/2022 1:45:00 AM 1.37 34.466 0.285 7.42 4.33 12.57
12/29/2022 2:00:00 AM 1.37 34.466 0.287 7.42 4 12.57
12/29/2022 2:15:00 AM 1.35 34.43 0.285 7.41 4.1 12.56
12/29/2022 2:30:00 AM 1.34 34.412 0.286 7.41 4.37 12.56
12/29/2022 2:45:00 AM 1.3 34.34 0.286 7.41 4.18 12.57
12/29/2022 3:00:00 AM 1.29 34.322 0.285 7.41 4.46 12.59
12/29/2022 3:15:00 AM 1.3 34.34 0.287 7.41 4.18 12.55
12/29/2022 3:30:00 AM 1.3 34.34 0.286 7.41 4.16 12.57
12/29/2022 3:45:00 AM 1.32 34.376 0.285 7.41 4.37 12.57
12/29/2022 4:00:00 AM 1.26 34.268 0.287 7.41 4.35 12.57
12/29/2022 4:15:00 AM 1.26 34.268 0.288 7.42 4.33 12.58
12/29/2022 4:30:00 AM 1.21 34.178 0.286 7.42 4.46 12.62
12/29/2022 4:45:00 AM 1.19 34.142 0.287 7.42 4.6 12.6
12/29/2022 5:00:00 AM 1.19 34.142 0.288 7.42 4.49 12.59
12/29/2022 5:15:00 AM 1.21 34.178 0.287 7.42 4.24 12.59
12/29/2022 5:30:00 AM 1.17 34.106 0.288 7.42 4.17 12.61
12/29/2022 5:45:00 AM 1.17 34.106 0.288 7.42 4.33 12.61
12/29/2022 6:00:00 AM 1.15 34.07 0.289 7.42 4.29 12.62
12/29/2022 6:15:00 AM 1.12 34.016 0.289 7.42 4.28 12.62
12/29/2022 6:30:00 AM 1.11 33.998 0.289 7.42 4.55 12.65
12/29/2022 6:45:00 AM 1.09 33.962 0.289 7.42 4.42 12.66
12/29/2022 7:00:00 AM 1.08 33.944 0.291 7.42 4.3 12.64
12/29/2022 7:15:00 AM 1.09 33.962 0.29 7.42 4.45 12.64
12/29/2022 7:30:00 AM 1.05 33.89 0.29 7.42 4.37 12.65
12/29/2022 7:45:00 AM 1.06 33.908 0.29 7.42 4.39 12.63
12/29/2022 8:00:00 AM 1.02 33.836 0.289 7.42 4.43 12.66
12/29/2022 8:15:00 AM 1.03 33.854 0.291 7.42 5.75 12.67
12/29/2022 8:30:00 AM 1.04 33.872 0.292 7.43 5.58 12.7
12/29/2022 8:45:00 AM 1.01 33.818 0.291 7.43 5.49 12.69
12/29/2022 9:00:00 AM 1.02 33.836 0.29 7.43 5.32 12.72
12/29/2022 9:15:00 AM 1.03 33.854 0.291 7.43 5.45 12.76
12/29/2022 9:30:00 AM 1.09 33.962 0.292 7.44 5.24 12.77
12/29/2022 9:45:00 AM 1.16 34.088 0.292 7.44 5.22 12.79
12/29/2022 10:00:00 AM 1.17 34.106 0.293 7.44 4.83 12.83
12/29/2022 10:15:00 AM 1.24 34.232 0.29 7.45 4.9 12.81
12/29/2022 10:30:00 AM 1.27 34.286 0.291 7.45 4.95 12.85
12/29/2022 10:45:00 AM 1.37 34.466 0.291 7.46 4.81 12.89
12/29/2022 11:00:00 AM 1.47 34.646 0.292 7.46 4.88 12.89
12/29/2022 11:15:00 AM 1.56 34.808 0.29 7.46 4.8 12.91
12/29/2022 11:30:00 AM 1.67 35.006 0.29 7.47 7.85 12.91
12/29/2022 11:45:00 AM 1.78 35.204 0.291 7.47 4.52 12.91
12/29/2022 12:00:00 PM 1.87 35.366 0.291 7.47 4.55 12.93
12/29/2022 12:15:00 PM 1.99 35.582 0.29 7.48 4.42 12.96
12/29/2022 12:30:00 PM 2.11 35.798 0.292 7.48 4.35 12.94
12/29/2022 12:45:00 PM 2.21 35.978 0.291 7.48 4.26 12.93
12/29/2022 1:00:00 PM 2.28 36.104 0.291 7.49 4.52 12.91
12/29/2022 1:15:00 PM 2.38 36.284 0.289 7.49 4.61 12.93
12/29/2022 1:30:00 PM 2.5 36.5 0.29 7.49 4.26 12.93
12/29/2022 1:45:00 PM 2.6 36.68 0.291 7.5 4.42 12.92
12/29/2022 2:00:00 PM 2.7 36.86 0.291 7.5 4.17 12.89
12/29/2022 2:15:00 PM 2.76 36.968 0.289 7.5 4.26 12.88
12/29/2022 2:30:00 PM 2.84 37.112 0.289 7.5 4.33 12.85
12/29/2022 2:45:00 PM 2.9 37.22 0.29 7.5 4.15 12.87
12/29/2022 3:00:00 PM 2.9 37.22 0.287 7.5 4.62 12.8
12/29/2022 3:15:00 PM 2.94 37.292 0.288 7.5 5 12.78
12/29/2022 3:30:00 PM 2.96 37.328 0.287 7.51 4.9 12.75
12/29/2022 3:45:00 PM 2.99 37.382 0.285 7.5 5.14 12.72
12/29/2022 4:00:00 PM 2.98 37.364 0.289 7.51 5.29 12.72
12/29/2022 4:15:00 PM 3 37.4 0.287 7.5 5.13 12.65
12/29/2022 4:30:00 PM 3 37.4 0.287 7.5 5.19 12.59
12/29/2022 4:45:00 PM 3.02 37.436 0.287 7.5 5.25 12.56
12/29/2022 5:00:00 PM 2.98 37.364 0.283 7.5 5 12.51
12/29/2022 5:15:00 PM 2.96 37.328 0.278 7.49 4.69 12.47
12/29/2022 5:30:00 PM 2.96 37.328 0.277 7.49 4.87 12.43
12/29/2022 5:45:00 PM 2.89 37.202 0.275 7.49 5.38 12.42
12/29/2022 6:00:00 PM 2.9 37.22 0.275 7.49 5.11 12.37
12/29/2022 6:15:00 PM 2.87 37.166 0.274 7.48 5.19 12.31
12/29/2022 6:30:00 PM 2.85 37.13 0.273 7.48 4.53 12.32
12/29/2022 6:45:00 PM 2.84 37.112 0.274 7.48 4.89 12.28
12/29/2022 7:00:00 PM 2.82 37.076 0.273 7.47 4.73 12.26
12/29/2022 7:15:00 PM 2.82 37.076 0.273 7.47 4.65 12.24
12/29/2022 7:30:00 PM 2.81 37.058 0.273 7.46 4.86 12.22
12/29/2022 7:45:00 PM 2.83 37.094 0.274 7.47 4.67 12.21
12/29/2022 8:00:00 PM 2.77 36.986 0.272 7.47 6.11 12.22
12/29/2022 8:15:00 PM 2.77 36.986 0.273 7.46 5.06 12.2
12/29/2022 8:30:00 PM 2.75 36.95 0.271 7.46 4.86 12.2
12/29/2022 8:45:00 PM 2.73 36.914 0.272 7.46 4.61 12.19
12/29/2022 9:00:00 PM 2.76 36.968 0.274 7.45 4.37 12.16
12/29/2022 9:15:00 PM 2.7 36.86 0.272 7.45 4.75 12.19
12/29/2022 9:30:00 PM 2.7 36.86 0.271 7.45 6.24 12.19
12/29/2022 9:45:00 PM 2.7 36.86 0.272 7.45 4.32 12.17
12/29/2022 10:00:00 PM 2.67 36.806 0.273 7.45 4.15 12.21
12/29/2022 10:15:00 PM 2.68 36.824 0.273 7.45 4.61 12.17
12/29/2022 10:30:00 PM 2.65 36.77 0.273 7.45 4.83 12.19
12/29/2022 10:45:00 PM 2.64 36.752 0.273 7.45 4.54 12.19
12/29/2022 11:00:00 PM 2.67 36.806 0.275 7.44 4.32 12.19
12/29/2022 11:15:00 PM 2.64 36.752 0.275 7.44 4.19 12.16
12/29/2022 11:30:00 PM 2.65 36.77 0.277 7.44 4.07 12.19
12/29/2022 11:45:00 PM 2.67 36.806 0.278 7.44 4.09 12.18
12/30/2022 12:00:00 AM 2.64 36.752 0.277 7.44 3.97 12.19
12/30/2022 12:15:00 AM 2.64 36.752 0.278 7.44 4.05 12.19
12/30/2022 12:30:00 AM 2.61 36.698 0.277 7.44 4.2 12.2
12/30/2022 12:45:00 AM 2.63 36.734 0.277 7.44 3.94 12.2
12/30/2022 1:00:00 AM 2.66 36.788 0.278 7.44 4.07 12.16
12/30/2022 1:15:00 AM 2.65 36.77 0.277 7.44 4.01 12.19
12/30/2022 1:30:00 AM 2.63 36.734 0.276 7.44 4.07 12.21
12/30/2022 1:45:00 AM 2.64 36.752 0.276 7.44 4.29 12.21
12/30/2022 2:00:00 AM 2.64 36.752 0.275 7.44 4.24 12.19
12/30/2022 2:15:00 AM 2.65 36.77 0.275 7.44 3.99 12.19
12/30/2022 2:30:00 AM 2.62 36.716 0.273 7.44 4.11 12.23
12/30/2022 2:45:00 AM 2.62 36.716 0.273 7.44 4.21 12.21
12/30/2022 3:00:00 AM 2.61 36.698 0.272 7.43 4.37 12.22
12/30/2022 3:15:00 AM 2.57 36.626 0.271 7.43 4.18 12.22
12/30/2022 3:30:00 AM 2.55 36.59 0.27 7.43 4.19 12.23
12/30/2022 3:45:00 AM 2.55 36.59 0.27 7.43 3.88 12.23
12/30/2022 4:00:00 AM 2.51 36.518 0.268 7.43 4.11 12.24
12/30/2022 4:15:00 AM 2.5 36.5 0.269 7.43 4.21 12.26
12/30/2022 4:30:00 AM 2.49 36.482 0.269 7.43 4.04 12.25
12/30/2022 4:45:00 AM 2.48 36.464 0.268 7.43 4.3 12.27
12/30/2022 5:00:00 AM 2.45 36.41 0.267 7.43 4.36 12.27
12/30/2022 5:15:00 AM 2.46 36.428 0.268 7.43 4.06 12.25
12/30/2022 5:30:00 AM 2.4 36.32 0.266 7.43 4.43 12.29
12/30/2022 5:45:00 AM 2.4 36.32 0.265 7.43 4.82 12.28
12/30/2022 6:00:00 AM 2.4 36.32 0.265 7.43 4.32 12.3
12/30/2022 6:15:00 AM 2.39 36.302 0.264 7.43 4.21 12.28
12/30/2022 6:30:00 AM 2.38 36.284 0.265 7.43 4.27 12.29
12/30/2022 6:45:00 AM 2.37 36.266 0.263 7.43 4.15 12.3
12/30/2022 7:00:00 AM 2.35 36.23 0.264 7.43 4.75 12.32
12/30/2022 7:15:00 AM 2.35 36.23 0.263 7.43 4.14 12.3
12/30/2022 7:30:00 AM 2.33 36.194 0.262 7.43 4.48 12.34
12/30/2022 7:45:00 AM 2.33 36.194 0.262 7.43 4.27 12.35
12/30/2022 8:00:00 AM 2.32 36.176 0.26 7.43 3.91 12.39
12/30/2022 8:15:00 AM 2.33 36.194 0.26 7.43 3.98 12.38
12/30/2022 8:30:00 AM 2.34 36.212 0.26 7.43 4.28 12.4
12/30/2022 8:45:00 AM 2.32 36.176 0.259 7.43 4.41 12.43
12/30/2022 9:00:00 AM 2.39 36.302 0.259 7.43 4.39 12.43
12/30/2022 9:15:00 AM 2.4 36.32 0.258 7.44 4.54 12.48
12/30/2022 9:30:00 AM 2.41 36.338 0.258 7.44 4.38 12.51
12/30/2022 9:45:00 AM 2.43 36.374 0.258 7.45 4.4 12.57
12/30/2022 10:00:00 AM 2.5 36.5 0.257 7.45 4.28 12.58
12/30/2022 10:15:00 AM 2.55 36.59 0.256 7.45 4.16 12.62
12/30/2022 10:30:00 AM 2.58 36.644 0.256 7.46 4.21 12.66
12/30/2022 10:45:00 AM 2.62 36.716 0.255 7.46 4.45 12.71
12/30/2022 11:00:00 AM 2.66 36.788 0.254 7.46 4.53 12.7
12/30/2022 11:15:00 AM 2.72 36.896 0.255 7.46 4.26 12.73
12/30/2022 11:30:00 AM 2.75 36.95 0.254 7.47 4.41 12.78
12/30/2022 11:45:00 AM 2.8 37.04 0.254 7.47 4.3 12.78
12/30/2022 12:00:00 PM 2.85 37.13 0.253 7.47 4.23 12.78
12/30/2022 12:15:00 PM 2.92 37.256 0.252 7.48 4.25 12.82
12/30/2022 12:30:00 PM 2.98 37.364 0.252 7.48 4.33 12.82
12/30/2022 12:45:00 PM 3.06 37.508 0.251 7.48 4.28 12.84
12/30/2022 1:00:00 PM 3.18 37.724 0.251 7.49 4.33 12.84
12/30/2022 1:15:00 PM 3.27 37.886 0.25 7.49 4.25 12.84
12/30/2022 1:30:00 PM 3.36 38.048 0.25 7.49 4.13 12.83
12/30/2022 1:45:00 PM 3.44 38.192 0.249 7.5 4.43 12.84
12/30/2022 2:00:00 PM 3.52 38.336 0.249 7.5 4.39 12.83
12/30/2022 2:15:00 PM 3.56 38.408 0.25 7.5 4.42 12.82
12/30/2022 2:30:00 PM 3.56 38.408 0.248 7.5 4.92 12.81
12/30/2022 2:45:00 PM 3.6 38.48 0.25 7.5 4.63 12.78
12/30/2022 3:00:00 PM 3.6 38.48 0.248 7.5 4.62 12.79
12/30/2022 3:15:00 PM 3.62 38.516 0.248 7.5 4.95 12.74
12/30/2022 3:30:00 PM 3.63 38.534 0.248 7.5 4.52 12.73
12/30/2022 3:45:00 PM 3.62 38.516 0.249 7.5 4.91 12.72
12/30/2022 4:00:00 PM 3.61 38.498 0.249 7.5 4.69 12.7
12/30/2022 4:15:00 PM 3.57 38.426 0.248 7.49 4.66 12.67
12/30/2022 4:30:00 PM 3.54 38.372 0.248 7.49 4.93 12.62
12/30/2022 4:45:00 PM 3.5 38.3 0.248 7.48 5.81 12.59
12/30/2022 5:00:00 PM 3.43 38.174 0.247 7.48 4.98 12.55
12/30/2022 5:15:00 PM 3.34 38.012 0.246 7.48 5.37 12.54
12/30/2022 5:30:00 PM 3.27 37.886 0.244 7.47 5.58 12.52
12/30/2022 5:45:00 PM 3.21 37.778 0.244 7.47 5.26 12.51
12/30/2022 6:00:00 PM 3.13 37.634 0.242 7.46 5.54 12.5
12/30/2022 6:15:00 PM 3.04 37.472 0.239 7.46 5.79 12.51
12/30/2022 6:30:00 PM 2.97 37.346 0.239 7.45 5.88 12.51
12/30/2022 6:45:00 PM 2.9 37.22 0.237 7.45 5.68 12.5
12/30/2022 7:00:00 PM 2.81 37.058 0.235 7.45 5.88 12.52
12/30/2022 7:15:00 PM 2.71 36.878 0.234 7.44 6.15 12.53
12/30/2022 7:30:00 PM 2.62 36.716 0.232 7.44 6.94 12.54
12/30/2022 7:45:00 PM 2.53 36.554 0.229 7.43 6.72 12.56
12/30/2022 8:00:00 PM 2.43 36.374 0.226 7.43 6.69 12.6
12/30/2022 8:15:00 PM 2.35 36.23 0.225 7.42 7.51 12.63
12/30/2022 8:30:00 PM 2.23 36.014 0.221 7.42 7.78 12.66
12/30/2022 8:45:00 PM 2.13 35.834 0.218 7.42 8.7 12.71
12/30/2022 9:00:00 PM 2.04 35.672 0.214 7.41 8.34 12.76
12/30/2022 9:15:00 PM 1.93 35.474 0.211 7.41 9.57 12.8
12/30/2022 9:30:00 PM 1.86 35.348 0.207 7.41 10.19 12.85
12/30/2022 9:45:00 PM 1.79 35.222 0.204 7.4 10.19 12.89
12/30/2022 10:00:00 PM 1.7 35.06 0.199 7.4 11.08 12.92
12/30/2022 10:15:00 PM 1.62 34.916 0.196 7.39 10.01 12.98
12/30/2022 10:30:00 PM 1.58 34.844 0.192 7.39 11.33 13
12/30/2022 10:45:00 PM 1.49 34.682 0.189 7.38 11.6 13.05
12/30/2022 11:00:00 PM 1.45 34.61 0.187 7.38 11.24 13.06
12/30/2022 11:15:00 PM 1.39 34.502 0.185 7.38 11.22 13.1
12/30/2022 11:30:00 PM 1.36 34.448 0.183 7.37 10.73 13.11
12/30/2022 11:45:00 PM 1.33 34.394 0.182 7.37 11.05 13.12
12/31/2022 12:00:00 AM 1.25 34.25 0.18 7.36 11.34 13.16
12/31/2022 12:15:00 AM 1.22 34.196 0.179 7.36 11.89 13.18
12/31/2022 12:30:00 AM 1.19 34.142 0.177 7.36 12.07 13.2
12/31/2022 12:45:00 AM 1.16 34.088 0.176 7.35 11.98 13.21
12/31/2022 1:00:00 AM 1.13 34.034 0.175 7.35 12.92 13.22
12/31/2022 1:15:00 AM 1.12 34.016 0.175 7.34 11.95 13.22
12/31/2022 1:30:00 AM 1.12 34.016 0.174 7.34 11.43 13.22
12/31/2022 1:45:00 AM 1.09 33.962 0.173 7.34 11.62 13.22
12/31/2022 2:00:00 AM 1.09 33.962 0.173 7.34 11.71 13.23
12/31/2022 2:15:00 AM 1.07 33.926 0.172 7.33 12.1 13.25
12/31/2022 2:30:00 AM 1.07 33.926 0.171 7.33 11.59 13.24
12/31/2022 2:45:00 AM 1.06 33.908 0.17 7.33 12.61 13.24
12/31/2022 3:00:00 AM 1.07 33.926 0.17 7.33 12.1 13.23
12/31/2022 3:15:00 AM 1.07 33.926 0.169 7.31 11.1 13.23
12/31/2022 3:30:00 AM 1.06 33.908 0.169 7.32 12.62 13.22
12/31/2022 3:45:00 AM 1.06 33.908 0.168 7.32 11.7 13.23
12/31/2022 4:00:00 AM 1.06 33.908 0.168 7.32 12.57 13.22
12/31/2022 4:15:00 AM 1.07 33.926 0.168 7.3 11.4 13.21
12/31/2022 4:30:00 AM 1.08 33.944 0.168 7.32 11.6 13.22
12/31/2022 4:45:00 AM 1.08 33.944 0.167 7.32 10.88 13.21
12/31/2022 5:00:00 AM 1.11 33.998 0.168 7.32 10.51 13.21
12/31/2022 5:15:00 AM 1.12 34.016 0.167 7.31 11.04 13.21
12/31/2022 5:30:00 AM 1.12 34.016 0.167 7.31 10.74 13.19
12/31/2022 5:45:00 AM 1.13 34.034 0.167 7.31 10.21 13.19
12/31/2022 6:00:00 AM 1.14 34.052 0.167 7.31 10.49 13.18
12/31/2022 6:15:00 AM 1.13 34.034 0.167 7.31 10.62 13.19
12/31/2022 6:30:00 AM 1.13 34.034 0.167 7.31 10.28 13.18
12/31/2022 6:45:00 AM 1.14 34.052 0.167 7.31 10.21 13.16
12/31/2022 7:00:00 AM 1.15 34.07 0.167 7.31 10.73 13.17
12/31/2022 7:15:00 AM 1.15 34.07 0.167 7.31 11.37 13.17
12/31/2022 7:30:00 AM 1.16 34.088 0.167 7.31 10.1 13.16
12/31/2022 7:45:00 AM 1.16 34.088 0.167 7.31 10.14 13.15
12/31/2022 8:00:00 AM 1.18 34.124 0.167 7.31 10.12 13.15
12/31/2022 8:15:00 AM 1.19 34.142 0.167 7.31 9.08 13.15
12/31/2022 8:30:00 AM 1.21 34.178 0.168 7.31 9.26 13.16
12/31/2022 8:45:00 AM 1.23 34.214 0.168 7.31 9.08 13.16
12/31/2022 9:00:00 AM 1.24 34.232 0.168 7.31 9.13 13.16
12/31/2022 9:15:00 AM 1.27 34.286 0.168 7.32 9.61 13.17
12/31/2022 9:30:00 AM 1.31 34.358 0.168 7.32 9.29 13.19
12/31/2022 9:45:00 AM 1.34 34.412 0.168 7.32 9.43 13.2
12/31/2022 10:00:00 AM 1.37 34.466 0.169 7.32 9.87 13.21
12/31/2022 10:15:00 AM 1.41 34.538 0.168 7.33 9.28 13.22
12/31/2022 10:30:00 AM 1.46 34.628 0.168 7.33 9.45 13.24
12/31/2022 10:45:00 AM 1.51 34.718 0.169 7.33 10.05 13.25
12/31/2022 11:00:00 AM 1.55 34.79 0.168 7.34 9.75 13.26
12/31/2022 11:15:00 AM 1.58 34.844 0.169 7.34 9.63 13.27
12/31/2022 11:30:00 AM 1.63 34.934 0.169 7.34 9.11 13.27
12/31/2022 11:45:00 AM 1.68 35.024 0.169 7.35 8.75 13.29
12/31/2022 12:00:00 PM 1.72 35.096 0.169 7.35 9.48 13.28
12/31/2022 12:15:00 PM 1.76 35.168 0.169 7.35 9.46 13.3
12/31/2022 12:30:00 PM 1.82 35.276 0.169 7.36 9.15 13.31
12/31/2022 12:45:00 PM 1.87 35.366 0.17 7.36 9.07 13.31
12/31/2022 1:00:00 PM 1.91 35.438 0.169 7.36 8.63 13.3
12/31/2022 1:15:00 PM 1.97 35.546 0.169 7.37 9.01 13.31
12/31/2022 1:30:00 PM 2.01 35.618 0.169 7.37 9.5 13.31
12/31/2022 1:45:00 PM 2.04 35.672 0.169 7.37 7.88 13.3
12/31/2022 2:00:00 PM 2.06 35.708 0.169 7.38 9.81 13.28
12/31/2022 2:15:00 PM 2.1 35.78 0.169 7.38 10.28 13.27
12/31/2022 2:30:00 PM 2.12 35.816 0.169 7.38 9.79 13.26
12/31/2022 2:45:00 PM 2.13 35.834 0.169 7.38 9.68 13.25
12/31/2022 3:00:00 PM 2.16 35.888 0.169 7.38 9.67 13.23
12/31/2022 3:15:00 PM 2.16 35.888 0.168 7.38 9.19 13.21
12/31/2022 3:30:00 PM 2.17 35.906 0.168 7.38 9.64 13.2
12/31/2022 3:45:00 PM 2.17 35.906 0.167 7.38 9.43 13.19
12/31/2022 4:00:00 PM 2.17 35.906 0.167 7.37 9.53 13.19
12/31/2022 4:15:00 PM 2.16 35.888 0.167 7.37 9.43 13.14
12/31/2022 4:30:00 PM 2.13 35.834 0.165 7.37 9.58 13.14
12/31/2022 4:45:00 PM 2.1 35.78 0.165 7.37 9.42 13.12
12/31/2022 5:00:00 PM 2.07 35.726 0.164 7.36 10.18 13.09
12/31/2022 5:15:00 PM 2.04 35.672 0.163 7.36 9.75 13.08
12/31/2022 5:30:00 PM 2 35.6 0.162 7.36 10.24 13.07
12/31/2022 5:45:00 PM 1.98 35.564 0.16 7.35 10.67 13.05
12/31/2022 6:00:00 PM 1.96 35.528 0.159 7.35 10.26 13.04
12/31/2022 6:15:00 PM 1.93 35.474 0.157 7.35 11.06 13.05
12/31/2022 6:30:00 PM 1.89 35.402 0.155 7.34 11.74 13.04
12/31/2022 6:45:00 PM 1.87 35.366 0.154 7.34 11.43 13.05
12/31/2022 7:00:00 PM 1.84 35.312 0.152 7.33 11.94 13.04
12/31/2022 7:15:00 PM 1.8 35.24 0.151 7.33 12.01 13.04
12/31/2022 7:30:00 PM 1.76 35.168 0.149 7.32 12.28 13.06
12/31/2022 7:45:00 PM 1.72 35.096 0.147 7.32 12.25 13.05
12/31/2022 8:00:00 PM 1.69 35.042 0.146 7.32 12.99 13.07
12/31/2022 8:15:00 PM 1.65 34.97 0.144 7.31 13.41 13.09
12/31/2022 8:30:00 PM 1.63 34.934 0.144 7.31 13.25 13.09
12/31/2022 8:45:00 PM 1.59 34.862 0.142 7.3 14.31 13.11
12/31/2022 9:00:00 PM 1.57 34.826 0.142 7.3 13.84 13.11
12/31/2022 9:15:00 PM 1.54 34.772 0.14 7.29 15.02 13.12
12/31/2022 9:30:00 PM 1.51 34.718 0.139 7.29 15.69 13.12
12/31/2022 9:45:00 PM 1.5 34.7 0.139 7.29 16.61 13.13
12/31/2022 10:00:00 PM 1.48 34.664 0.137 7.28 13.92 13.12
12/31/2022 10:15:00 PM 1.44 34.592 0.136 7.27 16.02 13.15
12/31/2022 10:30:00 PM 1.43 34.574 0.135 7.27 12.89 13.13
12/31/2022 10:45:00 PM 1.4 34.52 0.134 7.27 14.63 13.14
12/31/2022 11:00:00 PM 1.38 34.484 0.134 7.23 16.05 13.15
12/31/2022 11:15:00 PM 1.38 34.484 0.134 7.26 17.79 13.13
12/31/2022 11:30:00 PM 1.38 34.484 0.134 7.26 14.54 13.14
12/31/2022 11:45:00 PM 1.39 34.502 0.133 7.24 16.16 13.14
1/1/2023 12:00:00 AM 1.38 34.484 0.133 7.25 15.4 13.13
1/1/2023 12:15:00 AM 1.37 34.466 0.132 7.25 13.79 13.14
1/1/2023 12:30:00 AM 1.35 34.43 0.131 7.25 16.99 13.16
1/1/2023 12:45:00 AM 1.37 34.466 0.132 7.25 15.09 13.15
1/1/2023 1:00:00 AM 1.35 34.43 0.131 7.24 14.64 13.15
1/1/2023 1:15:00 AM 1.36 34.448 0.131 7.24 15.45 13.09
1/1/2023 1:30:00 AM 1.35 34.43 0.131 7.24 15.19 13.15
1/1/2023 1:45:00 AM 1.37 34.466 0.131 7.23 15.01 13.13
1/1/2023 2:00:00 AM 1.37 34.466 0.13 7.24 15.74 13.12
1/1/2023 2:15:00 AM 1.38 34.484 0.13 7.24 15.32 13.14
1/1/2023 2:30:00 AM 1.41 34.538 0.13 7.23 14.33 13.12
1/1/2023 2:45:00 AM 1.45 34.61 0.132 7.24 14.47 13.1
1/1/2023 3:00:00 AM 1.43 34.574 0.13 7.24 13.77 13.12
1/1/2023 3:15:00 AM 1.46 34.628 0.13 7.24 14.65 13.12
1/1/2023 3:30:00 AM 1.49 34.682 0.129 7.23 14.32 13.09
1/1/2023 3:45:00 AM 1.51 34.718 0.13 7.23 14.6 13.1
1/1/2023 4:00:00 AM 1.52 34.736 0.13 7.24 13.9 13.09
1/1/2023 4:15:00 AM 1.53 34.754 0.13 7.23 14.11 13.08
1/1/2023 4:30:00 AM 1.53 34.754 0.129 7.24 13.01 13.1
1/1/2023 4:45:00 AM 1.55 34.79 0.13 7.23 14.59 13.07
1/1/2023 5:00:00 AM 1.61 34.898 0.132 7.23 14.23 13.07
1/1/2023 5:15:00 AM 1.61 34.898 0.13 7.24 13.72 13.04
1/1/2023 5:30:00 AM 1.64 34.952 0.131 7.23 14.01 13.04
1/1/2023 5:45:00 AM 1.63 34.934 0.13 7.24 14.05 13.03
1/1/2023 6:00:00 AM 1.67 35.006 0.131 7.23 13.84 12.99
1/1/2023 6:15:00 AM 1.67 35.006 0.133 7.24 13.17 13.03
1/1/2023 6:30:00 AM 1.71 35.078 0.131 7.23 13.78 12.99
1/1/2023 6:45:00 AM 1.67 35.006 0.131 7.24 14.36 13.01
1/1/2023 7:00:00 AM 1.7 35.06 0.13 7.24 12.85 13
1/1/2023 7:15:00 AM 1.7 35.06 0.13 7.24 13.49 13.02
1/1/2023 7:30:00 AM 1.71 35.078 0.131 7.24 13.97 13.02
1/1/2023 7:45:00 AM 1.71 35.078 0.13 7.24 14.16 13.01
1/1/2023 8:00:00 AM 1.75 35.15 0.129 7.23 13.36 12.97
1/1/2023 8:15:00 AM 1.8 35.24 0.131 7.23 12.63 12.99
1/1/2023 8:30:00 AM 1.75 35.15 0.129 7.24 12.79 13.05
1/1/2023 8:45:00 AM 1.78 35.204 0.13 7.24 13.83 13.04
1/1/2023 9:00:00 AM 1.79 35.222 0.129 7.24 12.57 13.06
1/1/2023 9:15:00 AM 1.82 35.276 0.13 7.24 13.17 13.03
1/1/2023 9:30:00 AM 1.88 35.384 0.131 7.24 13.06 13.05
1/1/2023 9:45:00 AM 1.87 35.366 0.13 7.24 12.03 13.06
1/1/2023 10:00:00 AM 1.9 35.42 0.13 7.25 11.89 13.09
1/1/2023 10:15:00 AM 1.94 35.492 0.131 7.25 11.84 13.09
1/1/2023 10:30:00 AM 1.97 35.546 0.13 7.25 12.54 13.1
1/1/2023 10:45:00 AM 2.02 35.636 0.13 7.26 11.7 13.12
1/1/2023 11:00:00 AM 2.06 35.708 0.131 7.26 12.02 13.14
1/1/2023 11:15:00 AM 2.1 35.78 0.13 7.26 11.91 13.14
1/1/2023 11:30:00 AM 2.17 35.906 0.131 7.27 11.52 13.17
1/1/2023 11:45:00 AM 2.22 35.996 0.132 7.27 11.51 13.16
1/1/2023 12:00:00 PM 2.32 36.176 0.133 7.27 11 13.16
1/1/2023 12:15:00 PM 2.41 36.338 0.133 7.28 10.83 13.18
1/1/2023 12:30:00 PM 2.48 36.464 0.133 7.28 10.96 13.18
1/1/2023 12:45:00 PM 2.57 36.626 0.133 7.29 10.93 13.18
1/1/2023 1:00:00 PM 2.61 36.698 0.133 7.29 10.55 13.18
1/1/2023 1:15:00 PM 2.65 36.77 0.134 7.29 10.79 13.16
1/1/2023 1:30:00 PM 2.67 36.806 0.134 7.3 10.99 13.14
1/1/2023 1:45:00 PM 2.69 36.842 0.135 7.3 10.83 13.15
1/1/2023 2:00:00 PM 2.74 36.932 0.136 7.3 11.06 13.13
1/1/2023 2:15:00 PM 2.77 36.986 0.136 7.3 10.88 13.1
1/1/2023 2:30:00 PM 2.8 37.04 0.136 7.3 12.9 13.08
1/1/2023 2:45:00 PM 2.84 37.112 0.136 7.31 10.73 13.07
1/1/2023 3:00:00 PM 2.86 37.148 0.137 7.31 10.3 13.06
1/1/2023 3:15:00 PM 2.86 37.148 0.137 7.31 10.45 13.02
1/1/2023 3:30:00 PM 2.88 37.184 0.137 7.31 10.65 13.05
1/1/2023 3:45:00 PM 2.9 37.22 0.138 7.31 10.02 13.01
1/1/2023 4:00:00 PM 2.91 37.238 0.138 7.31 9.83 13
1/1/2023 4:15:00 PM 2.91 37.238 0.139 7.31 9.93 12.97
1/1/2023 4:30:00 PM 2.89 37.202 0.138 7.31 10.18 12.95
1/1/2023 4:45:00 PM 2.9 37.22 0.139 7.31 10.22 12.91
1/1/2023 5:00:00 PM 2.88 37.184 0.139 7.3 10.78 12.88
1/1/2023 5:15:00 PM 2.87 37.166 0.139 7.3 10.66 12.87
1/1/2023 5:30:00 PM 2.86 37.148 0.139 7.3 10.47 12.85
1/1/2023 5:45:00 PM 2.85 37.13 0.14 7.3 11.58 12.83
1/1/2023 6:00:00 PM 2.84 37.112 0.139 7.29 10.34 12.8
1/1/2023 6:15:00 PM 2.8 37.04 0.139 7.29 10.65 12.8
1/1/2023 6:30:00 PM 2.79 37.022 0.139 7.29 10.74 12.78
1/1/2023 6:45:00 PM 2.77 36.986 0.139 7.28 10.73 12.79
1/1/2023 7:00:00 PM 2.76 36.968 0.139 7.28 10.45 12.77
1/1/2023 7:15:00 PM 2.77 36.986 0.14 7.28 10.5 12.74
1/1/2023 7:30:00 PM 2.75 36.95 0.14 7.27 11.47 12.75
1/1/2023 7:45:00 PM 2.75 36.95 0.141 7.27 11.08 12.72
1/1/2023 8:00:00 PM 2.74 36.932 0.14 7.27 11.09 12.71
1/1/2023 8:15:00 PM 2.76 36.968 0.141 7.27 10.92 12.7
1/1/2023 8:30:00 PM 2.74 36.932 0.14 7.26 10.53 12.71
1/1/2023 8:45:00 PM 2.74 36.932 0.14 7.26 10.92 12.69
1/1/2023 9:00:00 PM 2.73 36.914 0.141 7.26 10.9 12.7
1/1/2023 9:15:00 PM 2.73 36.914 0.14 7.26 10.5 12.69
1/1/2023 9:30:00 PM 2.72 36.896 0.14 7.26 10.87 12.67
1/1/2023 9:45:00 PM 2.73 36.914 0.141 7.26 11.01 12.67
1/1/2023 10:00:00 PM 2.72 36.896 0.141 7.26 10.99 12.67
1/1/2023 10:15:00 PM 2.72 36.896 0.141 7.25 11.27 12.65
1/1/2023 10:30:00 PM 2.72 36.896 0.141 7.25 10.45 12.65
1/1/2023 10:45:00 PM 2.72 36.896 0.142 7.25 10.16 12.64
1/1/2023 11:00:00 PM 2.71 36.878 0.142 7.25 10.44 12.65
1/1/2023 11:15:00 PM 2.72 36.896 0.142 7.25 9.53 12.64
1/1/2023 11:30:00 PM 2.7 36.86 0.142 7.25 10.04 12.66
1/1/2023 11:45:00 PM 2.7 36.86 0.142 7.25 9.97 12.64
1/2/2023 12:00:00 AM 2.7 36.86 0.142 7.25 10.69 12.64
1/2/2023 12:15:00 AM 2.7 36.86 0.142 7.25 9.71 12.63
1/2/2023 12:30:00 AM 2.71 36.878 0.143 7.25 9.72 12.61
1/2/2023 12:45:00 AM 2.7 36.86 0.143 7.25 10.43 12.63
1/2/2023 1:00:00 AM 2.69 36.842 0.143 7.25 9.76 12.61
1/2/2023 1:15:00 AM 2.69 36.842 0.144 7.25 9.72 12.61
1/2/2023 1:30:00 AM 2.68 36.824 0.144 7.25 9.85 12.61
1/2/2023 1:45:00 AM 2.68 36.824 0.144 7.25 9.44 12.62
1/2/2023 2:00:00 AM 2.68 36.824 0.144 7.25 9.45 12.61
1/2/2023 2:15:00 AM 2.68 36.824 0.145 7.25 9.61 12.6
1/2/2023 2:30:00 AM 2.67 36.806 0.145 7.25 9.56 12.6
1/2/2023 2:45:00 AM 2.67 36.806 0.146 7.25 9.61 12.61
1/2/2023 3:00:00 AM 2.66 36.788 0.146 7.25 8.57 12.59
1/2/2023 3:15:00 AM 2.65 36.77 0.147 7.25 8.97 12.6
1/2/2023 3:30:00 AM 2.64 36.752 0.147 7.25 8.81 12.6
1/2/2023 3:45:00 AM 2.64 36.752 0.148 7.25 9.24 12.58
1/2/2023 4:00:00 AM 2.63 36.734 0.147 7.25 9.4 12.6
1/2/2023 4:15:00 AM 2.65 36.77 0.148 7.25 8.83 12.59
1/2/2023 4:30:00 AM 2.64 36.752 0.148 7.25 9.58 12.58
1/2/2023 4:45:00 AM 2.64 36.752 0.15 7.25 8.56 12.6
1/2/2023 5:00:00 AM 2.65 36.77 0.15 7.25 9.78 12.6
1/2/2023 5:15:00 AM 2.63 36.734 0.149 7.25 9.59 12.59
1/2/2023 5:30:00 AM 2.63 36.734 0.15 7.25 9.78 12.59
1/2/2023 5:45:00 AM 2.65 36.77 0.15 7.25 9.83 12.58
1/2/2023 6:00:00 AM 2.65 36.77 0.15 7.26 10.44 12.53
1/2/2023 6:15:00 AM 2.66 36.788 0.152 7.26 9.11 12.55
1/2/2023 6:30:00 AM 2.66 36.788 0.153 7.26 9.26 12.53
1/2/2023 6:45:00 AM 2.67 36.806 0.152 7.26 8.95 12.56
1/2/2023 7:00:00 AM 2.7 36.86 0.156 7.26 9.08 12.5
1/2/2023 7:15:00 AM 2.7 36.86 0.155 7.26 8.86 12.5
1/2/2023 7:30:00 AM 2.69 36.842 0.153 7.26 9.5 12.48
1/2/2023 7:45:00 AM 2.71 36.878 0.157 7.26 8.66 12.53
1/2/2023 8:00:00 AM 2.72 36.896 0.158 7.26 8.06 12.48
1/2/2023 8:15:00 AM 2.73 36.914 0.155 7.26 7.99 12.49
1/2/2023 8:30:00 AM 2.74 36.932 0.167 7.26 9.38 12.51
1/2/2023 8:45:00 AM 2.75 36.95 0.165 7.26 8.35 12.52
1/2/2023 9:00:00 AM 2.77 36.986 0.171 7.27 8.66 12.56
1/2/2023 9:15:00 AM 2.79 37.022 0.171 7.27 10.35 12.56
1/2/2023 9:30:00 AM 2.84 37.112 0.173 7.27 7.76 12.54
1/2/2023 9:45:00 AM 2.87 37.166 0.173 7.28 7.9 12.6
1/2/2023 10:00:00 AM 2.88 37.184 0.171 7.28 7.91 12.64
1/2/2023 10:15:00 AM 2.93 37.274 0.173 7.29 8.39 12.67
1/2/2023 10:30:00 AM 3.01 37.418 0.172 7.3 8.14 12.68
1/2/2023 10:45:00 AM 3.06 37.508 0.174 7.3 8.12 12.72
1/2/2023 11:00:00 AM 3.12 37.616 0.172 7.31 7.56 12.74
1/2/2023 11:15:00 AM 3.21 37.778 0.173 7.31 7.86 12.78
1/2/2023 11:30:00 AM 3.27 37.886 0.173 7.32 7.62 12.79
1/2/2023 11:45:00 AM 3.35 38.03 0.172 7.33 7.72 12.78
1/2/2023 12:00:00 PM 3.44 38.192 0.174 7.33 8.41 12.79
1/2/2023 12:15:00 PM 3.49 38.282 0.176 7.34 7.28 12.83
1/2/2023 12:30:00 PM 3.54 38.372 0.172 7.34 8.08 12.82
1/2/2023 12:45:00 PM 3.64 38.552 0.176 7.35 7.46 12.81
1/2/2023 1:00:00 PM 3.73 38.714 0.173 7.35 7.12 12.84
1/2/2023 1:15:00 PM 3.8 38.84 0.172 7.36 7.87 12.83
1/2/2023 1:30:00 PM 3.9 39.02 0.174 7.36 9.21 12.8
1/2/2023 1:45:00 PM 3.96 39.128 0.174 7.36 7.54 12.8
1/2/2023 2:00:00 PM 4.03 39.254 0.177 7.36 7.47 12.76
1/2/2023 2:15:00 PM 4.07 39.326 0.176 7.37 6.7 12.73
1/2/2023 2:30:00 PM 4.13 39.434 0.177 7.37 8.83 12.7
1/2/2023 2:45:00 PM 4.17 39.506 0.18 7.37 7.19 12.67
1/2/2023 3:00:00 PM 4.22 39.596 0.178 7.37 7.5 12.67
1/2/2023 3:15:00 PM 4.27 39.686 0.179 7.37 7.39 12.68
1/2/2023 3:30:00 PM 4.3 39.74 0.182 7.37 7.15 12.6
1/2/2023 3:45:00 PM 4.32 39.776 0.18 7.37 7.38 12.58
1/2/2023 4:00:00 PM 4.33 39.794 0.18 7.37 7.88 12.55
1/2/2023 4:15:00 PM 4.31 39.758 0.18 7.37 7.71 12.54
1/2/2023 4:30:00 PM 4.32 39.776 0.183 7.37 7.63 12.5
1/2/2023 4:45:00 PM 4.27 39.686 0.178 7.36 7.47 12.43
1/2/2023 5:00:00 PM 4.23 39.614 0.182 7.36 7.03 12.44
1/2/2023 5:15:00 PM 4.21 39.578 0.179 7.35 7.32 12.38
1/2/2023 5:30:00 PM 4.18 39.524 0.179 7.35 6.75 12.37
1/2/2023 5:45:00 PM 4.13 39.434 0.176 7.35 7.55 12.33
1/2/2023 6:00:00 PM 4.12 39.416 0.179 7.34 7.81 12.32
1/2/2023 6:15:00 PM 4.06 39.308 0.177 7.34 7.54 12.3
1/2/2023 6:30:00 PM 4.03 39.254 0.177 7.33 7.98 12.28
1/2/2023 6:45:00 PM 4 39.2 0.179 7.33 8.11 12.28
1/2/2023 7:00:00 PM 3.96 39.128 0.176 7.32 8.04 12.22
1/2/2023 7:15:00 PM 3.93 39.074 0.18 7.32 8.39 12.22
1/2/2023 7:30:00 PM 3.88 38.984 0.178 7.32 8.24 12.22
1/2/2023 7:45:00 PM 3.84 38.912 0.176 7.31 8.51 12.19
1/2/2023 8:00:00 PM 3.81 38.858 0.178 7.31 8.37 12.21
1/2/2023 8:15:00 PM 3.77 38.786 0.179 7.31 8.78 12.16
1/2/2023 8:30:00 PM 3.74 38.732 0.176 7.31 8.79 12.2
1/2/2023 8:45:00 PM 3.7 38.66 0.177 7.3 8.77 12.21
1/2/2023 9:00:00 PM 3.63 38.534 0.176 7.3 8.54 12.2
1/2/2023 9:15:00 PM 3.61 38.498 0.178 7.3 8.73 12.2
1/2/2023 9:30:00 PM 3.55 38.39 0.177 7.3 8.99 12.23
1/2/2023 9:45:00 PM 3.5 38.3 0.176 7.3 9.07 12.22
1/2/2023 10:00:00 PM 3.45 38.21 0.176 7.29 8.89 12.22
1/2/2023 10:15:00 PM 3.42 38.156 0.177 7.29 9.22 12.24
1/2/2023 10:30:00 PM 3.38 38.084 0.176 7.29 8.96 12.25
1/2/2023 10:45:00 PM 3.34 38.012 0.175 7.29 8.62 12.21
1/2/2023 11:00:00 PM 3.34 38.012 0.179 7.29 8.3 12.2
1/2/2023 11:15:00 PM 3.3 37.94 0.177 7.29 8.52 12.24
1/2/2023 11:30:00 PM 3.27 37.886 0.176 7.29 8.5 12.26
1/2/2023 11:45:00 PM 3.27 37.886 0.174 7.29 8.93 12.25
1/3/2023 12:00:00 AM 3.25 37.85 0.179 7.29 8.04 12.22
1/3/2023 12:15:00 AM 3.24 37.832 0.176 7.29 8.25 12.25
1/3/2023 12:30:00 AM 3.22 37.796 0.176 7.29 8.42 12.24
1/3/2023 12:45:00 AM 3.24 37.832 0.18 7.29 8.17 12.26
1/3/2023 1:00:00 AM 3.23 37.814 0.18 7.29 8.13 12.25
1/3/2023 1:15:00 AM 3.17 37.706 0.177 7.29 8.05 12.26
1/3/2023 1:30:00 AM 3.17 37.706 0.176 7.29 7.77 12.23
1/3/2023 1:45:00 AM 3.16 37.688 0.176 7.29 8.05 12.27
1/3/2023 2:00:00 AM 3.18 37.724 0.178 7.29 7.81 12.25
1/3/2023 2:15:00 AM 3.16 37.688 0.178 7.29 7.98 12.27
1/3/2023 2:30:00 AM 3.16 37.688 0.177 7.29 7.8 12.24
1/3/2023 2:45:00 AM 3.16 37.688 0.179 7.29 7.4 12.26
1/3/2023 3:00:00 AM 3.19 37.742 0.187 7.29 7.59 12.22
1/3/2023 3:15:00 AM 3.17 37.706 0.181 7.29 7.61 12.24
1/3/2023 3:30:00 AM 3.17 37.706 0.179 7.29 7.29 12.23
1/3/2023 3:45:00 AM 3.19 37.742 0.184 7.29 7.25 12.23
1/3/2023 4:00:00 AM 3.18 37.724 0.183 7.29 7.34 12.25
1/3/2023 4:15:00 AM 3.19 37.742 0.181 7.29 7.18 12.23
1/3/2023 4:30:00 AM 3.19 37.742 0.182 7.29 7.22 12.16
1/3/2023 4:45:00 AM 3.17 37.706 0.178 7.29 7.61 12.19
1/3/2023 5:00:00 AM 3.18 37.724 0.18 7.3 7.18 12.22
1/3/2023 5:15:00 AM 3.19 37.742 0.182 7.3 7.38 12.16
1/3/2023 5:30:00 AM 3.2 37.76 0.183 7.3 7.53 12.17
1/3/2023 5:45:00 AM 3.21 37.778 0.184 7.3 7.33 12.16
1/3/2023 6:00:00 AM 3.26 37.868 0.185 7.3 7.53 12.22
1/3/2023 6:15:00 AM 3.21 37.778 0.179 7.3 7.41 12.22
1/3/2023 6:30:00 AM 3.2 37.76 0.18 7.3 7.66 12.21
1/3/2023 6:45:00 AM 3.2 37.76 0.177 7.3 7.66 12.24
1/3/2023 7:00:00 AM 3.19 37.742 0.176 7.3 7.54 12.24
1/3/2023 7:15:00 AM 3.21 37.778 0.177 7.31 7.62 12.24
1/3/2023 7:30:00 AM 3.21 37.778 0.177 7.31 7.18 12.24
1/3/2023 7:45:00 AM 3.21 37.778 0.177 7.31 7.6 12.23
1/3/2023 8:00:00 AM 3.25 37.85 0.181 7.31 7.41 12.22
1/3/2023 8:15:00 AM 3.25 37.85 0.181 7.31 7.43 12.22
1/3/2023 8:30:00 AM 3.28 37.904 0.183 7.32 7.19 12.16
1/3/2023 8:45:00 AM 3.26 37.868 0.188 7.32 7.33 12.21
1/3/2023 9:00:00 AM 3.27 37.886 0.184 7.32 7.82 12.2
1/3/2023 9:15:00 AM 3.27 37.886 0.185 7.33 7.57 12.18
1/3/2023 9:30:00 AM 3.27 37.886 0.187 7.33 7.32 12.21
1/3/2023 9:45:00 AM 3.32 37.976 0.19 7.34 7.21 12.23
1/3/2023 10:00:00 AM 3.31 37.958 0.189 7.34 7.51 12.23
1/3/2023 10:15:00 AM 3.33 37.994 0.191 7.35 7.4 12.24
1/3/2023 10:30:00 AM 3.37 38.066 0.202 7.35 9.2 12.24
1/3/2023 10:45:00 AM 3.41 38.138 0.206 7.36 9.72 12.26
1/3/2023 11:00:00 AM 3.37 38.066 0.203 7.36 19.37 12.23
1/3/2023 11:15:00 AM 3.4 38.12 0.205 7.35 38.42 12.19
1/3/2023 11:30:00 AM 3.43 38.174 0.208 7.34 51.88 12.16
1/3/2023 11:45:00 AM 3.47 38.246 0.208 7.33 83.73 12.08
1/3/2023 12:00:00 PM 3.49 38.282 0.206 7.32 117.95 12.04
1/3/2023 12:15:00 PM 3.54 38.372 0.21 7.32 115.46 12.04
1/3/2023 12:30:00 PM 3.57 38.426 0.21 7.32 118.34 11.99
1/3/2023 12:45:00 PM 3.57 38.426 0.209 7.32 103.49 12.03
1/3/2023 1:00:00 PM 3.61 38.498 0.208 7.33 80.57 12.04
1/3/2023 1:15:00 PM 3.64 38.552 0.209 7.34 58.15 12.07
1/3/2023 1:30:00 PM 3.7 38.66 0.209 7.35 38.48 12.14
1/3/2023 1:45:00 PM 3.72 38.696 0.209 7.36 28.84 12.22
1/3/2023 2:00:00 PM 3.75 38.75 0.209 7.36 23.06 12.21
1/3/2023 2:15:00 PM 3.77 38.786 0.213 7.36 20.41 12.25
1/3/2023 2:30:00 PM 3.78 38.804 0.218 7.37 16.46 12.26
1/3/2023 2:45:00 PM 3.77 38.786 0.217 7.37 17.13 12.3
1/3/2023 3:00:00 PM 3.8 38.84 0.215 7.36 18.51 12.27
1/3/2023 3:15:00 PM 3.77 38.786 0.206 7.37 23.81 12.27
1/3/2023 3:30:00 PM 3.76 38.768 0.2 7.36 22.17 12.3
1/3/2023 3:45:00 PM 3.73 38.714 0.193 7.36 23.96 12.33
1/3/2023 4:00:00 PM 3.71 38.678 0.184 7.35 25.31 12.31
1/3/2023 4:15:00 PM 3.65 38.57 0.174 7.35 28.9 12.35
1/3/2023 4:30:00 PM 3.62 38.516 0.169 7.34 29.35 12.38
1/3/2023 4:45:00 PM 3.57 38.426 0.164 7.33 36.79 12.42
1/3/2023 5:00:00 PM 3.52 38.336 0.156 7.32 24.66 12.43
1/3/2023 5:15:00 PM 3.5 38.3 0.152 7.31 47.73 12.43
1/3/2023 5:30:00 PM 3.47 38.246 0.147 7.3 31.08 12.42
1/3/2023 5:45:00 PM 3.43 38.174 0.143 7.29 39.58 12.44
1/3/2023 6:00:00 PM 3.4 38.12 0.14 7.28 37.07 12.47
1/3/2023 6:15:00 PM 3.38 38.084 0.14 7.27 36.64 12.48
1/3/2023 6:30:00 PM 3.34 38.012 0.135 7.26 45.46 12.46
1/3/2023 6:45:00 PM 3.33 37.994 0.135 7.24 43.26 12.48
1/3/2023 7:00:00 PM 3.28 37.904 0.131 7.23 35.87 12.5
1/3/2023 7:15:00 PM 3.3 37.94 0.131 7.22 30.52 12.48
1/3/2023 7:30:00 PM 3.26 37.868 0.129 7.22 27.42 12.49
1/3/2023 7:45:00 PM 3.24 37.832 0.127 7.21 30.84 12.5
1/3/2023 8:00:00 PM 3.25 37.85 0.126 7.2 33.85 12.46
1/3/2023 8:15:00 PM 3.25 37.85 0.125 7.2 30.67 12.47
1/3/2023 8:30:00 PM 3.24 37.832 0.124 7.19 49.52 12.48
1/3/2023 8:45:00 PM 3.27 37.886 0.125 7.18 29.05 12.46
1/3/2023 9:00:00 PM 3.26 37.868 0.123 7.18 40.08 12.45
1/3/2023 9:15:00 PM 3.27 37.886 0.123 7.18 50.3 12.45
1/3/2023 9:30:00 PM 3.27 37.886 0.122 7.17 30.75 12.43
1/3/2023 9:45:00 PM 3.27 37.886 0.122 7.17 30.02 12.44
1/3/2023 10:00:00 PM 3.27 37.886 0.121 7.16 28.98 12.43
1/3/2023 10:15:00 PM 3.3 37.94 0.123 7.16 35.1 12.41
1/3/2023 10:30:00 PM 3.3 37.94 0.122 7.16 32.38 12.43
1/3/2023 10:45:00 PM 3.32 37.976 0.121 7.15 26.85 12.39
1/3/2023 11:00:00 PM 3.31 37.958 0.12 7.15 36.54 12.41
1/3/2023 11:15:00 PM 3.32 37.976 0.12 7.15 39.43 12.4
1/3/2023 11:30:00 PM 3.32 37.976 0.118 7.15 33.47 12.38
1/3/2023 11:45:00 PM 3.32 37.976 0.118 7.15 30.71 12.4
1/4/2023 12:00:00 AM 3.35 38.03 0.119 7.14 29.9 12.38
1/4/2023 12:15:00 AM 3.39 38.102 0.12 7.13 78.08 12.35
1/4/2023 12:30:00 AM 3.38 38.084 0.115 7.14 31.46 12.35
1/4/2023 12:45:00 AM 3.42 38.156 0.121 7.13 26.98 12.31
1/4/2023 1:00:00 AM 3.41 38.138 0.119 7.13 31.7 12.34
1/4/2023 1:15:00 AM 3.44 38.192 0.121 7.14 33.3 12.32
1/4/2023 1:30:00 AM 3.49 38.282 0.122 7.13 20.99 12.27
1/4/2023 1:45:00 AM 3.48 38.264 0.12 7.13 22.58 12.27
1/4/2023 2:00:00 AM 3.51 38.318 0.121 7.14 33.27 12.25
1/4/2023 2:15:00 AM 3.5 38.3 0.12 7.14 30.29 12.27
1/4/2023 2:30:00 AM 3.54 38.372 0.122 7.13 20.6 12.23
1/4/2023 2:45:00 AM 3.59 38.462 0.124 7.13 25.16 12.19
1/4/2023 3:00:00 AM 3.59 38.462 0.124 7.14 19 12.18
1/4/2023 3:15:00 AM 3.64 38.552 0.127 7.13 23.18 12.16
1/4/2023 3:30:00 AM 3.61 38.498 0.124 7.14 20.8 12.17
1/4/2023 3:45:00 AM 3.67 38.606 0.128 7.14 21.11 12.13
1/4/2023 4:00:00 AM 3.69 38.642 0.13 7.14 21.36 12.11
1/4/2023 4:15:00 AM 3.69 38.642 0.129 7.14 20.04 12.12
1/4/2023 4:30:00 AM 3.69 38.642 0.127 7.15 20.06 12.11
1/4/2023 4:45:00 AM 3.74 38.732 0.133 7.14 18.41 12.07
1/4/2023 5:00:00 AM 3.76 38.768 0.134 7.15 24.71 12.09
1/4/2023 5:15:00 AM 3.74 38.732 0.131 7.15 23.26 12.09
1/4/2023 5:30:00 AM 3.77 38.786 0.133 7.16 17.8 12.01
1/4/2023 5:45:00 AM 3.78 38.804 0.133 7.16 16.76 12.04
1/4/2023 6:00:00 AM 3.81 38.858 0.135 7.16 16.61 11.97
1/4/2023 6:15:00 AM 3.84 38.912 0.135 7.16 18.51 11.96
1/4/2023 6:30:00 AM 3.89 39.002 0.14 7.16 15.71 11.98
1/4/2023 6:45:00 AM 3.88 38.984 0.138 7.17 17.67 11.94
1/4/2023 7:00:00 AM 3.9 39.02 0.137 7.17 18.94 11.94
1/4/2023 7:15:00 AM 3.93 39.074 0.142 7.17 16.72 11.95
1/4/2023 7:30:00 AM 3.97 39.146 0.142 7.17 17.92 11.91
1/4/2023 7:45:00 AM 3.98 39.164 0.144 7.18 16.94 11.94
1/4/2023 8:00:00 AM 4.07 39.326 0.149 7.18 15.01 11.88
1/4/2023 8:15:00 AM 4 39.2 0.143 7.19 17.46 11.86
1/4/2023 8:30:00 AM 4.03 39.254 0.146 7.19 14.99 11.93
1/4/2023 8:45:00 AM 4.03 39.254 0.147 7.2 16.62 11.93
1/4/2023 9:00:00 AM 4.06 39.308 0.147 7.2 13.85 11.94
1/4/2023 9:15:00 AM 4.07 39.326 0.146 7.21 15.5 11.97
1/4/2023 9:30:00 AM 4.11 39.398 0.146 7.21 13.78 11.95
1/4/2023 9:45:00 AM 4.16 39.488 0.152 7.21 13.35 11.97
1/4/2023 10:00:00 AM 4.18 39.524 0.148 7.22 12.61 12
1/4/2023 10:15:00 AM 4.22 39.596 0.149 7.23 12.65 12.05
1/4/2023 10:30:00 AM 4.24 39.632 0.148 7.24 12.62 12.08
1/4/2023 10:45:00 AM 4.31 39.758 0.15 7.24 12.27 12.08
1/4/2023 11:00:00 AM 4.36 39.848 0.15 7.25 12.61 12.09
1/4/2023 11:15:00 AM 4.41 39.938 0.15 7.25 12.61 12.12
1/4/2023 11:30:00 AM 4.47 40.046 0.152 7.26 11.63 12.12
1/4/2023 11:45:00 AM 4.51 40.118 0.151 7.26 11.46 12.14
1/4/2023 12:00:00 PM 4.57 40.226 0.153 7.27 11.61 12.14
1/4/2023 12:15:00 PM 4.61 40.298 0.154 7.27 11.23 12.15
1/4/2023 12:30:00 PM 4.66 40.388 0.154 7.28 10.25 12.17
1/4/2023 12:45:00 PM 4.71 40.478 0.154 7.29 11.23 12.14
1/4/2023 1:00:00 PM 4.77 40.586 0.156 7.29 10.99 12.17
1/4/2023 1:15:00 PM 4.81 40.658 0.156 7.29 10.11 12.17
1/4/2023 1:30:00 PM 4.85 40.73 0.156 7.3 12.43 12.17
1/4/2023 1:45:00 PM 4.87 40.766 0.156 7.3 10.62 12.16
1/4/2023 2:00:00 PM 4.92 40.856 0.159 7.3 10.89 12.12
1/4/2023 2:15:00 PM 4.93 40.874 0.157 7.3 9.89 12.11
1/4/2023 2:30:00 PM 4.97 40.946 0.158 7.3 9.72 12.07
1/4/2023 2:45:00 PM 4.99 40.982 0.158 7.3 10.29 12.04
1/4/2023 3:00:00 PM 5.02 41.036 0.158 7.3 9.51 12.01
1/4/2023 3:15:00 PM 5.04 41.072 0.158 7.3 10.46 11.97
1/4/2023 3:30:00 PM 5.05 41.09 0.159 7.3 9.36 11.97
1/4/2023 3:45:00 PM 5.06 41.108 0.159 7.3 9.97 11.94
1/4/2023 4:00:00 PM 5.08 41.144 0.16 7.3 9.6 11.91
1/4/2023 4:15:00 PM 5.1 41.18 0.162 7.29 9.71 11.86
1/4/2023 4:30:00 PM 5.11 41.198 0.162 7.29 10.24 11.83
1/4/2023 4:45:00 PM 5.13 41.234 0.163 7.29 9.48 11.81
1/4/2023 5:00:00 PM 5.14 41.252 0.163 7.29 10.43 11.79
1/4/2023 5:15:00 PM 5.15 41.27 0.163 7.29 9.15 11.77
1/4/2023 5:30:00 PM 5.16 41.288 0.165 7.29 9.42 11.74
1/4/2023 5:45:00 PM 5.17 41.306 0.164 7.28 9.62 11.71
1/4/2023 6:00:00 PM 5.19 41.342 0.165 7.28 10.33 11.69
1/4/2023 6:15:00 PM 5.2 41.36 0.165 7.28 10.35 11.67
1/4/2023 6:30:00 PM 5.21 41.378 0.165 7.28 10.07 11.66
1/4/2023 6:45:00 PM 5.22 41.396 0.165 7.28 9.54 11.63
1/4/2023 7:00:00 PM 5.23 41.414 0.166 7.28 9.81 11.61
1/4/2023 7:15:00 PM 5.23 41.414 0.166 7.28 9.59 11.6
1/4/2023 7:30:00 PM 5.24 41.432 0.165 7.27 9.62 11.57
1/4/2023 7:45:00 PM 5.24 41.432 0.166 7.27 10.16 11.57
1/4/2023 8:00:00 PM 5.26 41.468 0.167 7.27 11.4 11.55
1/4/2023 8:15:00 PM 5.28 41.504 0.169 7.27 9.63 11.51
1/4/2023 8:30:00 PM 5.29 41.522 0.167 7.27 9.92 11.5
1/4/2023 8:45:00 PM 5.3 41.54 0.167 7.26 9.72 11.5
1/4/2023 9:00:00 PM 5.31 41.558 0.166 7.27 10.34 11.49
1/4/2023 9:15:00 PM 5.31 41.558 0.167 7.27 9.72 11.5
1/4/2023 9:30:00 PM 5.31 41.558 0.167 7.26 10.56 11.46
1/4/2023 9:45:00 PM 5.32 41.576 0.167 7.26 10.19 11.46
1/4/2023 10:00:00 PM 5.32 41.576 0.169 7.26 10.09 11.45
1/4/2023 10:15:00 PM 5.32 41.576 0.167 7.27 11.03 11.48
1/4/2023 10:30:00 PM 5.32 41.576 0.167 7.26 10.78 11.4
1/4/2023 10:45:00 PM 5.35 41.63 0.168 7.26 11.08 11.42
1/4/2023 11:00:00 PM 5.33 41.594 0.164 7.26 48.92 11.43
1/4/2023 11:15:00 PM 5.34 41.612 0.168 7.26 11.36 11.45
1/4/2023 11:30:00 PM 5.34 41.612 0.165 7.26 10.6 11.45
1/4/2023 11:45:00 PM 5.33 41.594 0.163 7.26 10.43 11.45
1/5/2023 12:00:00 AM 5.34 41.612 0.162 7.26 10.69 11.42
1/5/2023 12:15:00 AM 5.35 41.63 0.162 7.25 10.51 11.43
1/5/2023 12:30:00 AM 5.36 41.648 0.161 7.25 10.29 11.44
1/5/2023 12:45:00 AM 5.38 41.684 0.162 7.25 11.82 11.42
1/5/2023 1:00:00 AM 5.42 41.756 0.167 7.25 10.85 11.42
1/5/2023 1:15:00 AM 5.41 41.738 0.161 7.24 11 11.41
1/5/2023 1:30:00 AM 5.4 41.72 0.159 7.25 11.05 11.38
1/5/2023 1:45:00 AM 5.38 41.684 0.159 7.25 11.85 11.4
1/5/2023 2:00:00 AM 5.39 41.702 0.163 7.25 10.89 11.45
1/5/2023 2:15:00 AM 5.34 41.612 0.158 7.25 11.3 11.37
1/5/2023 2:30:00 AM 5.36 41.648 0.162 7.25 11.24 11.4
1/5/2023 2:45:00 AM 5.32 41.576 0.158 7.25 11.96 11.37
1/5/2023 3:00:00 AM 5.3 41.54 0.158 7.24 10.91 11.38
1/5/2023 3:15:00 AM 5.27 41.486 0.156 7.25 11.42 11.39
1/5/2023 3:30:00 AM 5.25 41.45 0.157 7.24 10.84 11.33
1/5/2023 3:45:00 AM 5.21 41.378 0.156 7.25 11.05 11.41
1/5/2023 4:00:00 AM 5.17 41.306 0.156 7.25 10.82 11.47
1/5/2023 4:15:00 AM 5.14 41.252 0.156 7.25 10.91 11.44
1/5/2023 4:30:00 AM 5.11 41.198 0.155 7.25 11.04 11.49
1/5/2023 4:45:00 AM 5.1 41.18 0.158 7.25 10.84 11.44
1/5/2023 5:00:00 AM 5.06 41.108 0.156 7.25 11.29 11.49
1/5/2023 5:15:00 AM 5.05 41.09 0.156 7.26 11.15 11.47
1/5/2023 5:30:00 AM 5.04 41.072 0.154 7.25 252.02 11.5
1/5/2023 5:45:00 AM 5.01 41.018 0.151 7.24 13.19 11.52
1/5/2023 6:00:00 AM 5 41 0.15 7.23 12.05 11.49
1/5/2023 6:15:00 AM 4.97 40.946 0.15 7.2 11.97 11.54
1/5/2023 6:30:00 AM 4.96 40.928 0.152 7.23 12.59 11.48
1/5/2023 6:45:00 AM 4.92 40.856 0.154 7.23 11.05 11.51
1/5/2023 7:00:00 AM 4.89 40.802 0.157 7.23 10.75 11.54
1/5/2023 7:15:00 AM 4.88 40.784 0.159 7.25 10.34 11.52
1/5/2023 7:30:00 AM 4.9 40.82 0.165 7.25 10.32 11.53
1/5/2023 7:45:00 AM 4.86 40.748 0.163 7.26 9.9 11.53
1/5/2023 8:00:00 AM 4.84 40.712 0.164 7.26 10.51 11.55
1/5/2023 8:15:00 AM 4.84 40.712 0.164 7.26 10.38 11.5
1/5/2023 8:30:00 AM 4.82 40.676 0.163 7.27 10.32 11.62
1/5/2023 8:45:00 AM 4.81 40.658 0.164 7.27 9.56 11.6
1/5/2023 9:00:00 AM 4.79 40.622 0.163 7.27 10.65 11.68
1/5/2023 9:15:00 AM 4.78 40.604 0.163 7.28 9.65 11.68
1/5/2023 9:30:00 AM 4.78 40.604 0.162 7.28 9.18 11.73
1/5/2023 9:45:00 AM 4.8 40.64 0.163 7.28 10.01 11.74
1/5/2023 10:00:00 AM 4.81 40.658 0.163 7.28 9.54 11.79
1/5/2023 10:15:00 AM 4.83 40.694 0.162 7.29 9.17 11.79
1/5/2023 10:30:00 AM 4.86 40.748 0.163 7.29 8.86 11.84
1/5/2023 10:45:00 AM 4.89 40.802 0.162 7.3 9.23 11.9
1/5/2023 11:00:00 AM 4.95 40.91 0.163 7.31 8.84 11.93
1/5/2023 11:15:00 AM 5 41 0.163 7.31 9.27 11.95
1/5/2023 11:30:00 AM 5.05 41.09 0.163 7.32 9.24 11.99
1/5/2023 11:45:00 AM 5.1 41.18 0.164 7.32 8.82 12.01
1/5/2023 12:00:00 PM 5.16 41.288 0.163 7.33 8.6 12.03
1/5/2023 12:15:00 PM 5.22 41.396 0.163 7.33 8.35 12.05
1/5/2023 12:30:00 PM 5.29 41.522 0.164 7.34 8.33 12.05
1/5/2023 12:45:00 PM 5.36 41.648 0.165 7.34 8.56 12.08
1/5/2023 1:00:00 PM 5.43 41.774 0.166 7.35 8.1 12.08
1/5/2023 1:15:00 PM 5.48 41.864 0.165 7.35 8.13 12.1
1/5/2023 1:30:00 PM 5.53 41.954 0.166 7.36 8.55 12.09
1/5/2023 1:45:00 PM 5.57 42.026 0.167 7.36 8.31 12.09
1/5/2023 2:00:00 PM 5.6 42.08 0.168 7.36 7.91 12.08
1/5/2023 2:15:00 PM 5.65 42.17 0.167 7.37 8.28 12.08
1/5/2023 2:30:00 PM 5.69 42.242 0.168 7.37 7.78 12.07
1/5/2023 2:45:00 PM 5.73 42.314 0.168 7.38 7.85 12.06
1/5/2023 3:00:00 PM 5.78 42.404 0.169 7.38 7.61 12.05
1/5/2023 3:15:00 PM 5.8 42.44 0.169 7.38 7.94 12.04
1/5/2023 3:30:00 PM 5.82 42.476 0.17 7.38 7.96 12.02
1/5/2023 3:45:00 PM 5.83 42.494 0.17 7.38 8.48 11.97
1/5/2023 4:00:00 PM 5.84 42.512 0.171 7.38 8.11 11.96
1/5/2023 4:15:00 PM 5.84 42.512 0.171 7.38 7.79 11.92
1/5/2023 4:30:00 PM 5.85 42.53 0.172 7.38 8.01 11.88
1/5/2023 4:45:00 PM 5.84 42.512 0.172 7.38 7.75 11.85
1/5/2023 5:00:00 PM 5.83 42.494 0.172 7.37 7.9 11.81
1/5/2023 5:15:00 PM 5.82 42.476 0.173 7.37 7.47 11.74
1/5/2023 5:30:00 PM 5.81 42.458 0.173 7.37 8.15 11.72
1/5/2023 5:45:00 PM 5.8 42.44 0.174 7.36 7.92 11.68
1/5/2023 6:00:00 PM 5.79 42.422 0.174 7.36 7.72 11.66
1/5/2023 6:15:00 PM 5.77 42.386 0.175 7.35 7.72 11.63
1/5/2023 6:30:00 PM 5.74 42.332 0.176 7.35 8.11 11.6
1/5/2023 6:45:00 PM 5.72 42.296 0.176 7.35 7.88 11.57
1/5/2023 7:00:00 PM 5.7 42.26 0.178 7.35 7.76 11.55
1/5/2023 7:15:00 PM 5.67 42.206 0.178 7.35 8.11 11.54
1/5/2023 7:30:00 PM 5.64 42.152 0.178 7.34 7.93 11.51
1/5/2023 7:45:00 PM 5.6 42.08 0.179 7.34 7.58 11.49
1/5/2023 8:00:00 PM 5.57 42.026 0.18 7.34 7.93 11.5
1/5/2023 8:15:00 PM 5.53 41.954 0.18 7.34 7.99 11.49
1/5/2023 8:30:00 PM 5.49 41.882 0.18 7.34 8.14 11.48
1/5/2023 8:45:00 PM 5.44 41.792 0.181 7.34 8.14 11.48
1/5/2023 9:00:00 PM 5.4 41.72 0.182 7.33 7.99 11.47
1/5/2023 9:15:00 PM 5.36 41.648 0.182 7.33 8.08 11.46
1/5/2023 9:30:00 PM 5.31 41.558 0.182 7.33 7.81 11.47
1/5/2023 9:45:00 PM 5.26 41.468 0.181 7.33 7.72 11.48
1/5/2023 10:00:00 PM 5.22 41.396 0.183 7.33 8.1 11.47
1/5/2023 10:15:00 PM 5.16 41.288 0.182 7.33 8.23 11.47
1/5/2023 10:30:00 PM 5.11 41.198 0.183 7.33 8.14 11.47
1/5/2023 10:45:00 PM 5.06 41.108 0.183 7.33 7.73 11.47
1/5/2023 11:00:00 PM 5.03 41.054 0.185 7.32 7.84 11.48
1/5/2023 11:15:00 PM 4.97 40.946 0.184 7.32 8.43 11.48
1/5/2023 11:30:00 PM 4.92 40.856 0.184 7.32 8.65 11.49
1/5/2023 11:45:00 PM 4.88 40.784 0.185 7.32 7.66 11.5
1/6/2023 12:00:00 AM 4.84 40.712 0.185 7.32 8.66 11.5
1/6/2023 12:15:00 AM 4.8 40.64 0.185 7.32 7.88 11.52
1/6/2023 12:30:00 AM 4.76 40.568 0.186 7.32 7.86 11.53
1/6/2023 12:45:00 AM 4.72 40.496 0.186 7.32 7.81 11.53
1/6/2023 1:00:00 AM 4.68 40.424 0.186 7.32 7.62 11.54
1/6/2023 1:15:00 AM 4.64 40.352 0.186 7.32 8.05 11.55
1/6/2023 1:30:00 AM 4.61 40.298 0.187 7.32 7.78 11.56
1/6/2023 1:45:00 AM 4.57 40.226 0.187 7.32 8.09 11.55
1/6/2023 2:00:00 AM 4.54 40.172 0.188 7.32 7.65 11.56
1/6/2023 2:15:00 AM 4.51 40.118 0.188 7.32 7.8 11.58
1/6/2023 2:30:00 AM 4.48 40.064 0.188 7.32 7.66 11.58
1/6/2023 2:45:00 AM 4.45 40.01 0.188 7.32 7.52 11.6
1/6/2023 3:00:00 AM 4.43 39.974 0.189 7.32 7.7 11.6
1/6/2023 3:15:00 AM 4.4 39.92 0.189 7.32 7.86 11.61
1/6/2023 3:30:00 AM 4.37 39.866 0.189 7.32 7.61 11.62
1/6/2023 3:45:00 AM 4.36 39.848 0.19 7.32 7.52 11.62
1/6/2023 4:00:00 AM 4.33 39.794 0.19 7.32 7.8 11.62
1/6/2023 4:15:00 AM 4.32 39.776 0.19 7.32 7.61 11.63
1/6/2023 4:30:00 AM 4.29 39.722 0.19 7.32 8.06 11.64
1/6/2023 4:45:00 AM 4.28 39.704 0.19 7.32 7.56 11.65
1/6/2023 5:00:00 AM 4.28 39.704 0.192 7.32 7.68 11.64
1/6/2023 5:15:00 AM 4.25 39.65 0.191 7.32 7.32 11.65
1/6/2023 5:30:00 AM 4.24 39.632 0.191 7.32 7.17 11.65
1/6/2023 5:45:00 AM 4.23 39.614 0.191 7.33 7.2 11.66
1/6/2023 6:00:00 AM 4.2 39.56 0.192 7.33 7.79 11.66
1/6/2023 6:15:00 AM 4.18 39.524 0.192 7.33 7.28 11.67
1/6/2023 6:30:00 AM 4.16 39.488 0.192 7.33 7.11 11.68
1/6/2023 6:45:00 AM 4.14 39.452 0.193 7.33 6.97 11.68
1/6/2023 7:00:00 AM 4.13 39.434 0.194 7.33 7.23 11.69
1/6/2023 7:15:00 AM 4.11 39.398 0.194 7.33 6.91 11.68
1/6/2023 7:30:00 AM 4.1 39.38 0.194 7.33 7.14 11.69
1/6/2023 7:45:00 AM 4.1 39.38 0.194 7.33 7.53 11.7
1/6/2023 8:00:00 AM 4.08 39.344 0.194 7.33 7.71 11.71
1/6/2023 8:15:00 AM 4.08 39.344 0.195 7.33 7.56 11.72
1/6/2023 8:30:00 AM 4.08 39.344 0.195 7.33 8.02 11.74
1/6/2023 8:45:00 AM 4.08 39.344 0.196 7.34 6.54 11.73
1/6/2023 9:00:00 AM 4.08 39.344 0.196 7.34 6.73 11.76
1/6/2023 9:15:00 AM 4.08 39.344 0.196 7.34 6.8 11.79
1/6/2023 9:30:00 AM 4.09 39.362 0.196 7.34 6.88 11.83
1/6/2023 9:45:00 AM 4.09 39.362 0.197 7.35 6.8 11.84
1/6/2023 10:00:00 AM 4.08 39.344 0.196 7.35 6.44 11.85
1/6/2023 10:15:00 AM 4.07 39.326 0.196 7.35 6.49 11.89
1/6/2023 10:30:00 AM 4.06 39.308 0.196 7.36 6.6 11.9
1/6/2023 10:45:00 AM 4.07 39.326 0.197 7.36 6.79 11.94
1/6/2023 11:00:00 AM 4.1 39.38 0.197 7.37 6.25 11.99
1/6/2023 11:15:00 AM 4.11 39.398 0.197 7.37 6.25 12.01
1/6/2023 11:30:00 AM 4.15 39.47 0.207 7.37 6.23 12.04
1/6/2023 11:45:00 AM 4.18 39.524 0.215 7.38 6.25 12.07
1/6/2023 12:00:00 PM 4.2 39.56 0.217 7.38 6.42 12.09
1/6/2023 12:15:00 PM 4.22 39.596 0.216 7.39 6.13 12.12
1/6/2023 12:30:00 PM 4.24 39.632 0.216 7.39 6.51 12.14
1/6/2023 12:45:00 PM 4.28 39.704 0.217 7.4 6.12 12.17
1/6/2023 1:00:00 PM 4.32 39.776 0.216 7.4 6.2 12.19
1/6/2023 1:15:00 PM 4.34 39.812 0.215 7.41 6.08 12.21
1/6/2023 1:30:00 PM 4.37 39.866 0.216 7.41 6.27 12.22
1/6/2023 1:45:00 PM 4.41 39.938 0.215 7.41 5.67 12.24
1/6/2023 2:00:00 PM 4.42 39.956 0.215 7.42 5.87 12.24
1/6/2023 2:15:00 PM 4.44 39.992 0.215 7.42 5.71 12.25
1/6/2023 2:30:00 PM 4.47 40.046 0.214 7.42 5.71 12.28
1/6/2023 2:45:00 PM 4.49 40.082 0.214 7.43 6.23 12.29
1/6/2023 3:00:00 PM 4.51 40.118 0.214 7.43 5.73 12.28
1/6/2023 3:15:00 PM 4.51 40.118 0.213 7.43 5.68 12.25
1/6/2023 3:30:00 PM 4.52 40.136 0.214 7.43 5.9 12.24
1/6/2023 3:45:00 PM 4.51 40.118 0.214 7.43 6.01 12.2
1/6/2023 4:00:00 PM 4.5 40.1 0.215 7.42 5.81 12.19
1/6/2023 4:15:00 PM 4.49 40.082 0.216 7.42 5.78 12.16
1/6/2023 4:30:00 PM 4.48 40.064 0.216 7.42 6.21 12.15
1/6/2023 4:45:00 PM 4.47 40.046 0.217 7.41 6.13 11.91
1/6/2023 5:00:00 PM 4.47 40.046 0.217 7.41 5.99 12.09
1/6/2023 5:15:00 PM 4.46 40.028 0.218 7.41 6.03 12.08
1/6/2023 5:30:00 PM 4.44 39.992 0.217 7.4 6.2 12.04
1/6/2023 5:45:00 PM 4.42 39.956 0.214 7.4 6.33 12.02
1/6/2023 6:00:00 PM 4.39 39.902 0.211 7.39 6.17 12.01
1/6/2023 6:15:00 PM 4.37 39.866 0.209 7.39 6.41 12
1/6/2023 6:30:00 PM 4.35 39.83 0.208 7.38 6.34 11.98
1/6/2023 6:45:00 PM 4.33 39.794 0.206 7.38 6.4 11.97
1/6/2023 7:00:00 PM 4.32 39.776 0.204 7.37 6.53 11.96
1/6/2023 7:15:00 PM 4.3 39.74 0.201 7.37 6.75 11.97
1/6/2023 7:30:00 PM 4.28 39.704 0.201 7.36 7.02 11.94
1/6/2023 7:45:00 PM 4.27 39.686 0.202 7.36 6.66 11.94
1/6/2023 8:00:00 PM 4.25 39.65 0.202 7.35 6.92 11.93
1/6/2023 8:15:00 PM 4.23 39.614 0.2 7.36 6.89 11.94
1/6/2023 8:30:00 PM 4.21 39.578 0.199 7.36 6.65 11.93
1/6/2023 8:45:00 PM 4.2 39.56 0.196 7.35 7.54 11.93
1/6/2023 9:00:00 PM 4.18 39.524 0.197 7.35 6.67 11.94
1/6/2023 9:15:00 PM 4.16 39.488 0.196 7.35 6.85 11.93
1/6/2023 9:30:00 PM 4.15 39.47 0.198 7.35 6.56 11.93
1/6/2023 9:45:00 PM 4.14 39.452 0.197 7.35 6.86 11.92
1/6/2023 10:00:00 PM 4.12 39.416 0.196 7.35 6.93 11.91
1/6/2023 10:15:00 PM 4.11 39.398 0.197 7.35 6.67 11.91
1/6/2023 10:30:00 PM 4.09 39.362 0.197 7.36 6.73 11.92
1/6/2023 10:45:00 PM 4.08 39.344 0.196 7.36 6.53 11.91
1/6/2023 11:00:00 PM 4.08 39.344 0.195 7.36 6.56 11.9
1/6/2023 11:15:00 PM 4.08 39.344 0.196 7.37 6.62 11.9
1/6/2023 11:30:00 PM 4.07 39.326 0.197 7.37 6.22 11.89
1/6/2023 11:45:00 PM 4.07 39.326 0.196 7.37 6.61 11.89
1/7/2023 12:00:00 AM 4.06 39.308 0.196 7.37 6.29 11.89
1/7/2023 12:15:00 AM 4.05 39.29 0.195 7.36 6.68 11.89
1/7/2023 12:30:00 AM 4.04 39.272 0.194 7.36 7.88 11.89
1/7/2023 12:45:00 AM 4.04 39.272 0.194 7.36 7.27 11.9
1/7/2023 1:00:00 AM 4.02 39.236 0.192 7.35 6.77 11.89
1/7/2023 1:15:00 AM 4.01 39.218 0.192 7.35 6.86 11.88
1/7/2023 1:30:00 AM 4 39.2 0.192 7.35 6.57 11.89
1/7/2023 1:45:00 AM 3.99 39.182 0.194 7.35 6.61 11.88
1/7/2023 2:00:00 AM 3.98 39.164 0.194 7.35 6.31 11.88
1/7/2023 2:15:00 AM 3.96 39.128 0.194 7.35 6.59 11.89
1/7/2023 2:30:00 AM 3.95 39.11 0.194 7.35 6.44 11.89
1/7/2023 2:45:00 AM 3.94 39.092 0.194 7.35 6.46 11.89
1/7/2023 3:00:00 AM 3.93 39.074 0.193 7.35 6.46 11.89
1/7/2023 3:15:00 AM 3.91 39.038 0.193 7.35 6.41 11.89
1/7/2023 3:30:00 AM 3.9 39.02 0.194 7.35 6.33 11.89
1/7/2023 3:45:00 AM 3.89 39.002 0.195 7.35 6.57 11.89
1/7/2023 4:00:00 AM 3.88 38.984 0.196 7.35 6.39 11.88
1/7/2023 4:15:00 AM 3.87 38.966 0.196 7.35 6.49 11.89
1/7/2023 4:30:00 AM 3.87 38.966 0.196 7.35 6.21 11.89
1/7/2023 4:45:00 AM 3.86 38.948 0.197 7.35 6.57 11.88
1/7/2023 5:00:00 AM 3.85 38.93 0.197 7.35 6.48 11.89
1/7/2023 5:15:00 AM 3.83 38.894 0.196 7.35 6.91 11.89
1/7/2023 5:30:00 AM 3.82 38.876 0.197 7.35 6.3 11.9
1/7/2023 5:45:00 AM 3.82 38.876 0.198 7.35 6.84 11.89
1/7/2023 6:00:00 AM 3.81 38.858 0.198 7.35 6.98 11.9
1/7/2023 6:15:00 AM 3.8 38.84 0.198 7.35 6.74 11.9
1/7/2023 6:30:00 AM 3.8 38.84 0.199 7.35 6.87 11.9
1/7/2023 6:45:00 AM 3.78 38.804 0.199 7.35 6.59 11.9
1/7/2023 7:00:00 AM 3.78 38.804 0.2 7.35 6.95 11.89
1/7/2023 7:15:00 AM 3.78 38.804 0.2 7.35 6.85 11.89
1/7/2023 7:30:00 AM 3.77 38.786 0.2 7.35 6.62 11.89
1/7/2023 7:45:00 AM 3.77 38.786 0.201 7.35 6.59 11.9
1/7/2023 8:00:00 AM 3.78 38.804 0.202 7.35 6.64 11.91
1/7/2023 8:15:00 AM 3.77 38.786 0.201 7.35 6.19 11.9
1/7/2023 8:30:00 AM 3.77 38.786 0.202 7.36 7 11.92
1/7/2023 8:45:00 AM 3.77 38.786 0.203 7.36 6.88 11.93
1/7/2023 9:00:00 AM 3.77 38.786 0.203 7.36 6.53 11.94
1/7/2023 9:15:00 AM 3.78 38.804 0.204 7.36 6.44 11.94
1/7/2023 9:30:00 AM 3.78 38.804 0.204 7.36 6.75 11.96
1/7/2023 9:45:00 AM 3.79 38.822 0.205 7.37 6.2 11.97
1/7/2023 10:00:00 AM 3.81 38.858 0.204 7.37 6.08 12.01
1/7/2023 10:15:00 AM 3.83 38.894 0.205 7.37 6.36 12.04
1/7/2023 10:30:00 AM 3.85 38.93 0.205 7.38 6.24 12.08
1/7/2023 10:45:00 AM 3.87 38.966 0.205 7.38 5.6 12.11
1/7/2023 11:00:00 AM 3.9 39.02 0.205 7.39 5.82 12.15
1/7/2023 11:15:00 AM 3.92 39.056 0.205 7.39 5.93 12.18
1/7/2023 11:30:00 AM 3.97 39.146 0.205 7.4 6.22 12.23
1/7/2023 11:45:00 AM 4 39.2 0.206 7.4 6.12 12.24
1/7/2023 12:00:00 PM 4.01 39.218 0.206 7.41 5.91 12.25
1/7/2023 12:15:00 PM 4.04 39.272 0.206 7.41 5.77 12.28
1/7/2023 12:30:00 PM 4.05 39.29 0.206 7.42 6.12 12.29
1/7/2023 12:45:00 PM 4.08 39.344 0.207 7.42 5.62 12.32
1/7/2023 1:00:00 PM 4.11 39.398 0.208 7.42 6.01 12.33
1/7/2023 1:15:00 PM 4.14 39.452 0.209 7.43 5.73 12.35
1/7/2023 1:30:00 PM 4.18 39.524 0.209 7.44 5.73 12.36
1/7/2023 1:45:00 PM 4.21 39.578 0.21 7.44 5.66 12.37
1/7/2023 2:00:00 PM 4.22 39.596 0.21 7.44 5.69 12.34
1/7/2023 2:15:00 PM 4.25 39.65 0.21 7.45 5.61 12.36
1/7/2023 2:30:00 PM 4.27 39.686 0.21 7.45 5.52 12.36
1/7/2023 2:45:00 PM 4.28 39.704 0.21 7.45 5.41 12.34
1/7/2023 3:00:00 PM 4.24 39.632 0.211 7.45 5.52 12.33
1/7/2023 3:15:00 PM 4.25 39.65 0.21 7.45 5.16 12.34
1/7/2023 3:30:00 PM 4.26 39.668 0.211 7.45 5.22 12.3
1/7/2023 3:45:00 PM 4.25 39.65 0.211 7.45 5.32 12.28
1/7/2023 4:00:00 PM 4.24 39.632 0.212 7.45 5.69 12.26
1/7/2023 4:15:00 PM 4.25 39.65 0.211 7.45 5.21 12.25
1/7/2023 4:30:00 PM 4.25 39.65 0.212 7.44 5.44 12.21
1/7/2023 4:45:00 PM 4.24 39.632 0.211 7.44 5.18 12.19
1/7/2023 5:00:00 PM 4.22 39.596 0.21 7.44 5.6 12.17
1/7/2023 5:15:00 PM 4.2 39.56 0.209 7.43 5.2 12.14
1/7/2023 5:30:00 PM 4.17 39.506 0.208 7.43 5.43 12.13
1/7/2023 5:45:00 PM 4.15 39.47 0.208 7.42 5.48 12.11
1/7/2023 6:00:00 PM 4.13 39.434 0.208 7.42 5.15 12.09
1/7/2023 6:15:00 PM 4.12 39.416 0.208 7.41 5.42 12.06
1/7/2023 6:30:00 PM 4.1 39.38 0.209 7.41 5.24 12.04
1/7/2023 6:45:00 PM 4.09 39.362 0.211 7.41 5.63 12.02
1/7/2023 7:00:00 PM 4.08 39.344 0.213 7.41 5.68 12.02
1/7/2023 7:15:00 PM 4.06 39.308 0.213 7.41 5.52 11.99
1/7/2023 7:30:00 PM 4.05 39.29 0.214 7.41 5.48 12
1/7/2023 7:45:00 PM 4.02 39.236 0.213 7.41 5.31 11.99
1/7/2023 8:00:00 PM 4.01 39.218 0.212 7.41 5.35 11.97
1/7/2023 8:15:00 PM 3.99 39.182 0.212 7.41 5.53 11.97
1/7/2023 8:30:00 PM 3.97 39.146 0.21 7.4 5.55 11.97
1/7/2023 8:45:00 PM 3.96 39.128 0.211 7.4 5.42 11.96
1/7/2023 9:00:00 PM 3.94 39.092 0.208 7.4 5.29 11.98
1/7/2023 9:15:00 PM 3.92 39.056 0.207 7.39 5.34 11.98
1/7/2023 9:30:00 PM 3.9 39.02 0.207 7.39 5.23 11.98
1/7/2023 9:45:00 PM 3.89 39.002 0.208 7.39 5.32 11.98
1/7/2023 10:00:00 PM 3.87 38.966 0.208 7.39 5.38 11.99
1/7/2023 10:15:00 PM 3.86 38.948 0.208 7.39 5.3 11.98
1/7/2023 10:30:00 PM 3.84 38.912 0.209 7.39 5.61 11.98
1/7/2023 10:45:00 PM 3.81 38.858 0.209 7.38 5.46 11.98
1/7/2023 11:00:00 PM 3.79 38.822 0.209 7.39 5.38 11.98
1/7/2023 11:15:00 PM 3.77 38.786 0.21 7.39 5.41 11.97
1/7/2023 11:30:00 PM 3.74 38.732 0.211 7.39 5.55 11.99
1/7/2023 11:45:00 PM 3.73 38.714 0.212 7.39 5.28 11.99
1/8/2023 12:00:00 AM 3.7 38.66 0.213 7.39 5.69 11.99
1/8/2023 12:15:00 AM 3.68 38.624 0.213 7.39 5.54 11.99
1/8/2023 12:30:00 AM 3.64 38.552 0.213 7.39 5.44 12
1/8/2023 12:45:00 AM 3.63 38.534 0.214 7.39 5.43 12
1/8/2023 1:00:00 AM 3.59 38.462 0.213 7.39 5.54 12.01
1/8/2023 1:15:00 AM 3.54 38.372 0.213 7.39 5.56 12.02
1/8/2023 1:30:00 AM 3.49 38.282 0.213 7.39 5.21 12.04
1/8/2023 1:45:00 AM 3.46 38.228 0.214 7.39 5.15 12.04
1/8/2023 2:00:00 AM 3.42 38.156 0.216 7.39 5.34 12.05
1/8/2023 2:15:00 AM 3.37 38.066 0.217 7.39 5.22 12.06
1/8/2023 2:30:00 AM 3.34 38.012 0.217 7.39 5.37 12.06
1/8/2023 2:45:00 AM 3.29 37.922 0.217 7.4 5.53 12.07
1/8/2023 3:00:00 AM 3.26 37.868 0.218 7.4 5.23 12.08
1/8/2023 3:15:00 AM 3.23 37.814 0.218 7.39 5.52 12.09
1/8/2023 3:30:00 AM 3.18 37.724 0.216 7.39 5.67 12.09
1/8/2023 3:45:00 AM 3.15 37.67 0.216 7.39 5.68 12.11
1/8/2023 4:00:00 AM 3.12 37.616 0.215 7.39 5.87 12.13
1/8/2023 4:15:00 AM 3.09 37.562 0.214 7.39 5.61 12.13
1/8/2023 4:30:00 AM 3.07 37.526 0.214 7.38 5.7 12.15
1/8/2023 4:45:00 AM 3.05 37.49 0.215 7.39 5.75 12.15
1/8/2023 5:00:00 AM 3.04 37.472 0.217 7.39 5.34 12.15
1/8/2023 5:15:00 AM 3.02 37.436 0.217 7.39 5.5 12.17
1/8/2023 5:30:00 AM 3 37.4 0.218 7.39 5.64 12.16
1/8/2023 5:45:00 AM 2.98 37.364 0.217 7.39 5.8 12.17
1/8/2023 6:00:00 AM 2.96 37.328 0.217 7.39 5.65 12.19
1/8/2023 6:15:00 AM 2.95 37.31 0.218 7.39 5.51 12.19
1/8/2023 6:30:00 AM 2.94 37.292 0.218 7.39 6.16 12.19
1/8/2023 6:45:00 AM 2.93 37.274 0.219 7.39 5.72 12.21
1/8/2023 7:00:00 AM 2.91 37.238 0.22 7.39 5.9 12.21
1/8/2023 7:15:00 AM 2.9 37.22 0.221 7.39 6.02 12.21
1/8/2023 7:30:00 AM 2.89 37.202 0.221 7.39 6.59 12.22
1/8/2023 7:45:00 AM 2.88 37.184 0.221 7.4 6.11 12.23
1/8/2023 8:00:00 AM 2.85 37.13 0.221 7.4 6.31 12.25
1/8/2023 8:15:00 AM 2.87 37.166 0.223 7.4 6.17 12.26
1/8/2023 8:30:00 AM 2.84 37.112 0.223 7.4 5.83 12.3
1/8/2023 8:45:00 AM 2.85 37.13 0.224 7.41 5.96 12.33
1/8/2023 9:00:00 AM 2.84 37.112 0.224 7.42 5.63 12.37
1/8/2023 9:15:00 AM 2.84 37.112 0.226 7.42 5.68 12.4
1/8/2023 9:30:00 AM 2.86 37.148 0.228 7.43 5.81 12.43
1/8/2023 9:45:00 AM 2.87 37.166 0.228 7.43 5.91 12.47
1/8/2023 10:00:00 AM 2.89 37.202 0.229 7.44 5.82 12.52
1/8/2023 10:15:00 AM 2.93 37.274 0.23 7.45 5.24 12.54
1/8/2023 10:30:00 AM 2.98 37.364 0.23 7.45 5.51 12.56
1/8/2023 10:45:00 AM 3.03 37.454 0.229 7.46 5.88 12.61
1/8/2023 11:00:00 AM 3.08 37.544 0.228 7.47 6.09 12.65
1/8/2023 11:15:00 AM 3.1 37.58 0.228 7.47 5.19 12.68
1/8/2023 11:30:00 AM 3.14 37.652 0.233 7.47 5.31 12.69
1/8/2023 11:45:00 AM 3.18 37.724 0.244 7.48 5.22 12.72
1/8/2023 12:00:00 PM 3.23 37.814 0.249 7.49 5.39 12.73
1/8/2023 12:15:00 PM 3.29 37.922 0.253 7.49 5.57 12.75
1/8/2023 12:30:00 PM 3.36 38.048 0.253 7.5 5.19 12.77
1/8/2023 12:45:00 PM 3.47 38.246 0.254 7.5 5.09 12.77
1/8/2023 1:00:00 PM 3.56 38.408 0.254 7.51 5.15 12.78
1/8/2023 1:15:00 PM 3.66 38.588 0.252 7.51 5.21 12.78
1/8/2023 1:30:00 PM 3.75 38.75 0.253 7.51 5.13 12.78
1/8/2023 1:45:00 PM 3.83 38.894 0.252 7.52 4.85 12.77
1/8/2023 2:00:00 PM 3.89 39.002 0.252 7.52 5.01 12.76
1/8/2023 2:15:00 PM 3.94 39.092 0.252 7.52 5.04 12.75
1/8/2023 2:30:00 PM 4 39.2 0.252 7.52 4.8 12.74
1/8/2023 2:45:00 PM 4.03 39.254 0.251 7.53 4.77 12.72
1/8/2023 3:00:00 PM 4.05 39.29 0.251 7.53 4.72 12.71
1/8/2023 3:15:00 PM 4.06 39.308 0.251 7.53 4.76 12.68
1/8/2023 3:30:00 PM 4.07 39.326 0.252 7.53 4.73 12.66
1/8/2023 3:45:00 PM 4.07 39.326 0.254 7.53 4.65 12.64
1/8/2023 4:00:00 PM 4.07 39.326 0.254 7.53 4.64 12.59
1/8/2023 4:15:00 PM 4.06 39.308 0.256 7.53 4.54 12.57
1/8/2023 4:30:00 PM 4.04 39.272 0.257 7.53 4.45 12.53
1/8/2023 4:45:00 PM 4 39.2 0.256 7.53 4.5 12.5
1/8/2023 5:00:00 PM 3.97 39.146 0.256 7.52 4.45 12.44
1/8/2023 5:15:00 PM 3.92 39.056 0.254 7.51 4.54 12.41
1/8/2023 5:30:00 PM 3.87 38.966 0.253 7.51 4.44 12.36
1/8/2023 5:45:00 PM 3.83 38.894 0.253 7.5 4.58 12.33
1/8/2023 6:00:00 PM 3.79 38.822 0.254 7.49 4.51 12.3
1/8/2023 6:15:00 PM 3.74 38.732 0.254 7.49 4.62 12.28
1/8/2023 6:30:00 PM 3.69 38.642 0.255 7.49 4.53 12.25
1/8/2023 6:45:00 PM 3.65 38.57 0.256 7.49 4.67 12.22
1/8/2023 7:00:00 PM 3.61 38.498 0.257 7.48 4.69 12.19
1/8/2023 7:15:00 PM 3.58 38.444 0.257 7.48 4.38 12.16
1/8/2023 7:30:00 PM 3.53 38.354 0.257 7.48 4.44 12.15
1/8/2023 7:45:00 PM 3.49 38.282 0.256 7.48 4.55 12.14
1/8/2023 8:00:00 PM 3.45 38.21 0.256 7.47 4.7 12.12
1/8/2023 8:15:00 PM 3.43 38.174 0.255 7.47 4.65 12.11
1/8/2023 8:30:00 PM 3.39 38.102 0.254 7.47 4.53 12.1
1/8/2023 8:45:00 PM 3.36 38.048 0.254 7.46 4.83 12.1
1/8/2023 9:00:00 PM 3.33 37.994 0.253 7.46 4.92 12.09
1/8/2023 9:15:00 PM 3.29 37.922 0.252 7.45 4.78 12.08
1/8/2023 9:30:00 PM 3.25 37.85 0.251 7.45 4.86 12.09
1/8/2023 9:45:00 PM 3.22 37.796 0.251 7.45 4.71 12.08
1/8/2023 10:00:00 PM 3.19 37.742 0.251 7.45 4.67 12.07
1/8/2023 10:15:00 PM 3.17 37.706 0.252 7.44 4.83 12.08
1/8/2023 10:30:00 PM 3.11 37.598 0.251 7.44 4.65 12.1
1/8/2023 10:45:00 PM 3.08 37.544 0.251 7.44 4.88 12.09
1/8/2023 11:00:00 PM 3.04 37.472 0.25 7.44 4.75 12.11
1/8/2023 11:15:00 PM 2.99 37.382 0.251 7.44 4.82 12.11
1/8/2023 11:30:00 PM 2.94 37.292 0.252 7.44 4.69 12.13
1/8/2023 11:45:00 PM 2.91 37.238 0.253 7.44 4.67 12.13
1/9/2023 12:00:00 AM 2.89 37.202 0.254 7.44 4.62 12.12
1/9/2023 12:15:00 AM 2.89 37.202 0.256 7.43 4.64 12.12
1/9/2023 12:30:00 AM 2.86 37.148 0.255 7.44 5.05 12.12
1/9/2023 12:45:00 AM 2.84 37.112 0.253 7.44 4.48 12.11
1/9/2023 1:00:00 AM 2.83 37.094 0.256 7.44 4.88 12.13
1/9/2023 1:15:00 AM 2.8 37.04 0.256 7.44 4.61 12.13
1/9/2023 1:30:00 AM 2.76 36.968 0.255 7.44 4.68 12.14
1/9/2023 1:45:00 AM 2.73 36.914 0.255 7.44 4.41 12.14
1/9/2023 2:00:00 AM 2.72 36.896 0.255 7.43 4.46 12.15
1/9/2023 2:15:00 AM 2.69 36.842 0.254 7.43 4.52 12.14
1/9/2023 2:30:00 AM 2.68 36.824 0.254 7.43 4.52 12.13
1/9/2023 2:45:00 AM 2.66 36.788 0.253 7.43 4.46 12.15
1/9/2023 3:00:00 AM 2.65 36.77 0.252 7.43 4.75 12.13
1/9/2023 3:15:00 AM 2.64 36.752 0.252 7.43 4.45 12.15
1/9/2023 3:30:00 AM 2.62 36.716 0.251 7.43 4.63 12.15
1/9/2023 3:45:00 AM 2.58 36.644 0.25 7.43 4.61 12.18
1/9/2023 4:00:00 AM 2.57 36.626 0.249 7.42 4.82 12.17
1/9/2023 4:15:00 AM 2.55 36.59 0.25 7.42 4.74 12.17
1/9/2023 4:30:00 AM 2.53 36.554 0.248 7.42 4.87 12.18
1/9/2023 4:45:00 AM 2.54 36.572 0.248 7.43 4.7 12.17
1/9/2023 5:00:00 AM 2.54 36.572 0.248 7.43 4.95 12.18
1/9/2023 5:15:00 AM 2.53 36.554 0.248 7.43 4.72 12.17
1/9/2023 5:30:00 AM 2.52 36.536 0.247 7.43 4.98 12.16
1/9/2023 5:45:00 AM 2.55 36.59 0.247 7.43 4.73 12.17
1/9/2023 6:00:00 AM 2.55 36.59 0.248 7.43 4.72 12.16
1/9/2023 6:15:00 AM 2.53 36.554 0.247 7.43 4.8 12.18
1/9/2023 6:30:00 AM 2.53 36.554 0.247 7.43 4.9 12.2
1/9/2023 6:45:00 AM 2.53 36.554 0.247 7.43 4.8 12.2
1/9/2023 7:00:00 AM 2.54 36.572 0.247 7.43 4.78 12.19
1/9/2023 7:15:00 AM 2.52 36.536 0.246 7.43 4.8 12.19
1/9/2023 7:30:00 AM 2.55 36.59 0.247 7.43 5 12.18
1/9/2023 7:45:00 AM 2.53 36.554 0.246 7.43 4.98 12.19
1/9/2023 8:00:00 AM 2.53 36.554 0.248 7.43 4.71 12.21
1/9/2023 8:15:00 AM 2.53 36.554 0.247 7.43 6.45 12.23
1/9/2023 8:30:00 AM 2.56 36.608 0.247 7.43 4.75 12.21
1/9/2023 8:45:00 AM 2.56 36.608 0.248 7.43 4.95 12.23
1/9/2023 9:00:00 AM 2.56 36.608 0.247 7.44 4.61 12.25
1/9/2023 9:15:00 AM 2.56 36.608 0.247 7.44 4.6 12.29
1/9/2023 9:30:00 AM 2.57 36.626 0.248 7.44 4.71 12.32
1/9/2023 9:45:00 AM 2.59 36.662 0.248 7.45 4.83 12.35
1/9/2023 10:00:00 AM 2.62 36.716 0.249 7.45 4.64 12.37
1/9/2023 10:15:00 AM 2.65 36.77 0.25 7.46 4.71 12.4
1/9/2023 10:30:00 AM 2.69 36.842 0.251 7.47 4.71 12.45
1/9/2023 10:45:00 AM 2.74 36.932 0.254 7.47 4.28 12.48
1/9/2023 11:00:00 AM 2.78 37.004 0.254 7.48 4.42 12.53
1/9/2023 11:15:00 AM 2.83 37.094 0.256 7.49 4.24 12.56
1/9/2023 11:30:00 AM 2.88 37.184 0.256 7.49 4.56 12.59
1/9/2023 11:45:00 AM 2.98 37.364 0.257 7.5 4.57 12.6
1/9/2023 12:00:00 PM 3.08 37.544 0.25 7.5 4.55 12.62
1/9/2023 12:15:00 PM 3.16 37.688 0.249 7.51 4.4 12.64
1/9/2023 12:30:00 PM 3.26 37.868 0.249 7.51 4.32 12.64
1/9/2023 12:45:00 PM 3.34 38.012 0.249 7.52 4.42 12.68
1/9/2023 1:00:00 PM 3.42 38.156 0.249 7.52 4.37 12.68
1/9/2023 1:15:00 PM 3.52 38.336 0.25 7.53 4.24 12.69
1/9/2023 1:30:00 PM 3.6 38.48 0.25 7.53 4.37 12.67
1/9/2023 1:45:00 PM 3.66 38.588 0.251 7.54 4.37 12.69
1/9/2023 2:00:00 PM 3.72 38.696 0.251 7.54 4.22 12.67
1/9/2023 2:15:00 PM 3.77 38.786 0.25 7.54 4.34 12.68
1/9/2023 2:30:00 PM 3.81 38.858 0.251 7.55 4.44 12.67
1/9/2023 2:45:00 PM 3.82 38.876 0.25 7.55 4.17 12.67
1/9/2023 3:00:00 PM 3.84 38.912 0.251 7.55 4.16 12.64
1/9/2023 3:15:00 PM 3.86 38.948 0.252 7.55 4.25 12.61
1/9/2023 3:30:00 PM 3.86 38.948 0.251 7.55 4.4 12.59
1/9/2023 3:45:00 PM 3.88 38.984 0.25 7.55 4.57 12.56
1/9/2023 4:00:00 PM 3.88 38.984 0.25 7.55 4.56 12.54
1/9/2023 4:15:00 PM 3.89 39.002 0.25 7.55 4.43 12.51
1/9/2023 4:30:00 PM 3.87 38.966 0.25 7.55 4.42 12.48
1/9/2023 4:45:00 PM 3.85 38.93 0.25 7.54 4.71 12.42
1/9/2023 5:00:00 PM 3.84 38.912 0.251 7.54 4.62 12.38
1/9/2023 5:15:00 PM 3.82 38.876 0.251 7.53 4.55 12.31
1/9/2023 5:30:00 PM 3.79 38.822 0.251 7.53 4.62 12.28
1/9/2023 5:45:00 PM 3.78 38.804 0.252 7.53 4.36 12.24
1/9/2023 6:00:00 PM 3.73 38.714 0.253 7.52 4.42 12.21
1/9/2023 6:15:00 PM 3.71 38.678 0.253 7.52 4.5 12.15
1/9/2023 6:30:00 PM 3.67 38.606 0.253 7.51 4.36 12.13
1/9/2023 6:45:00 PM 3.65 38.57 0.253 7.51 4.43 12.09
1/9/2023 7:00:00 PM 3.61 38.498 0.251 7.5 4.54 12.07
1/9/2023 7:15:00 PM 3.6 38.48 0.252 7.5 4.37 12.06
1/9/2023 7:30:00 PM 3.58 38.444 0.253 7.5 4.36 12.03
1/9/2023 7:45:00 PM 3.56 38.408 0.252 7.49 4.31 12.01
1/9/2023 8:00:00 PM 3.54 38.372 0.252 7.49 7.51 12
1/9/2023 8:15:00 PM 3.54 38.372 0.253 7.49 4.53 11.96
1/9/2023 8:30:00 PM 3.52 38.336 0.252 7.48 4.38 11.96
1/9/2023 8:45:00 PM 3.52 38.336 0.252 7.48 4.32 11.94
1/9/2023 9:00:00 PM 3.52 38.336 0.252 7.48 4.11 11.94
1/9/2023 9:15:00 PM 3.52 38.336 0.253 7.48 4.26 11.93
1/9/2023 9:30:00 PM 3.51 38.318 0.252 7.48 4.21 11.93
1/9/2023 9:45:00 PM 3.51 38.318 0.252 7.45 4.36 11.93
1/9/2023 10:00:00 PM 3.49 38.282 0.251 7.48 4.09 11.94
1/9/2023 10:15:00 PM 3.49 38.282 0.252 7.47 4.32 11.92
1/9/2023 10:30:00 PM 3.48 38.264 0.252 7.47 4.26 11.91
1/9/2023 10:45:00 PM 3.47 38.246 0.252 7.47 11.1 11.91
1/9/2023 11:00:00 PM 3.48 38.264 0.253 7.47 4.27 11.92
1/9/2023 11:15:00 PM 3.46 38.228 0.253 7.47 4.28 11.94
1/9/2023 11:30:00 PM 3.45 38.21 0.252 7.47 4.28 11.93
1/9/2023 11:45:00 PM 3.44 38.192 0.252 7.47 4.35 11.92
1/10/2023 12:00:00 AM 3.42 38.156 0.252 7.47 4.37 11.95
1/10/2023 12:15:00 AM 3.42 38.156 0.252 7.47 4.44 11.94
1/10/2023 12:30:00 AM 3.41 38.138 0.251 7.47 4.28 11.94
1/10/2023 12:45:00 AM 3.38 38.084 0.251 7.47 4.18 11.95
1/10/2023 1:00:00 AM 3.39 38.102 0.252 7.47 4.19 11.94
1/10/2023 1:15:00 AM 3.38 38.084 0.252 7.46 4.22 11.94
1/10/2023 1:30:00 AM 3.37 38.066 0.253 7.46 4.06 11.92
1/10/2023 1:45:00 AM 3.36 38.048 0.252 7.46 4.16 11.92
1/10/2023 2:00:00 AM 3.35 38.03 0.252 7.46 4.26 11.93
1/10/2023 2:15:00 AM 3.35 38.03 0.252 7.46 4.88 11.92
1/10/2023 2:30:00 AM 3.35 38.03 0.252 7.46 4.2 11.92
1/10/2023 2:45:00 AM 3.36 38.048 0.252 7.46 4.32 11.92
1/10/2023 3:00:00 AM 3.35 38.03 0.253 7.46 4.11 11.91
1/10/2023 3:15:00 AM 3.35 38.03 0.252 7.46 4.22 11.89
1/10/2023 3:30:00 AM 3.35 38.03 0.252 7.46 4.12 11.92
1/10/2023 3:45:00 AM 3.35 38.03 0.251 7.46 4.1 11.91
1/10/2023 4:00:00 AM 3.34 38.012 0.251 7.45 4.58 11.9
1/10/2023 4:15:00 AM 3.33 37.994 0.25 7.45 4.28 11.89
1/10/2023 4:30:00 AM 3.33 37.994 0.25 7.45 4.35 11.89
1/10/2023 4:45:00 AM 3.33 37.994 0.249 7.45 4.04 11.89
1/10/2023 5:00:00 AM 3.33 37.994 0.25 7.45 4.25 11.89
1/10/2023 5:15:00 AM 3.34 38.012 0.251 7.45 4.29 11.88
1/10/2023 5:30:00 AM 3.33 37.994 0.253 7.45 4.65 11.9
1/10/2023 5:45:00 AM 3.33 37.994 0.253 7.45 4.3 11.88
1/10/2023 6:00:00 AM 3.32 37.976 0.254 7.45 4.5 11.9
1/10/2023 6:15:00 AM 3.32 37.976 0.254 7.45 4.46 11.87
1/10/2023 6:30:00 AM 3.33 37.994 0.255 7.45 4.27 11.89
1/10/2023 6:45:00 AM 3.33 37.994 0.256 7.45 4.44 11.87
1/10/2023 7:00:00 AM 3.33 37.994 0.256 7.45 4.53 11.87
1/10/2023 7:15:00 AM 3.33 37.994 0.257 7.45 5.4 11.88
1/10/2023 7:30:00 AM 3.33 37.994 0.257 7.45 5.21 11.87
1/10/2023 7:45:00 AM 3.33 37.994 0.256 7.45 4.64 11.86
1/10/2023 8:00:00 AM 3.32 37.976 0.256 7.45 4.19 11.88
1/10/2023 8:15:00 AM 3.33 37.994 0.256 7.45 4.32 11.87
1/10/2023 8:30:00 AM 3.32 37.976 0.257 7.45 4.29 11.9
1/10/2023 8:45:00 AM 3.34 38.012 0.258 7.45 4.1 11.9
1/10/2023 9:00:00 AM 3.34 38.012 0.258 7.46 4.29 11.91
1/10/2023 9:15:00 AM 3.33 37.994 0.257 7.46 4.38 11.93
1/10/2023 9:30:00 AM 3.37 38.066 0.258 7.46 4.42 11.94
1/10/2023 9:45:00 AM 3.36 38.048 0.257 7.47 4.46 12
1/10/2023 10:00:00 AM 3.39 38.102 0.258 7.47 4.44 12.02
1/10/2023 10:15:00 AM 3.39 38.102 0.259 7.47 4.28 12.06
1/10/2023 10:30:00 AM 3.44 38.192 0.263 7.48 4.69 12.09
1/10/2023 10:45:00 AM 3.46 38.228 0.261 7.49 4.31 12.13
1/10/2023 11:00:00 AM 3.48 38.264 0.261 7.49 4.2 12.14
1/10/2023 11:15:00 AM 3.5 38.3 0.262 7.5 4.41 12.17
1/10/2023 11:30:00 AM 3.52 38.336 0.262 7.5 4.84 12.18
1/10/2023 11:45:00 AM 3.53 38.354 0.26 7.51 4.39 12.19
1/10/2023 12:00:00 PM 3.55 38.39 0.261 7.51 4.23 12.22
1/10/2023 12:15:00 PM 3.55 38.39 0.26 7.51 4.19 12.24
1/10/2023 12:30:00 PM 3.55 38.39 0.259 7.51 4.33 12.22
1/10/2023 12:45:00 PM 3.57 38.426 0.261 7.51 4.46 12.3
1/10/2023 1:00:00 PM 3.55 38.39 0.258 7.51 4.14 12.32
1/10/2023 1:15:00 PM 3.57 38.426 0.257 7.52 4.45 12.31
1/10/2023 1:30:00 PM 3.55 38.39 0.257 7.52 4.28 12.35
1/10/2023 1:45:00 PM 3.57 38.426 0.257 7.52 4.28 12.37
1/10/2023 2:00:00 PM 3.58 38.444 0.256 7.52 4.57 12.34
1/10/2023 2:15:00 PM 3.61 38.498 0.257 7.52 4.44 12.33
1/10/2023 2:30:00 PM 3.58 38.444 0.256 7.52 5.81 12.33
1/10/2023 2:45:00 PM 3.58 38.444 0.257 7.52 4.04 12.34
1/10/2023 3:00:00 PM 3.58 38.444 0.258 7.52 4.11 12.32
1/10/2023 3:15:00 PM 3.59 38.462 0.259 7.52 4.05 12.32
1/10/2023 3:30:00 PM 3.59 38.462 0.259 7.52 4.17 12.31
1/10/2023 3:45:00 PM 3.59 38.462 0.259 7.53 4.15 12.32
1/10/2023 4:00:00 PM 3.59 38.462 0.261 7.52 4.04 12.27
1/10/2023 4:15:00 PM 3.6 38.48 0.262 7.52 3.97 12.26
1/10/2023 4:30:00 PM 3.6 38.48 0.262 7.52 3.8 12.23
1/10/2023 4:45:00 PM 3.59 38.462 0.262 7.52 3.86 12.22
1/10/2023 5:00:00 PM 3.59 38.462 0.263 7.52 3.99 12.2
1/10/2023 5:15:00 PM 3.58 38.444 0.264 7.51 3.87 12.15
1/10/2023 5:30:00 PM 3.57 38.426 0.264 7.51 3.95 12.14
1/10/2023 5:45:00 PM 3.56 38.408 0.265 7.51 4.07 12.12
1/10/2023 6:00:00 PM 3.55 38.39 0.265 7.51 4.08 12.09
1/10/2023 6:15:00 PM 3.55 38.39 0.265 7.51 4.14 12.06
1/10/2023 6:30:00 PM 3.54 38.372 0.263 7.5 4.07 12.05
1/10/2023 6:45:00 PM 3.52 38.336 0.261 7.5 4.36 12.03
1/10/2023 7:00:00 PM 3.51 38.318 0.261 7.49 3.98 12
1/10/2023 7:15:00 PM 3.51 38.318 0.26 7.49 4.14 12.02
1/10/2023 7:30:00 PM 3.5 38.3 0.26 7.49 4.45 11.98
1/10/2023 7:45:00 PM 3.49 38.282 0.261 7.49 4.34 11.97
1/10/2023 8:00:00 PM 3.48 38.264 0.26 7.49 4.48 11.96
1/10/2023 8:15:00 PM 3.47 38.246 0.26 7.48 6.44 11.94
1/10/2023 8:30:00 PM 3.47 38.246 0.26 7.48 4.88 11.93
1/10/2023 8:45:00 PM 3.46 38.228 0.26 7.48 4.96 11.93
1/10/2023 9:00:00 PM 3.44 38.192 0.26 7.48 4.74 11.94
1/10/2023 9:15:00 PM 3.44 38.192 0.26 7.48 4.52 11.93
1/10/2023 9:30:00 PM 3.42 38.156 0.26 7.48 4.82 11.94
1/10/2023 9:45:00 PM 3.42 38.156 0.261 7.48 4.38 11.94
1/10/2023 10:00:00 PM 3.4 38.12 0.261 7.48 4.26 11.92
1/10/2023 10:15:00 PM 3.4 38.12 0.261 7.48 4.39 11.92
1/10/2023 10:30:00 PM 3.38 38.084 0.261 7.48 4.21 11.92
1/10/2023 10:45:00 PM 3.38 38.084 0.261 7.48 4.09 11.93
1/10/2023 11:00:00 PM 3.37 38.066 0.261 7.48 4.52 11.92
1/10/2023 11:15:00 PM 3.36 38.048 0.262 7.48 4.38 11.93
1/10/2023 11:30:00 PM 3.35 38.03 0.262 7.48 4.1 11.93
1/10/2023 11:45:00 PM 3.35 38.03 0.262 7.48 4.32 11.92
1/11/2023 12:00:00 AM 3.34 38.012 0.263 7.48 4.17 11.92
1/11/2023 12:15:00 AM 3.32 37.976 0.263 7.48 4.08 11.93
1/11/2023 12:30:00 AM 3.31 37.958 0.263 7.48 4.26 11.93
1/11/2023 12:45:00 AM 3.29 37.922 0.263 7.48 4.09 11.93
1/11/2023 1:00:00 AM 3.28 37.904 0.263 7.48 4.04 11.95
1/11/2023 1:15:00 AM 3.25 37.85 0.263 7.48 4.07 11.95
1/11/2023 1:30:00 AM 3.23 37.814 0.263 7.48 4.24 11.95
1/11/2023 1:45:00 AM 3.22 37.796 0.263 7.48 4.24 11.95
1/11/2023 2:00:00 AM 3.22 37.796 0.264 7.48 4.18 11.96
1/11/2023 2:15:00 AM 3.2 37.76 0.264 7.48 4.05 11.96
1/11/2023 2:30:00 AM 3.18 37.724 0.265 7.48 3.98 11.95
1/11/2023 2:45:00 AM 3.16 37.688 0.265 7.48 4.17 11.96
1/11/2023 3:00:00 AM 3.16 37.688 0.266 7.48 3.94 11.96
1/11/2023 3:15:00 AM 3.14 37.652 0.265 7.48 3.99 11.96
1/11/2023 3:30:00 AM 3.13 37.634 0.265 7.48 4.05 11.97
1/11/2023 3:45:00 AM 3.12 37.616 0.265 7.48 4.07 11.98
1/11/2023 4:00:00 AM 3.13 37.634 0.265 7.48 3.86 11.96
1/11/2023 4:15:00 AM 3.09 37.562 0.265 7.48 4 11.97
1/11/2023 4:30:00 AM 3.1 37.58 0.265 7.47 3.86 11.97
1/11/2023 4:45:00 AM 3.08 37.544 0.265 7.47 3.82 11.97
1/11/2023 5:00:00 AM 3.08 37.544 0.265 7.47 3.95 11.97
1/11/2023 5:15:00 AM 3.08 37.544 0.266 7.47 4.02 11.98
1/11/2023 5:30:00 AM 3.06 37.508 0.266 7.47 4.03 11.98
1/11/2023 5:45:00 AM 3.05 37.49 0.265 7.47 4.1 11.98
1/11/2023 6:00:00 AM 3.04 37.472 0.266 7.47 4.27 11.98
1/11/2023 6:15:00 AM 3.04 37.472 0.267 7.47 4.33 11.99
1/11/2023 6:30:00 AM 3.03 37.454 0.268 7.47 3.97 11.99
1/11/2023 6:45:00 AM 3.02 37.436 0.268 7.47 3.9 12
1/11/2023 7:00:00 AM 3.01 37.418 0.268 7.48 3.99 11.99
1/11/2023 7:15:00 AM 3.03 37.454 0.268 7.47 4.27 11.98
1/11/2023 7:30:00 AM 3.01 37.418 0.269 7.47 4.34 12
1/11/2023 7:45:00 AM 2.99 37.382 0.267 7.47 4.37 12
1/11/2023 8:00:00 AM 2.99 37.382 0.267 7.48 4.16 12.03
1/11/2023 8:15:00 AM 2.98 37.364 0.267 7.48 5.12 12.05
1/11/2023 8:30:00 AM 2.99 37.382 0.268 7.48 6.49 12.05
1/11/2023 8:45:00 AM 2.99 37.382 0.282 7.48 5.96 12.12
1/11/2023 9:00:00 AM 3 37.4 0.293 7.49 6.5 12.16
1/11/2023 9:15:00 AM 3.03 37.454 0.291 7.49 6.45 12.21
1/11/2023 9:30:00 AM 3.05 37.49 0.291 7.5 5.53 12.26
1/11/2023 9:45:00 AM 3.09 37.562 0.292 7.5 5.29 12.32
1/11/2023 10:00:00 AM 3.14 37.652 0.293 7.51 4.49 12.37
1/11/2023 10:15:00 AM 3.16 37.688 0.292 7.52 4.29 12.41
1/11/2023 10:30:00 AM 3.2 37.76 0.226 7.52 8.83 12.42
1/11/2023 10:45:00 AM 3.26 37.868 0.256 7.53 6.12 12.47
1/11/2023 11:00:00 AM 3.27 37.886 0.291 7.53 5.32 12.53
1/11/2023 11:15:00 AM 3.35 38.03 0.293 7.54 5 12.56
1/11/2023 11:30:00 AM 3.41 38.138 0.292 7.55 5.07 12.61
1/11/2023 11:45:00 AM 3.49 38.282 0.293 7.55 5.49 12.62
1/11/2023 12:00:00 PM 3.58 38.444 0.294 7.56 5.34 12.65
1/11/2023 12:15:00 PM 3.64 38.552 0.293 7.57 5.19 12.68
1/11/2023 12:30:00 PM 3.71 38.678 0.293 7.57 5.24 12.7
1/11/2023 12:45:00 PM 3.77 38.786 0.293 7.58 5.13 12.72
1/11/2023 1:00:00 PM 3.85 38.93 0.292 7.58 5.14 12.74
1/11/2023 1:15:00 PM 3.92 39.056 0.291 7.58 5.28 12.74
1/11/2023 1:30:00 PM 3.98 39.164 0.292 7.59 4.99 12.75
1/11/2023 1:45:00 PM 4.05 39.29 0.29 7.59 5.01 12.75
1/11/2023 2:00:00 PM 4.1 39.38 0.291 7.59 5.01 12.75
1/11/2023 2:15:00 PM 4.17 39.506 0.291 7.6 4.97 12.71
1/11/2023 2:30:00 PM 4.23 39.614 0.292 7.6 4.93 12.71
1/11/2023 2:45:00 PM 4.26 39.668 0.294 7.6 4.86 12.71
1/11/2023 3:00:00 PM 4.3 39.74 0.295 7.61 4.79 12.7
1/11/2023 3:15:00 PM 4.33 39.794 0.296 7.61 4.6 12.67
1/11/2023 3:30:00 PM 4.34 39.812 0.297 7.61 4.42 12.66
1/11/2023 3:45:00 PM 4.36 39.848 0.298 7.61 4.69 12.64
1/11/2023 4:00:00 PM 4.39 39.902 0.299 7.61 4.6 12.58
1/11/2023 4:15:00 PM 4.39 39.902 0.3 7.61 4.43 12.54
1/11/2023 4:30:00 PM 4.4 39.92 0.3 7.61 4.42 12.47
1/11/2023 4:45:00 PM 4.39 39.902 0.3 7.6 4.37 12.4
1/11/2023 5:00:00 PM 4.4 39.92 0.3 7.6 4.74 12.34
1/11/2023 5:15:00 PM 4.38 39.884 0.299 7.59 4.41 12.29
1/11/2023 5:30:00 PM 4.38 39.884 0.3 7.59 4.56 12.21
1/11/2023 5:45:00 PM 4.37 39.866 0.3 7.58 4.82 12.16
1/11/2023 6:00:00 PM 4.37 39.866 0.299 7.57 4.45 12.11
1/11/2023 6:15:00 PM 4.37 39.866 0.299 7.57 4.45 12.06
1/11/2023 6:30:00 PM 4.36 39.848 0.299 7.56 4.43 12
1/11/2023 6:45:00 PM 4.35 39.83 0.299 7.56 4.35 11.97
1/11/2023 7:00:00 PM 4.35 39.83 0.299 7.56 4.38 11.93
1/11/2023 7:15:00 PM 4.34 39.812 0.298 7.55 4.26 11.89
1/11/2023 7:30:00 PM 4.34 39.812 0.299 7.55 4.21 11.84
1/11/2023 7:45:00 PM 4.29 39.722 0.296 7.54 4.23 11.83
1/11/2023 8:00:00 PM 4.29 39.722 0.296 7.54 4.69 11.79
1/11/2023 8:15:00 PM 4.25 39.65 0.296 7.54 4.12 11.78
1/11/2023 8:30:00 PM 4.26 39.668 0.296 7.53 4.49 11.75
1/11/2023 8:45:00 PM 4.23 39.614 0.295 7.53 4.37 11.73
1/11/2023 9:00:00 PM 4.23 39.614 0.296 7.53 4.76 11.72
1/11/2023 9:15:00 PM 4.21 39.578 0.297 7.52 4.17 11.69
1/11/2023 9:30:00 PM 4.2 39.56 0.296 7.52 4.11 11.7
1/11/2023 9:45:00 PM 4.19 39.542 0.296 7.52 4.61 11.67
1/11/2023 10:00:00 PM 4.17 39.506 0.296 7.52 4.24 11.67
1/11/2023 10:15:00 PM 4.14 39.452 0.294 7.52 4.23 11.67
1/11/2023 10:30:00 PM 4.1 39.38 0.292 7.51 4.22 11.68
1/11/2023 10:45:00 PM 4.09 39.362 0.289 7.51 4.05 11.67
1/11/2023 11:00:00 PM 4.05 39.29 0.291 7.51 4.25 11.67
1/11/2023 11:15:00 PM 4.03 39.254 0.292 7.51 4.1 11.68
1/11/2023 11:30:00 PM 4.03 39.254 0.29 7.51 4.51 11.66
1/11/2023 11:45:00 PM 4.02 39.236 0.289 7.5 4.45 11.67
1/12/2023 12:00:00 AM 4 39.2 0.289 7.5 4.18 11.67
1/12/2023 12:15:00 AM 4 39.2 0.287 7.5 4.23 11.67
1/12/2023 12:30:00 AM 4 39.2 0.29 7.5 4.27 11.67
1/12/2023 12:45:00 AM 4 39.2 0.29 7.5 5.61 11.67
1/12/2023 1:00:00 AM 3.98 39.164 0.288 7.5 4.62 11.68
1/12/2023 1:15:00 AM 3.97 39.146 0.289 7.5 4.37 11.67
1/12/2023 1:30:00 AM 3.95 39.11 0.284 7.5 4.47 11.69
1/12/2023 1:45:00 AM 3.94 39.092 0.285 7.5 4.29 11.69
1/12/2023 2:00:00 AM 3.92 39.056 0.288 7.5 4.54 11.69
1/12/2023 2:15:00 AM 3.92 39.056 0.289 7.5 4.15 11.67
1/12/2023 2:30:00 AM 3.92 39.056 0.29 7.5 4.39 11.68
1/12/2023 2:45:00 AM 3.91 39.038 0.29 7.5 4.32 11.67
1/12/2023 3:00:00 AM 3.91 39.038 0.291 7.5 4.37 11.69
1/12/2023 3:15:00 AM 3.9 39.02 0.291 7.5 4.18 11.68
1/12/2023 3:30:00 AM 3.9 39.02 0.293 7.5 4.28 11.67
1/12/2023 3:45:00 AM 3.89 39.002 0.289 7.5 4.52 11.67
1/12/2023 4:00:00 AM 3.88 38.984 0.291 7.5 4.4 11.67
1/12/2023 4:15:00 AM 3.88 38.984 0.29 7.5 4.31 11.66
1/12/2023 4:30:00 AM 3.87 38.966 0.298 7.5 4.04 11.66
1/12/2023 4:45:00 AM 3.87 38.966 0.294 7.5 4.66 11.66
1/12/2023 5:00:00 AM 3.85 38.93 0.293 7.5 4.13 11.65
1/12/2023 5:15:00 AM 3.85 38.93 0.295 7.5 4.19 11.66
1/12/2023 5:30:00 AM 3.86 38.948 0.292 7.5 4.14 11.64
1/12/2023 5:45:00 AM 3.84 38.912 0.286 7.5 4.24 11.65
1/12/2023 6:00:00 AM 3.82 38.876 0.284 7.5 4.1 11.67
1/12/2023 6:15:00 AM 3.79 38.822 0.285 7.5 4.11 11.64
1/12/2023 6:30:00 AM 3.76 38.768 0.281 7.5 4.29 11.65
1/12/2023 6:45:00 AM 3.77 38.786 0.281 7.5 4.26 11.65
1/12/2023 7:00:00 AM 3.76 38.768 0.284 7.5 4.1 11.67
1/12/2023 7:15:00 AM 3.75 38.75 0.283 7.5 4.18 11.67
1/12/2023 7:30:00 AM 3.76 38.768 0.282 7.49 4.29 11.67
1/12/2023 7:45:00 AM 3.77 38.786 0.283 7.49 4.16 11.63
1/12/2023 8:00:00 AM 3.8 38.84 0.282 7.49 4.32 11.65
1/12/2023 8:15:00 AM 3.77 38.786 0.287 7.49 4.25 11.65
1/12/2023 8:30:00 AM 3.79 38.822 0.287 7.49 4.28 11.67
1/12/2023 8:45:00 AM 3.77 38.786 0.288 7.5 4.53 11.68
1/12/2023 9:00:00 AM 3.78 38.804 0.286 7.5 4.54 11.7
1/12/2023 9:15:00 AM 3.8 38.84 0.288 7.5 4.77 11.72
1/12/2023 9:30:00 AM 3.81 38.858 0.291 7.5 4.28 11.74
1/12/2023 9:45:00 AM 3.84 38.912 0.293 7.51 4.51 11.76
1/12/2023 10:00:00 AM 3.85 38.93 0.298 7.51 4.69 11.78
1/12/2023 10:15:00 AM 3.88 38.984 0.301 7.52 4.37 11.83
1/12/2023 10:30:00 AM 3.94 39.092 0.302 7.52 4.41 11.85
1/12/2023 10:45:00 AM 3.95 39.11 0.3 7.52 3.94 11.88
1/12/2023 11:00:00 AM 3.98 39.164 0.3 7.53 4.02 11.91
1/12/2023 11:15:00 AM 3.99 39.182 0.299 7.53 4.25 11.91
1/12/2023 11:30:00 AM 4.01 39.218 0.298 7.53 4.33 11.97
1/12/2023 11:45:00 AM 4.06 39.308 0.298 7.54 4.15 12
1/12/2023 12:00:00 PM 4.1 39.38 0.298 7.54 3.92 12.01
1/12/2023 12:15:00 PM 4.11 39.398 0.296 7.54 4.09 12.03
1/12/2023 12:30:00 PM 4.12 39.416 0.296 7.55 4.07 12.05
1/12/2023 12:45:00 PM 4.15 39.47 0.296 7.55 4.01 12.08
1/12/2023 1:00:00 PM 4.18 39.524 0.297 7.55 3.85 12.08
1/12/2023 1:15:00 PM 4.22 39.596 0.297 7.55 3.97 12.07
1/12/2023 1:30:00 PM 4.23 39.614 0.297 7.55 4.04 12.07
1/12/2023 1:45:00 PM 4.25 39.65 0.297 7.56 3.74 12.09
1/12/2023 2:00:00 PM 4.28 39.704 0.297 7.56 3.67 12.1
1/12/2023 2:15:00 PM 4.3 39.74 0.298 7.57 3.65 12.11
1/12/2023 2:30:00 PM 4.33 39.794 0.298 7.57 3.77 12.09
1/12/2023 2:45:00 PM 4.35 39.83 0.299 7.57 3.7 12.07
1/12/2023 3:00:00 PM 4.39 39.902 0.3 7.57 4.05 12.07
1/12/2023 3:15:00 PM 4.41 39.938 0.299 7.57 3.58 12.05
1/12/2023 3:30:00 PM 4.44 39.992 0.3 7.57 3.58 12.02
1/12/2023 3:45:00 PM 4.45 40.01 0.298 7.57 3.51 11.99
1/12/2023 4:00:00 PM 4.46 40.028 0.299 7.56 3.39 11.95
1/12/2023 4:15:00 PM 4.47 40.046 0.297 7.56 3.7 11.91
1/12/2023 4:30:00 PM 4.49 40.082 0.295 7.56 3.86 11.87
1/12/2023 4:45:00 PM 4.52 40.136 0.297 7.55 3.67 11.81
1/12/2023 5:00:00 PM 4.52 40.136 0.296 7.55 3.79 11.79
1/12/2023 5:15:00 PM 4.53 40.154 0.295 7.55 3.79 11.74
1/12/2023 5:30:00 PM 4.54 40.172 0.291 7.54 3.6 11.73
1/12/2023 5:45:00 PM 4.54 40.172 0.291 7.54 3.81 11.7
1/12/2023 6:00:00 PM 4.55 40.19 0.293 7.54 4.03 11.66
1/12/2023 6:15:00 PM 4.57 40.226 0.292 7.53 3.85 11.63
1/12/2023 6:30:00 PM 4.58 40.244 0.294 7.53 3.93 11.58
1/12/2023 6:45:00 PM 4.59 40.262 0.299 7.52 5.39 11.56
1/12/2023 7:00:00 PM 4.59 40.262 0.305 7.52 5.66 11.54
1/12/2023 7:15:00 PM 4.62 40.316 0.308 7.52 6.18 11.51
1/12/2023 7:30:00 PM 4.63 40.334 0.312 7.51 6.29 11.46
1/12/2023 7:45:00 PM 4.65 40.37 0.312 7.51 6.31 11.46
1/12/2023 8:00:00 PM 4.66 40.388 0.312 7.51 6.66 11.42
1/12/2023 8:15:00 PM 4.66 40.388 0.312 7.51 6.34 11.41
1/12/2023 8:30:00 PM 4.68 40.424 0.311 7.51 6.47 11.39
1/12/2023 8:45:00 PM 4.7 40.46 0.308 7.5 6.44 11.37
1/12/2023 9:00:00 PM 4.71 40.478 0.306 7.5 5.78 11.38
1/12/2023 9:15:00 PM 4.7 40.46 0.303 7.5 5.8 11.38
1/12/2023 9:30:00 PM 4.72 40.496 0.301 7.5 5.24 11.35
1/12/2023 9:45:00 PM 4.73 40.514 0.3 7.5 4.99 11.35
1/12/2023 10:00:00 PM 4.73 40.514 0.3 7.5 4.91 11.34
1/12/2023 10:15:00 PM 4.74 40.532 0.297 7.5 4.78 11.32
1/12/2023 10:30:00 PM 4.74 40.532 0.293 7.5 4.76 11.33
1/12/2023 10:45:00 PM 4.75 40.55 0.292 7.5 4.62 11.33
1/12/2023 11:00:00 PM 4.75 40.55 0.291 7.5 4.62 11.33
1/12/2023 11:15:00 PM 4.75 40.55 0.291 7.5 4.53 11.33
1/12/2023 11:30:00 PM 4.75 40.55 0.288 7.5 4.72 11.33
1/12/2023 11:45:00 PM 4.74 40.532 0.287 7.49 4.83 11.33
1/13/2023 12:00:00 AM 4.74 40.532 0.287 7.49 5.01 11.33
1/13/2023 12:15:00 AM 4.74 40.532 0.288 7.49 5.63 11.34
1/13/2023 12:30:00 AM 4.73 40.514 0.283 7.49 5.91 11.35
1/13/2023 12:45:00 AM 4.72 40.496 0.28 7.49 7 11.38
1/13/2023 1:00:00 AM 4.72 40.496 0.279 7.49 7.55 11.38
1/13/2023 1:15:00 AM 4.71 40.478 0.277 7.49 7.43 11.39
1/13/2023 1:30:00 AM 4.7 40.46 0.275 7.48 8.08 11.41
1/13/2023 1:45:00 AM 4.68 40.424 0.271 7.48 8.03 11.43
1/13/2023 2:00:00 AM 4.69 40.442 0.268 7.48 7.92 11.43
1/13/2023 2:15:00 AM 4.68 40.424 0.264 7.48 8.11 11.45
1/13/2023 2:30:00 AM 4.68 40.424 0.261 7.47 8.2 11.44
1/13/2023 2:45:00 AM 4.67 40.406 0.258 7.47 7.93 11.46
1/13/2023 3:00:00 AM 4.65 40.37 0.254 7.47 8.04 11.48
1/13/2023 3:15:00 AM 4.64 40.352 0.25 7.47 7.86 11.49
1/13/2023 3:30:00 AM 4.64 40.352 0.247 7.46 7.87 11.49
1/13/2023 3:45:00 AM 4.64 40.352 0.243 7.46 8.04 11.49
1/13/2023 4:00:00 AM 4.63 40.334 0.24 7.46 8.09 11.51
1/13/2023 4:15:00 AM 4.62 40.316 0.237 7.45 8.2 11.53
1/13/2023 4:30:00 AM 4.63 40.334 0.236 7.45 8.1 11.49
1/13/2023 4:45:00 AM 4.61 40.298 0.235 7.44 8.41 11.52
1/13/2023 5:00:00 AM 4.61 40.298 0.234 7.44 8.26 11.52
1/13/2023 5:15:00 AM 4.6 40.28 0.233 7.44 9.03 11.54
1/13/2023 5:30:00 AM 4.57 40.226 0.231 7.44 9.78 11.56
1/13/2023 5:45:00 AM 4.55 40.19 0.229 7.43 9.55 11.56
1/13/2023 6:00:00 AM 4.52 40.136 0.226 7.43 9.92 11.59
1/13/2023 6:15:00 AM 4.48 40.064 0.223 7.43 9.61 11.61
1/13/2023 6:30:00 AM 4.46 40.028 0.221 7.42 9.87 11.63
1/13/2023 6:45:00 AM 4.41 39.938 0.217 7.42 10.44 11.65
1/13/2023 7:00:00 AM 4.37 39.866 0.215 7.41 11.33 11.68
1/13/2023 7:15:00 AM 4.32 39.776 0.213 7.41 11.08 11.71
1/13/2023 7:30:00 AM 4.26 39.668 0.206 7.41 13.97 11.77
1/13/2023 7:45:00 AM 4.21 39.578 0.199 7.4 14.82 11.81
1/13/2023 8:00:00 AM 4.15 39.47 0.191 7.4 17.86 11.86
1/13/2023 8:15:00 AM 4.08 39.344 0.183 7.39 16.98 11.93
1/13/2023 8:30:00 AM 4.03 39.254 0.175 7.39 23.51 11.97
1/13/2023 8:45:00 AM 4.05 39.29 0.173 7.37 27.19 11.94
1/13/2023 9:00:00 AM 3.95 39.11 0.156 7.36 26.19 12.01
1/13/2023 9:15:00 AM 3.9 39.02 0.149 7.35 24.71 12.1
1/13/2023 9:30:00 AM 3.82 38.876 0.139 7.33 29.46 12.16
1/13/2023 9:45:00 AM 3.77 38.786 0.136 7.33 30.12 12.22
1/13/2023 10:00:00 AM 3.75 38.75 0.133 7.32 29.57 12.21
1/13/2023 10:15:00 AM 3.74 38.732 0.132 7.31 55.74 12.26
1/13/2023 10:30:00 AM 3.71 38.678 0.13 7.3 40.25 12.32
1/13/2023 10:45:00 AM 3.68 38.624 0.129 7.3 48.91 12.33
1/13/2023 11:00:00 AM 3.66 38.588 0.126 7.29 30.71 12.37
1/13/2023 11:15:00 AM 3.61 38.498 0.121 7.28 39.48 12.42
1/13/2023 11:30:00 AM 3.62 38.516 0.121 7.29 57.5 12.41
1/13/2023 11:45:00 AM 3.63 38.534 0.121 7.26 38.52 12.42
1/13/2023 12:00:00 PM 3.61 38.498 0.12 7.26 43.79 12.45
1/13/2023 12:15:00 PM 3.62 38.516 0.121 7.25 38.08 12.44
1/13/2023 12:30:00 PM 3.61 38.498 0.123 7.25 35 12.48
1/13/2023 12:45:00 PM 3.6 38.48 0.121 7.25 35.64 12.47
1/13/2023 1:00:00 PM 3.58 38.444 0.12 7.26 29.04 12.52
1/13/2023 1:15:00 PM 3.6 38.48 0.121 7.25 31.95 12.48
1/13/2023 1:30:00 PM 3.63 38.534 0.127 7.24 32.73 12.46
1/13/2023 1:45:00 PM 3.6 38.48 0.122 7.25 29.13 12.45
1/13/2023 2:00:00 PM 3.58 38.444 0.123 7.25 26.63 12.49
1/13/2023 2:15:00 PM 3.61 38.498 0.126 7.23 32.9 12.43
1/13/2023 2:30:00 PM 3.59 38.462 0.127 7.24 30.32 12.47
1/13/2023 2:45:00 PM 3.56 38.408 0.126 7.25 33.84 12.46
1/13/2023 3:00:00 PM 3.59 38.462 0.127 7.24 22.6 12.35
1/13/2023 3:15:00 PM 3.58 38.444 0.13 7.25 30.25 12.4
1/13/2023 3:30:00 PM 3.59 38.462 0.138 7.24 27.64 12.36
1/13/2023 3:45:00 PM 3.5 38.3 0.129 7.25 34.04 12.27
1/13/2023 4:00:00 PM 3.47 38.246 0.13 7.25 19.92 12.4
1/13/2023 4:15:00 PM 3.41 38.138 0.128 7.26 27.21 12.46
1/13/2023 4:30:00 PM 3.37 38.066 0.128 7.26 23.08 12.48
1/13/2023 4:45:00 PM 3.35 38.03 0.129 7.25 25.68 12.48
1/13/2023 5:00:00 PM 3.32 37.976 0.131 7.25 22.22 12.46
1/13/2023 5:15:00 PM 3.29 37.922 0.131 7.25 22.67 12.49
1/13/2023 5:30:00 PM 3.25 37.85 0.131 7.25 22.06 12.46
1/13/2023 5:45:00 PM 3.23 37.814 0.133 7.25 21.48 12.47
1/13/2023 6:00:00 PM 3.2 37.76 0.134 7.25 20.24 12.44
1/13/2023 6:15:00 PM 3.16 37.688 0.135 7.26 19.03 12.46
1/13/2023 6:30:00 PM 3.13 37.634 0.137 7.26 28.08 12.45
1/13/2023 6:45:00 PM 3.09 37.562 0.137 7.26 24.94 12.46
1/13/2023 7:00:00 PM 3.05 37.49 0.137 7.26 19.58 12.42
1/13/2023 7:15:00 PM 3.02 37.436 0.139 7.26 18.86 12.45
1/13/2023 7:30:00 PM 2.99 37.382 0.139 7.26 17.2 12.46
1/13/2023 7:45:00 PM 2.96 37.328 0.142 7.26 19.2 12.46
1/13/2023 8:00:00 PM 2.94 37.292 0.145 7.27 17.35 12.45
1/13/2023 8:15:00 PM 2.91 37.238 0.147 7.27 16.51 12.46
1/13/2023 8:30:00 PM 2.87 37.166 0.148 7.28 13.96 12.45
1/13/2023 8:45:00 PM 2.83 37.094 0.148 7.28 16.66 12.45
1/13/2023 9:00:00 PM 2.8 37.04 0.149 7.28 15.9 12.46
1/13/2023 9:15:00 PM 2.77 36.986 0.151 7.28 16.51 12.47
1/13/2023 9:30:00 PM 2.73 36.914 0.151 7.28 15.82 12.47
1/13/2023 9:45:00 PM 2.71 36.878 0.152 7.29 17.65 12.45
1/13/2023 10:00:00 PM 2.67 36.806 0.154 7.29 16.61 12.46
1/13/2023 10:15:00 PM 2.64 36.752 0.155 7.29 16.14 12.47
1/13/2023 10:30:00 PM 2.61 36.698 0.156 7.29 14.92 12.48
1/13/2023 10:45:00 PM 2.57 36.626 0.157 7.3 14.63 12.48
1/13/2023 11:00:00 PM 2.55 36.59 0.158 7.3 14.56 12.48
1/13/2023 11:15:00 PM 2.51 36.518 0.159 7.3 15.05 12.5
1/13/2023 11:30:00 PM 2.47 36.446 0.159 7.3 14.5 12.5
1/13/2023 11:45:00 PM 2.43 36.374 0.16 7.3 14.35 12.52
1/14/2023 12:00:00 AM 2.4 36.32 0.161 7.3 14.04 12.51
1/14/2023 12:15:00 AM 2.36 36.248 0.162 7.31 14.08 12.52
1/14/2023 12:30:00 AM 2.33 36.194 0.164 7.31 13.45 12.54
1/14/2023 12:45:00 AM 2.32 36.176 0.166 7.31 13.58 12.51
1/14/2023 1:00:00 AM 2.27 36.086 0.166 7.32 13.02 12.56
1/14/2023 1:15:00 AM 2.25 36.05 0.166 7.32 13.47 12.55
1/14/2023 1:30:00 AM 2.21 35.978 0.166 7.32 12.88 12.56
1/14/2023 1:45:00 AM 2.18 35.924 0.168 7.31 12.51 12.57
1/14/2023 2:00:00 AM 2.14 35.852 0.168 7.32 12.77 12.56
1/14/2023 2:15:00 AM 2.13 35.834 0.17 7.32 12.17 12.57
1/14/2023 2:30:00 AM 2.09 35.762 0.171 7.33 12.52 12.54
1/14/2023 2:45:00 AM 2.05 35.69 0.171 7.33 12.94 12.61
1/14/2023 3:00:00 AM 2.01 35.618 0.173 7.33 12.01 12.6
1/14/2023 3:15:00 AM 1.98 35.564 0.174 7.33 11.74 12.61
1/14/2023 3:30:00 AM 1.96 35.528 0.177 7.33 11.64 12.64
1/14/2023 3:45:00 AM 1.92 35.456 0.178 7.34 11.38 12.62
1/14/2023 4:00:00 AM 1.9 35.42 0.181 7.35 11.31 12.64
1/14/2023 4:15:00 AM 1.87 35.366 0.182 7.35 10.58 12.64
1/14/2023 4:30:00 AM 1.83 35.294 0.183 7.36 10.89 12.66
1/14/2023 4:45:00 AM 1.8 35.24 0.184 7.36 10.79 12.67
1/14/2023 5:00:00 AM 1.77 35.186 0.185 7.36 10.06 12.68
1/14/2023 5:15:00 AM 1.74 35.132 0.186 7.36 10.22 12.69
1/14/2023 5:30:00 AM 1.71 35.078 0.187 7.37 10.44 12.71
1/14/2023 5:45:00 AM 1.68 35.024 0.188 7.37 10.53 12.71
1/14/2023 6:00:00 AM 1.66 34.988 0.19 7.37 9.91 12.72
1/14/2023 6:15:00 AM 1.63 34.934 0.19 7.37 10.1 12.72
1/14/2023 6:30:00 AM 1.59 34.862 0.19 7.37 9.78 12.73
1/14/2023 6:45:00 AM 1.57 34.826 0.191 7.37 9.87 12.74
1/14/2023 7:00:00 AM 1.54 34.772 0.191 7.37 8.99 12.76
1/14/2023 7:15:00 AM 1.51 34.718 0.192 7.38 10.15 12.77
1/14/2023 7:30:00 AM 1.49 34.682 0.193 7.38 9.5 12.72
1/14/2023 7:45:00 AM 1.47 34.646 0.195 7.38 9.11 12.8
1/14/2023 8:00:00 AM 1.45 34.61 0.196 7.38 9.43 12.78
1/14/2023 8:15:00 AM 1.42 34.556 0.197 7.38 9.19 12.82
1/14/2023 8:30:00 AM 1.39 34.502 0.197 7.39 9.51 12.82
1/14/2023 8:45:00 AM 1.36 34.448 0.197 7.39 10.81 12.86
1/14/2023 9:00:00 AM 1.35 34.43 0.198 7.39 9.18 12.87
1/14/2023 9:15:00 AM 1.34 34.412 0.199 7.4 8.59 12.89
1/14/2023 9:30:00 AM 1.32 34.376 0.19 7.4 8.85 12.91
1/14/2023 9:45:00 AM 1.31 34.358 0.201 7.4 8.41 12.96
1/14/2023 10:00:00 AM 1.31 34.358 0.203 7.41 8.4 12.98
1/14/2023 10:15:00 AM 1.3 34.34 0.203 7.42 8.02 13.01
1/14/2023 10:30:00 AM 1.3 34.34 0.205 7.42 8.28 13.04
1/14/2023 10:45:00 AM 1.3 34.34 0.206 7.43 8.72 13.09
1/14/2023 11:00:00 AM 1.33 34.394 0.208 7.44 8.35 13.11
1/14/2023 11:15:00 AM 1.33 34.394 0.208 7.44 8.06 13.15
1/14/2023 11:30:00 AM 1.36 34.448 0.207 7.45 8.17 13.15
1/14/2023 11:45:00 AM 1.38 34.484 0.207 7.39 8.18 13.2
1/14/2023 12:00:00 PM 1.38 34.484 0.205 7.45 7.81 13.22
1/14/2023 12:15:00 PM 1.41 34.538 0.206 7.45 7.77 13.26
1/14/2023 12:30:00 PM 1.44 34.592 0.207 7.46 7.64 13.29
1/14/2023 12:45:00 PM 1.44 34.592 0.208 7.46 8.28 13.33
1/14/2023 1:00:00 PM 1.48 34.664 0.21 7.47 7.69 13.34
1/14/2023 1:15:00 PM 1.51 34.718 0.212 7.48 7.44 13.36
1/14/2023 1:30:00 PM 1.52 34.736 0.213 7.45 7.58 13.36
1/14/2023 1:45:00 PM 1.55 34.79 0.214 7.49 7.22 13.39
1/14/2023 2:00:00 PM 1.59 34.862 0.216 7.5 7.43 13.39
1/14/2023 2:15:00 PM 1.6 34.88 0.215 7.5 7.5 13.4
1/14/2023 2:30:00 PM 1.6 34.88 0.212 7.5 7.28 13.41
1/14/2023 2:45:00 PM 1.61 34.898 0.211 7.49 7.51 13.41
1/14/2023 3:00:00 PM 1.6 34.88 0.211 7.49 7.22 13.44
1/14/2023 3:15:00 PM 1.59 34.862 0.212 7.49 7.06 13.4
1/14/2023 3:30:00 PM 1.58 34.844 0.213 7.5 7.2 13.41
1/14/2023 3:45:00 PM 1.56 34.808 0.215 7.5 7.35 13.37
1/14/2023 4:00:00 PM 1.56 34.808 0.218 7.5 8.36 13.36
1/14/2023 4:15:00 PM 1.55 34.79 0.219 7.5 8.13 13.32
1/14/2023 4:30:00 PM 1.52 34.736 0.221 7.5 7.45 13.31
1/14/2023 4:45:00 PM 1.5 34.7 0.221 7.5 7.33 13.28
1/14/2023 5:00:00 PM 1.49 34.682 0.222 7.5 7.25 13.26
1/14/2023 5:15:00 PM 1.47 34.646 0.223 7.5 6.86 13.22
1/14/2023 5:30:00 PM 1.45 34.61 0.225 7.5 7.25 13.23
1/14/2023 5:45:00 PM 1.43 34.574 0.225 7.5 6.66 13.19
1/14/2023 6:00:00 PM 1.41 34.538 0.225 7.5 6.46 13.17
1/14/2023 6:15:00 PM 1.39 34.502 0.225 7.49 6.2 13.15
1/14/2023 6:30:00 PM 1.38 34.484 0.225 7.49 6.23 13.14
1/14/2023 6:45:00 PM 1.36 34.448 0.224 7.49 6.12 13.11
1/14/2023 7:00:00 PM 1.34 34.412 0.222 7.48 6.44 13.1
1/14/2023 7:15:00 PM 1.32 34.376 0.223 7.48 6.53 13.09
1/14/2023 7:30:00 PM 1.3 34.34 0.224 7.48 5.99 13.08
1/14/2023 7:45:00 PM 1.27 34.286 0.224 7.47 6.27 13.07
1/14/2023 8:00:00 PM 1.26 34.268 0.225 7.47 5.99 13.04
1/14/2023 8:15:00 PM 1.22 34.196 0.224 7.47 6.12 13.07
1/14/2023 8:30:00 PM 1.22 34.196 0.226 7.46 5.77 13.04
1/14/2023 8:45:00 PM 1.17 34.106 0.223 7.46 6.03 13.03
1/14/2023 9:00:00 PM 1.17 34.106 0.226 7.46 5.91 13.05
1/14/2023 9:15:00 PM 1.12 34.016 0.226 7.46 5.75 13.07
1/14/2023 9:30:00 PM 1.11 33.998 0.227 7.46 5.78 13.05
1/14/2023 9:45:00 PM 1.09 33.962 0.228 7.46 5.9 13.05
1/14/2023 10:00:00 PM 1.07 33.926 0.228 7.46 5.54 13.04
1/14/2023 10:15:00 PM 1.05 33.89 0.229 7.46 5.95 13.05
1/14/2023 10:30:00 PM 1.03 33.854 0.229 7.46 5.48 12.99
1/14/2023 10:45:00 PM 0.99 33.782 0.23 7.46 5.42 13.05
1/14/2023 11:00:00 PM 0.97 33.746 0.232 7.46 5.63 13.06
1/14/2023 11:15:00 PM 0.95 33.71 0.234 7.46 5.71 13.06
1/14/2023 11:30:00 PM 0.93 33.674 0.234 7.47 5.51 13.06
1/14/2023 11:45:00 PM 0.92 33.656 0.234 7.47 5.66 13.05
1/15/2023 12:00:00 AM 0.9 33.62 0.234 7.47 5.3 13.05
1/15/2023 12:15:00 AM 0.9 33.62 0.235 7.47 5.9 13.02
1/15/2023 12:30:00 AM 0.89 33.602 0.236 7.47 5.13 13.05
1/15/2023 12:45:00 AM 0.89 33.602 0.237 7.47 5.41 13.05
1/15/2023 1:00:00 AM 0.9 33.62 0.238 7.47 5.41 13.07
1/15/2023 1:15:00 AM 0.88 33.584 0.238 7.47 5.67 13.04
1/15/2023 1:30:00 AM 0.89 33.602 0.238 7.46 5.39 13.03
1/15/2023 1:45:00 AM 0.88 33.584 0.237 7.46 5.4 13.01
1/15/2023 2:00:00 AM 0.9 33.62 0.238 7.46 5.33 13.05
1/15/2023 2:15:00 AM 0.89 33.602 0.237 7.46 5.3 13.04
1/15/2023 2:30:00 AM 0.88 33.584 0.236 7.46 5.37 13.03
1/15/2023 2:45:00 AM 0.88 33.584 0.236 7.46 5.31 13.03
1/15/2023 3:00:00 AM 0.87 33.566 0.237 7.46 5.23 13.08
1/15/2023 3:15:00 AM 0.86 33.548 0.235 7.46 5.5 13.02
1/15/2023 3:30:00 AM 0.87 33.566 0.237 7.46 5.12 13.03
1/15/2023 3:45:00 AM 0.86 33.548 0.236 7.46 5.38 13.03
1/15/2023 4:00:00 AM 0.86 33.548 0.236 7.46 5.52 13.04
1/15/2023 4:15:00 AM 0.86 33.548 0.237 7.46 5.31 13.01
1/15/2023 4:30:00 AM 0.88 33.584 0.237 7.46 5.37 13.02
1/15/2023 4:45:00 AM 0.88 33.584 0.237 7.46 5.31 13.02
1/15/2023 5:00:00 AM 0.88 33.584 0.237 7.45 5.1 13.01
1/15/2023 5:15:00 AM 0.88 33.584 0.237 7.46 5.43 13.03
1/15/2023 5:30:00 AM 0.87 33.566 0.238 7.46 5.31 13.02
1/15/2023 5:45:00 AM 0.87 33.566 0.236 7.45 5.35 13.01
1/15/2023 6:00:00 AM 0.88 33.584 0.237 7.46 5.32 13.02
1/15/2023 6:15:00 AM 0.87 33.566 0.237 7.46 5.36 13.01
1/15/2023 6:30:00 AM 0.88 33.584 0.238 7.46 5.54 13.04
1/15/2023 6:45:00 AM 0.9 33.62 0.238 7.46 5.7 13.01
1/15/2023 7:00:00 AM 0.89 33.602 0.238 7.46 5.32 13
1/15/2023 7:15:00 AM 0.88 33.584 0.238 7.46 5.26 13.02
1/15/2023 7:30:00 AM 0.88 33.584 0.239 7.46 5.19 13.03
1/15/2023 7:45:00 AM 0.87 33.566 0.239 7.46 5.1 13.02
1/15/2023 8:00:00 AM 0.89 33.602 0.239 7.46 5.63 13.07
1/15/2023 8:15:00 AM 0.9 33.62 0.239 7.46 5.66 13.05
1/15/2023 8:30:00 AM 0.9 33.62 0.239 7.46 5.69 13.07
1/15/2023 8:45:00 AM 0.9 33.62 0.24 7.46 6.31 13.06
1/15/2023 9:00:00 AM 0.89 33.602 0.241 7.47 6.34 13.1
1/15/2023 9:15:00 AM 0.91 33.638 0.244 7.47 6.32 13.15
1/15/2023 9:30:00 AM 0.94 33.692 0.26 7.47 6.81 13.15
1/15/2023 9:45:00 AM 0.95 33.71 0.263 7.48 6.34 13.17
1/15/2023 10:00:00 AM 0.97 33.746 0.26 7.48 6.71 13.19
1/15/2023 10:15:00 AM 1 33.8 0.259 7.48 7.13 13.21
1/15/2023 10:30:00 AM 1.03 33.854 0.257 7.49 7.23 13.24
1/15/2023 10:45:00 AM 1.05 33.89 0.256 7.49 6.53 13.27
1/15/2023 11:00:00 AM 1.09 33.962 0.255 7.49 6.33 13.29
1/15/2023 11:15:00 AM 1.13 34.034 0.254 7.5 5.98 13.34
1/15/2023 11:30:00 AM 1.17 34.106 0.254 7.5 6.67 13.35
1/15/2023 11:45:00 AM 1.19 34.142 0.255 7.51 6.62 13.38
1/15/2023 12:00:00 PM 1.24 34.232 0.256 7.51 6.47 13.41
1/15/2023 12:15:00 PM 1.28 34.304 0.255 7.52 6.89 13.42
1/15/2023 12:30:00 PM 1.31 34.358 0.256 7.52 6.16 13.45
1/15/2023 12:45:00 PM 1.33 34.394 0.255 7.52 6.53 13.46
1/15/2023 1:00:00 PM 1.37 34.466 0.253 7.53 6.89 13.47
1/15/2023 1:15:00 PM 1.42 34.556 0.254 7.53 6.9 13.49
1/15/2023 1:30:00 PM 1.47 34.646 0.254 7.53 7.55 13.49
1/15/2023 1:45:00 PM 1.52 34.736 0.254 7.53 7.21 13.48
1/15/2023 2:00:00 PM 1.53 34.754 0.253 7.54 7.04 13.49
1/15/2023 2:15:00 PM 1.56 34.808 0.253 7.54 7.4 13.52
1/15/2023 2:30:00 PM 1.58 34.844 0.253 7.54 6.97 13.51
1/15/2023 2:45:00 PM 1.63 34.934 0.254 7.54 6.75 13.51
1/15/2023 3:00:00 PM 1.65 34.97 0.253 7.54 7.02 13.5
1/15/2023 3:15:00 PM 1.69 35.042 0.254 7.55 7.15 13.5
1/15/2023 3:30:00 PM 1.73 35.114 0.254 7.55 7.16 13.51
1/15/2023 3:45:00 PM 1.72 35.096 0.253 7.55 7.67 13.5
1/15/2023 4:00:00 PM 1.73 35.114 0.253 7.55 8.19 13.5
1/15/2023 4:15:00 PM 1.73 35.114 0.252 7.55 7.03 13.46
1/15/2023 4:30:00 PM 1.73 35.114 0.252 7.55 7.24 13.43
1/15/2023 4:45:00 PM 1.7 35.06 0.243 7.55 7.57 13.41
1/15/2023 5:00:00 PM 1.69 35.042 0.238 7.54 7.85 13.4
1/15/2023 5:15:00 PM 1.66 34.988 0.239 7.54 7.69 13.37
1/15/2023 5:30:00 PM 1.59 34.862 0.237 7.48 8.04 13.34
1/15/2023 5:45:00 PM 1.57 34.826 0.237 7.53 7.8 13.3
1/15/2023 6:00:00 PM 1.53 34.754 0.237 7.53 7.08 13.27
1/15/2023 6:15:00 PM 1.51 34.718 0.237 7.52 6.88 13.24
1/15/2023 6:30:00 PM 1.49 34.682 0.238 7.52 6.09 13.21
1/15/2023 6:45:00 PM 1.49 34.682 0.238 7.52 6.03 13.2
1/15/2023 7:00:00 PM 1.47 34.646 0.236 7.51 6.26 13.17
1/15/2023 7:15:00 PM 1.44 34.592 0.236 7.5 5.58 13.15
1/15/2023 7:30:00 PM 1.43 34.574 0.236 7.5 5.6 13.13
1/15/2023 7:45:00 PM 1.4 34.52 0.237 7.5 5.45 13.14
1/15/2023 8:00:00 PM 1.37 34.466 0.238 7.5 5.27 13.08
1/15/2023 8:15:00 PM 1.35 34.43 0.239 7.49 5.25 13.08
1/15/2023 8:30:00 PM 1.33 34.394 0.24 7.49 5.08 13.08
1/15/2023 8:45:00 PM 1.3 34.34 0.241 7.49 5.16 13.07
1/15/2023 9:00:00 PM 1.29 34.322 0.242 7.49 5.19 13.03
1/15/2023 9:15:00 PM 1.28 34.304 0.242 7.49 5.19 13.04
1/15/2023 9:30:00 PM 1.27 34.286 0.243 7.49 5.16 13.04
1/15/2023 9:45:00 PM 1.26 34.268 0.242 7.49 5.19 13.02
1/15/2023 10:00:00 PM 1.25 34.25 0.241 7.48 5.06 13
1/15/2023 10:15:00 PM 1.23 34.214 0.241 7.48 5.27 13
1/15/2023 10:30:00 PM 1.22 34.196 0.241 7.48 4.97 13.03
1/15/2023 10:45:00 PM 1.2 34.16 0.241 7.48 4.92 13.01
1/15/2023 11:00:00 PM 1.19 34.142 0.241 7.48 5.22 13
1/15/2023 11:15:00 PM 1.16 34.088 0.241 7.48 4.92 13.01
1/15/2023 11:30:00 PM 1.16 34.088 0.242 7.48 4.82 13.01
1/15/2023 11:45:00 PM 1.13 34.034 0.242 7.47 4.76 13
1/16/2023 12:00:00 AM 1.1 33.98 0.242 7.47 4.62 12.99
1/16/2023 12:15:00 AM 1.1 33.98 0.243 7.47 4.83 12.96
1/16/2023 12:30:00 AM 1.07 33.926 0.243 7.47 4.75 12.98
1/16/2023 12:45:00 AM 1.06 33.908 0.244 7.47 4.55 12.99
1/16/2023 1:00:00 AM 1.06 33.908 0.244 7.47 4.51 12.97
1/16/2023 1:15:00 AM 1.05 33.89 0.245 7.47 4.66 12.99
1/16/2023 1:30:00 AM 1.04 33.872 0.246 7.47 4.52 12.98
1/16/2023 1:45:00 AM 1.03 33.854 0.245 7.47 4.42 12.96
1/16/2023 2:00:00 AM 1.01 33.818 0.245 7.47 4.41 12.99
1/16/2023 2:15:00 AM 1.01 33.818 0.245 7.47 4.47 12.98
1/16/2023 2:30:00 AM 1.01 33.818 0.246 7.47 4.48 12.96
1/16/2023 2:45:00 AM 0.98 33.764 0.246 7.47 4.73 12.97
1/16/2023 3:00:00 AM 0.98 33.764 0.246 7.47 4.59 12.95
1/16/2023 3:15:00 AM 0.97 33.746 0.247 7.47 4.61 12.97
1/16/2023 3:30:00 AM 0.94 33.692 0.248 7.47 4.65 12.95
1/16/2023 3:45:00 AM 0.94 33.692 0.249 7.47 4.34 12.96
1/16/2023 4:00:00 AM 0.93 33.674 0.249 7.47 4.69 12.94
1/16/2023 4:15:00 AM 0.92 33.656 0.248 7.47 4.66 12.91
1/16/2023 4:30:00 AM 0.9 33.62 0.249 7.47 4.65 12.96
1/16/2023 4:45:00 AM 0.89 33.602 0.248 7.47 4.94 12.93
1/16/2023 5:00:00 AM 0.9 33.62 0.248 7.46 5 12.93
1/16/2023 5:15:00 AM 0.9 33.62 0.249 7.46 4.58 12.9
1/16/2023 5:30:00 AM 0.88 33.584 0.25 7.46 4.47 12.9
1/16/2023 5:45:00 AM 0.88 33.584 0.25 7.46 4.58 12.9
1/16/2023 6:00:00 AM 0.87 33.566 0.251 7.46 4.68 12.91
1/16/2023 6:15:00 AM 0.87 33.566 0.251 7.46 4.58 12.89
1/16/2023 6:30:00 AM 0.89 33.602 0.251 7.46 4.54 12.88
1/16/2023 6:45:00 AM 0.9 33.62 0.253 7.46 4.47 12.87
1/16/2023 7:00:00 AM 0.92 33.656 0.254 7.46 4.65 12.88
1/16/2023 7:15:00 AM 0.93 33.674 0.256 7.46 5.41 12.87
1/16/2023 7:30:00 AM 0.93 33.674 0.256 7.46 5.67 12.85
1/16/2023 7:45:00 AM 0.92 33.656 0.256 7.47 7.14 12.88
1/16/2023 8:00:00 AM 0.93 33.674 0.256 7.46 8.12 12.89
1/16/2023 8:15:00 AM 0.96 33.728 0.256 7.46 8.19 12.87
1/16/2023 8:30:00 AM 0.97 33.746 0.255 7.46 9.6 12.88
1/16/2023 8:45:00 AM 0.98 33.764 0.254 7.46 8.82 12.91